
Distance (Route):
Temperature : 0°C
Humidity : 0%
Pressure : 0hPa| Receiver | Frames | First received | Last received |
|---|---|---|---|
| SQ6EMJ | 326 | 2026-08-31 11:31:21 | 2026-08-31 13:09:23 |
| KRY50SP | 326 | 2026-08-31 11:38:59 | 2026-08-31 13:15:04 |
| PETON7-10 | 101 | 2026-08-31 12:23:49 | 2026-08-31 12:52:15 |
| SP3BTT-10 | 69 | 2026-08-31 11:36:44 | 2026-08-31 13:15:21 |
| OM5KV | 35 | 2026-08-31 12:33:16 | 2026-08-31 12:35:54 |
| SP6BVK | 34 | 2026-08-31 13:10:09 | 2026-08-31 13:22:25 |
| OE5DRO-10 | 16 | 2026-08-31 12:30:08 | 2026-08-31 12:50:43 |
| OE3JTB-15 | 1 | 2026-08-31 11:53:39 | 2026-08-31 11:53:39 |
| Receiver | Date | Latitude | Longitude | Direction | Speed | Altitude | Climb | Temperature | Humidity | Pressure | Voltage | Killtimer | Uptime | BKT | XDATA |
|---|---|---|---|---|---|---|---|---|---|---|---|---|---|---|---|
| SP6BVK | 2026-08-31 13:22:25 | 51.52900 | 18.12304 | 61° | 55km/h | 3798m | -8.9m/s | 0°C | 0% | 0hPa | 0V | 00:00:00 | 00:00:00 | 00:00:00 | |
| SP6BVK | 2026-08-31 13:21:58 | 51.52699 | 18.11779 | 62° | 53km/h | 4063m | -10.5m/s | 0°C | 0% | 0hPa | 0V | 00:00:00 | 00:00:00 | 00:00:00 | |
| SP6BVK | 2026-08-31 13:21:33 | 51.52552 | 18.11278 | 66° | 60km/h | 4319m | -9.2m/s | 0°C | 0% | 0hPa | 0V | 00:00:00 | 00:00:00 | 00:00:00 | |
| SP6BVK | 2026-08-31 13:21:13 | 51.52424 | 18.10859 | 69° | 57km/h | 4516m | -9.7m/s | 0°C | 0% | 0hPa | 0V | 00:00:00 | 00:00:00 | 00:00:00 | |
| SP6BVK | 2026-08-31 13:20:12 | 51.52179 | 18.09481 | 84° | 53km/h | 5119m | -10.1m/s | 0°C | 0% | 0hPa | 0V | 00:00:00 | 00:00:00 | 00:00:00 | |
| SP6BVK | 2026-08-31 13:19:46 | 51.52124 | 18.08962 | 78° | 55km/h | 5343m | -8.5m/s | 0°C | 0% | 0hPa | 0V | 00:00:00 | 00:00:00 | 00:00:00 | |
| SP6BVK | 2026-08-31 13:19:26 | 51.52057 | 18.08496 | 74° | 58km/h | 5538m | -7.9m/s | 0°C | 0% | 0hPa | 0V | 00:00:00 | 00:00:00 | 00:00:00 | |
| SP6BVK | 2026-08-31 13:19:06 | 51.51975 | 18.08033 | 76° | 64km/h | 5730m | -9.4m/s | 0°C | 0% | 0hPa | 0V | 00:00:00 | 00:00:00 | 00:00:00 | |
| SP6BVK | 2026-08-31 13:18:45 | 51.51887 | 18.07524 | 78° | 64km/h | 5933m | -8.4m/s | 0°C | 0% | 0hPa | 0V | 00:00:00 | 00:00:00 | 00:00:00 | |
| SP6BVK | 2026-08-31 13:18:24 | 51.51801 | 18.07010 | 76° | 64km/h | 6126m | -10.8m/s | 0°C | 0% | 0hPa | 0V | 00:00:00 | 00:00:00 | 00:00:00 | |
| SP6BVK | 2026-08-31 13:18:04 | 51.51706 | 18.06488 | 76° | 73km/h | 6315m | -8.6m/s | 0°C | 0% | 0hPa | 0V | 00:00:00 | 00:00:00 | 00:00:00 | |
| SP6BVK | 2026-08-31 13:17:41 | 51.51591 | 18.05831 | 76° | 78km/h | 6533m | -9.8m/s | 0°C | 0% | 0hPa | 0V | 00:00:00 | 00:00:00 | 00:00:00 | |
| SP6BVK | 2026-08-31 13:17:21 | 51.51477 | 18.05216 | 77° | 80km/h | 6728m | -10.1m/s | 0°C | 0% | 0hPa | 0V | 00:00:00 | 00:00:00 | 00:00:00 | |
| SP6BVK | 2026-08-31 13:17:01 | 51.51360 | 18.04571 | 75° | 82km/h | 6928m | -7.9m/s | 0°C | 0% | 0hPa | 0V | 00:00:00 | 00:00:00 | 00:00:00 | |
| SP6BVK | 2026-08-31 13:16:40 | 51.51225 | 18.03894 | 74° | 86km/h | 7138m | -9.7m/s | 0°C | 0% | 0hPa | 0V | 00:00:00 | 00:00:00 | 00:00:00 | |
| SP6BVK | 2026-08-31 13:16:19 | 51.51066 | 18.03227 | 69° | 78km/h | 7344m | -10.8m/s | 0°C | 0% | 0hPa | 0V | 00:00:00 | 00:00:00 | 00:00:00 | |
| SP6BVK | 2026-08-31 13:15:59 | 51.50918 | 18.02620 | 66° | 84km/h | 7547m | -10.3m/s | 0°C | 0% | 0hPa | 0V | 00:00:00 | 00:00:00 | 00:00:00 | |
| SP6BVK | 2026-08-31 13:15:38 | 51.50731 | 18.02009 | 64° | 82km/h | 7760m | -8.8m/s | 0°C | 0% | 0hPa | 0V | 00:00:00 | 00:00:00 | 00:00:00 | |
| SP3BTT-10 | 2026-08-31 13:15:21 | 51.50564 | 18.01533 | 56° | 82km/h | 7934m | -11.7m/s | 0°C | 0% | 0hPa | 0V | 00:00:00 | 00:00:00 | 00:00:00 | |
| SP6BVK | 2026-08-31 13:15:17 | 51.50523 | 18.01426 | 60° | 80km/h | 7977m | -10.5m/s | 0°C | 0% | 0hPa | 0V | 00:00:00 | 00:00:00 | 00:00:00 | |
| KRY50SP | 2026-08-31 13:15:04 | 51.50383 | 18.01065 | 58° | 84km/h | 8110m | -9.7m/s | 0°C | 0% | 0hPa | 0V | 00:00:00 | 00:00:00 | 00:00:00 | |
| SP6BVK | 2026-08-31 13:14:57 | 51.50306 | 18.00867 | 58° | 84km/h | 8181m | -8.7m/s | 0°C | 0% | 0hPa | 0V | 00:00:00 | 00:00:00 | 00:00:00 | |
| SP6BVK | 2026-08-31 13:14:36 | 51.50042 | 18.00270 | 52° | 86km/h | 8390m | -10.7m/s | 0°C | 0% | 0hPa | 0V | 00:00:00 | 00:00:00 | 00:00:00 | |
| SP6BVK | 2026-08-31 13:14:15 | 51.49757 | 17.99702 | 54° | 84km/h | 8608m | -9.9m/s | 0°C | 0% | 0hPa | 0V | 00:00:00 | 00:00:00 | 00:00:00 | |
| SP3BTT-10 | 2026-08-31 13:13:57 | 51.49524 | 17.99209 | 55° | 82km/h | 8774m | -9.4m/s | 0°C | 0% | 0hPa | 0V | 00:00:00 | 00:00:00 | 00:00:00 | |
| SP6BVK | 2026-08-31 13:13:54 | 51.49486 | 17.99130 | 50° | 82km/h | 8800m | -6.6m/s | 0°C | 0% | 0hPa | 0V | 00:00:00 | 00:00:00 | 00:00:00 | |
| SP6BVK | 2026-08-31 13:13:34 | 51.49217 | 17.98598 | 51° | 84km/h | 8995m | -8.7m/s | 0°C | 0% | 0hPa | 0V | 00:00:00 | 00:00:00 | 00:00:00 | |
| SP3BTT-10 | 2026-08-31 13:13:20 | 51.49040 | 17.98234 | 52° | 78km/h | 9133m | -9.3m/s | 0°C | 0% | 0hPa | 0V | 00:00:00 | 00:00:00 | 00:00:00 | |
| SP6BVK | 2026-08-31 13:13:13 | 51.48955 | 17.98061 | 51° | 78km/h | 9204m | -10.4m/s | 0°C | 0% | 0hPa | 0V | 00:00:00 | 00:00:00 | 00:00:00 | |
| SP6BVK | 2026-08-31 13:12:53 | 51.48701 | 17.97542 | 55° | 78km/h | 9417m | -9.2m/s | 0°C | 0% | 0hPa | 0V | 00:00:00 | 00:00:00 | 00:00:00 | |
| SP6BVK | 2026-08-31 13:12:32 | 51.48486 | 17.97026 | 59° | 78km/h | 9625m | -9.3m/s | 0°C | 0% | 0hPa | 0V | 00:00:00 | 00:00:00 | 00:00:00 | |
| SP3BTT-10 | 2026-08-31 13:12:18 | 51.48337 | 17.96646 | 58° | 86km/h | 9770m | -8.4m/s | 0°C | 0% | 0hPa | 0V | 00:00:00 | 00:00:00 | 00:00:00 | |
| SP6BVK | 2026-08-31 13:12:11 | 51.48265 | 17.96460 | 59° | 78km/h | 9838m | -9.5m/s | 0°C | 0% | 0hPa | 0V | 00:00:00 | 00:00:00 | 00:00:00 | |
| SP6BVK | 2026-08-31 13:11:51 | 51.48052 | 17.95919 | 59° | 80km/h | 10045m | -9.5m/s | 0°C | 0% | 0hPa | 0V | 00:00:00 | 00:00:00 | 00:00:00 | |
| SP6BVK | 2026-08-31 13:11:31 | 51.47846 | 17.95322 | 60° | 84km/h | 10258m | -10.3m/s | 0°C | 0% | 0hPa | 0V | 00:00:00 | 00:00:00 | 00:00:00 | |
| KRY50SP | 2026-08-31 13:11:25 | 51.47778 | 17.95147 | 58° | 86km/h | 10317m | -9.4m/s | 0°C | 0% | 0hPa | 0V | 00:00:00 | 00:00:00 | 00:00:00 | |
| SP6BVK | 2026-08-31 13:11:10 | 51.47603 | 17.94673 | 59° | 91km/h | 10476m | -9.8m/s | 0°C | 0% | 0hPa | 0V | 00:00:00 | 00:00:00 | 00:00:00 | |
| KRY50SP | 2026-08-31 13:10:54 | 51.47403 | 17.94160 | 60° | 97km/h | 10647m | -9.8m/s | 0°C | 0% | 0hPa | 0V | 00:00:00 | 00:00:00 | 00:00:00 | |
| SP3BTT-10 | 2026-08-31 13:10:51 | 51.47366 | 17.94059 | 61° | 106km/h | 10678m | -9.6m/s | 0°C | 0% | 0hPa | 0V | 00:00:00 | 00:00:00 | 00:00:00 | |
| SP6BVK | 2026-08-31 13:10:50 | 51.47354 | 17.94024 | 62° | 99km/h | 10689m | -10.0m/s | 0°C | 0% | 0hPa | 0V | 00:00:00 | 00:00:00 | 00:00:00 | |
| KRY50SP | 2026-08-31 13:10:40 | 51.47234 | 17.93660 | 64° | 104km/h | 10793m | -10.0m/s | 0°C | 0% | 0hPa | 0V | 00:00:00 | 00:00:00 | 00:00:00 | |
| SP6BVK | 2026-08-31 13:10:30 | 51.47121 | 17.93291 | 66° | 102km/h | 10899m | -10.4m/s | 0°C | 0% | 0hPa | 0V | 00:00:00 | 00:00:00 | 00:00:00 | |
| KRY50SP | 2026-08-31 13:10:13 | 51.46921 | 17.92649 | 62° | 104km/h | 11090m | -11.5m/s | 0°C | 0% | 0hPa | 0V | 00:00:00 | 00:00:00 | 00:00:00 | |
| SP6BVK | 2026-08-31 13:10:09 | 51.46869 | 17.92498 | 63° | 110km/h | 11137m | -10.8m/s | 0°C | 0% | 0hPa | 0V | 00:00:00 | 00:00:00 | 00:00:00 | |
| KRY50SP | 2026-08-31 13:10:05 | 51.46816 | 17.92344 | 61° | 110km/h | 11182m | -10.6m/s | 0°C | 0% | 0hPa | 0V | 00:00:00 | 00:00:00 | 00:00:00 | |
| SP3BTT-10 | 2026-08-31 13:09:57 | 51.46705 | 17.92036 | 60° | 115km/h | 11272m | -10.6m/s | 0°C | 0% | 0hPa | 0V | 00:00:00 | 00:00:00 | 00:00:00 | |
| KRY50SP | 2026-08-31 13:09:55 | 51.46677 | 17.91962 | 60° | 108km/h | 11294m | -10.9m/s | 0°C | 0% | 0hPa | 0V | 00:00:00 | 00:00:00 | 00:00:00 | |
| KRY50SP | 2026-08-31 13:09:24 | 51.46249 | 17.90695 | 60° | 122km/h | 11664m | -10.3m/s | 0°C | 0% | 0hPa | 0V | 00:00:00 | 00:00:00 | 00:00:00 | |
| SQ6EMJ | 2026-08-31 13:09:23 | 51.46232 | 17.90652 | 60° | 122km/h | 11676m | -10.8m/s | 0°C | 0% | 0hPa | 0V | 00:00:00 | 00:00:00 | 00:00:00 | |
| KRY50SP | 2026-08-31 13:09:18 | 51.46150 | 17.90439 | 59° | 122km/h | 11736m | -10.1m/s | 0°C | 0% | 0hPa | 0V | 00:00:00 | 00:00:00 | 00:00:00 | |
| SP3BTT-10 | 2026-08-31 13:09:15 | 51.46101 | 17.90312 | 59° | 128km/h | 11770m | -10.3m/s | 0°C | 0% | 0hPa | 0V | 00:00:00 | 00:00:00 | 00:00:00 | |
| KRY50SP | 2026-08-31 13:09:00 | 51.45864 | 17.89651 | 63° | 133km/h | 11950m | -11.6m/s | 0°C | 0% | 0hPa | 0V | 00:00:00 | 00:00:00 | 00:00:00 | |
| KRY50SP | 2026-08-31 13:08:50 | 51.45716 | 17.89164 | 64° | 131km/h | 12072m | -11.2m/s | 0°C | 0% | 0hPa | 0V | 00:00:00 | 00:00:00 | 00:00:00 | |
| KRY50SP | 2026-08-31 13:08:39 | 51.45551 | 17.88635 | 66° | 133km/h | 12207m | -9.8m/s | 0°C | 0% | 0hPa | 0V | 00:00:00 | 00:00:00 | 00:00:00 | |
| KRY50SP | 2026-08-31 13:08:32 | 51.45452 | 17.88298 | 65° | 131km/h | 12292m | -11.8m/s | 0°C | 0% | 0hPa | 0V | 00:00:00 | 00:00:00 | 00:00:00 | |
| KRY50SP | 2026-08-31 13:08:26 | 51.45360 | 17.88017 | 63° | 130km/h | 12368m | -12.2m/s | 0°C | 0% | 0hPa | 0V | 00:00:00 | 00:00:00 | 00:00:00 | |
| SQ6EMJ | 2026-08-31 13:08:22 | 51.45297 | 17.87836 | 61° | 128km/h | 12420m | -11.8m/s | 0°C | 0% | 0hPa | 0V | 00:00:00 | 00:00:00 | 00:00:00 | |
| KRY50SP | 2026-08-31 13:08:21 | 51.45281 | 17.87791 | 61° | 126km/h | 12432m | -11.4m/s | 0°C | 0% | 0hPa | 0V | 00:00:00 | 00:00:00 | 00:00:00 | |
| SQ6EMJ | 2026-08-31 13:08:15 | 51.45186 | 17.87519 | 62° | 131km/h | 12506m | -11.3m/s | 0°C | 0% | 0hPa | 0V | 00:00:00 | 00:00:00 | 00:00:00 | |
| KRY50SP | 2026-08-31 13:08:14 | 51.45170 | 17.87473 | 62° | 130km/h | 12518m | -11.4m/s | 0°C | 0% | 0hPa | 0V | 00:00:00 | 00:00:00 | 00:00:00 | |
| KRY50SP | 2026-08-31 13:08:08 | 51.45080 | 17.87188 | 67° | 130km/h | 12589m | -10.5m/s | 0°C | 0% | 0hPa | 0V | 00:00:00 | 00:00:00 | 00:00:00 | |
| SP3BTT-10 | 2026-08-31 13:07:57 | 51.44946 | 17.86651 | 69° | 104km/h | 12725m | -12.4m/s | 0°C | 0% | 0hPa | 0V | 00:00:00 | 00:00:00 | 00:00:00 | |
| KRY50SP | 2026-08-31 13:07:56 | 51.44933 | 17.86603 | 68° | 131km/h | 12739m | -12.3m/s | 0°C | 0% | 0hPa | 0V | 00:00:00 | 00:00:00 | 00:00:00 | |
| SQ6EMJ | 2026-08-31 13:07:53 | 51.44894 | 17.86459 | 68° | 130km/h | 12775m | -11.8m/s | 0°C | 0% | 0hPa | 0V | 00:00:00 | 00:00:00 | 00:00:00 | |
| KRY50SP | 2026-08-31 13:07:48 | 51.44832 | 17.86217 | 70° | 130km/h | 12835m | -11.6m/s | 0°C | 0% | 0hPa | 0V | 00:00:00 | 00:00:00 | 00:00:00 | |
| SQ6EMJ | 2026-08-31 13:07:46 | 51.44809 | 17.86118 | 71° | 133km/h | 12860m | -11.3m/s | 0°C | 0% | 0hPa | 0V | 00:00:00 | 00:00:00 | 00:00:00 | |
| KRY50SP | 2026-08-31 13:07:42 | 51.44767 | 17.85919 | 74° | 130km/h | 12915m | -12.6m/s | 0°C | 0% | 0hPa | 0V | 00:00:00 | 00:00:00 | 00:00:00 | |
| SQ6EMJ | 2026-08-31 13:07:36 | 51.44708 | 17.85626 | 70° | 124km/h | 12995m | -12.9m/s | 0°C | 0% | 0hPa | 0V | 00:00:00 | 00:00:00 | 00:00:00 | |
| KRY50SP | 2026-08-31 13:07:29 | 51.44627 | 17.85301 | 68° | 122km/h | 13085m | -11.8m/s | 0°C | 0% | 0hPa | 0V | 00:00:00 | 00:00:00 | 00:00:00 | |
| SQ6EMJ | 2026-08-31 13:07:24 | 51.44568 | 17.85084 | 66° | 113km/h | 13147m | -11.8m/s | 0°C | 0% | 0hPa | 0V | 00:00:00 | 00:00:00 | 00:00:00 | |
| KRY50SP | 2026-08-31 13:07:23 | 51.44556 | 17.85041 | 65° | 115km/h | 13159m | -12.5m/s | 0°C | 0% | 0hPa | 0V | 00:00:00 | 00:00:00 | 00:00:00 | |
| KRY50SP | 2026-08-31 13:07:18 | 51.44494 | 17.84828 | 67° | 119km/h | 13219m | -11.6m/s | 0°C | 0% | 0hPa | 0V | 00:00:00 | 00:00:00 | 00:00:00 | |
| SQ6EMJ | 2026-08-31 13:07:15 | 51.44460 | 17.84697 | 69° | 115km/h | 13255m | -11.2m/s | 0°C | 0% | 0hPa | 0V | 00:00:00 | 00:00:00 | 00:00:00 | |
| KRY50SP | 2026-08-31 13:07:09 | 51.44401 | 17.84438 | 72° | 113km/h | 13336m | -12.5m/s | 0°C | 0% | 0hPa | 0V | 00:00:00 | 00:00:00 | 00:00:00 | |
| KRY50SP | 2026-08-31 13:07:03 | 51.44351 | 17.84181 | 73° | 106km/h | 13412m | -12.5m/s | 0°C | 0% | 0hPa | 0V | 00:00:00 | 00:00:00 | 00:00:00 | |
| SQ6EMJ | 2026-08-31 13:07:01 | 51.44337 | 17.84099 | 76° | 104km/h | 13437m | -11.8m/s | 0°C | 0% | 0hPa | 0V | 00:00:00 | 00:00:00 | 00:00:00 | |
| KRY50SP | 2026-08-31 13:06:57 | 51.44312 | 17.83933 | 78° | 106km/h | 13490m | -11.6m/s | 0°C | 0% | 0hPa | 0V | 00:00:00 | 00:00:00 | 00:00:00 | |
| SQ6EMJ | 2026-08-31 13:06:53 | 51.44290 | 17.83768 | 78° | 102km/h | 13541m | -12.5m/s | 0°C | 0% | 0hPa | 0V | 00:00:00 | 00:00:00 | 00:00:00 | |
| KRY50SP | 2026-08-31 13:06:47 | 51.44248 | 17.83531 | 74° | 102km/h | 13624m | -12.2m/s | 0°C | 0% | 0hPa | 0V | 00:00:00 | 00:00:00 | 00:00:00 | |
| SQ6EMJ | 2026-08-31 13:06:41 | 51.44210 | 17.83304 | 75° | 93km/h | 13701m | -11.3m/s | 0°C | 0% | 0hPa | 0V | 00:00:00 | 00:00:00 | 00:00:00 | |
| KRY50SP | 2026-08-31 13:06:37 | 51.44182 | 17.83163 | 73° | 91km/h | 13750m | -11.6m/s | 0°C | 0% | 0hPa | 0V | 00:00:00 | 00:00:00 | 00:00:00 | |
| SQ6EMJ | 2026-08-31 13:06:34 | 51.44159 | 17.83059 | 69° | 91km/h | 13788m | -12.4m/s | 0°C | 0% | 0hPa | 0V | 00:00:00 | 00:00:00 | 00:00:00 | |
| KRY50SP | 2026-08-31 13:06:30 | 51.44127 | 17.82925 | 71° | 88km/h | 13839m | -11.8m/s | 0°C | 0% | 0hPa | 0V | 00:00:00 | 00:00:00 | 00:00:00 | |
| KRY50SP | 2026-08-31 13:06:24 | 51.44082 | 17.82721 | 71° | 88km/h | 13917m | -12.9m/s | 0°C | 0% | 0hPa | 0V | 00:00:00 | 00:00:00 | 00:00:00 | |
| KRY50SP | 2026-08-31 13:06:17 | 51.44043 | 17.82499 | 76° | 78km/h | 14012m | -12.3m/s | 0°C | 0% | 0hPa | 0V | 00:00:00 | 00:00:00 | 00:00:00 | |
| SQ6EMJ | 2026-08-31 13:06:14 | 51.44028 | 17.82404 | 76° | 80km/h | 14050m | -12.7m/s | 0°C | 0% | 0hPa | 0V | 00:00:00 | 00:00:00 | 00:00:00 | |
| SP3BTT-10 | 2026-08-31 13:06:13 | 51.44023 | 17.82373 | 75° | 66km/h | 14064m | -12.7m/s | 0°C | 0% | 0hPa | 0V | 00:00:00 | 00:00:00 | 00:00:00 | |
| KRY50SP | 2026-08-31 13:06:11 | 51.44012 | 17.82312 | 73° | 75km/h | 14093m | -11.4m/s | 0°C | 0% | 0hPa | 0V | 00:00:00 | 00:00:00 | 00:00:00 | |
| KRY50SP | 2026-08-31 13:06:06 | 51.43985 | 17.82171 | 72° | 68km/h | 14157m | -11.9m/s | 0°C | 0% | 0hPa | 0V | 00:00:00 | 00:00:00 | 00:00:00 | |
| SQ6EMJ | 2026-08-31 13:06:01 | 51.43957 | 17.82048 | 71° | 62km/h | 14225m | -12.2m/s | 0°C | 0% | 0hPa | 0V | 00:00:00 | 00:00:00 | 00:00:00 | |
| KRY50SP | 2026-08-31 13:05:54 | 51.43912 | 17.81897 | 61° | 60km/h | 14314m | -12.0m/s | 0°C | 0% | 0hPa | 0V | 00:00:00 | 00:00:00 | 00:00:00 | |
| KRY50SP | 2026-08-31 13:05:48 | 51.43863 | 17.81773 | 54° | 58km/h | 14392m | -12.3m/s | 0°C | 0% | 0hPa | 0V | 00:00:00 | 00:00:00 | 00:00:00 | |
| SQ6EMJ | 2026-08-31 13:05:44 | 51.43829 | 17.81692 | 55° | 64km/h | 14444m | -13.4m/s | 0°C | 0% | 0hPa | 0V | 00:00:00 | 00:00:00 | 00:00:00 | |
| KRY50SP | 2026-08-31 13:05:39 | 51.43780 | 17.81586 | 56° | 66km/h | 14511m | -11.9m/s | 0°C | 0% | 0hPa | 0V | 00:00:00 | 00:00:00 | 00:00:00 | |
| SQ6EMJ | 2026-08-31 13:05:38 | 51.43771 | 17.81564 | 55° | 64km/h | 14523m | -11.3m/s | 0°C | 0% | 0hPa | 0V | 00:00:00 | 00:00:00 | 00:00:00 | |
| KRY50SP | 2026-08-31 13:05:29 | 51.43692 | 17.81375 | 61° | 60km/h | 14647m | -12.4m/s | 0°C | 0% | 0hPa | 0V | 00:00:00 | 00:00:00 | 00:00:00 | |
| KRY50SP | 2026-08-31 13:05:22 | 51.43638 | 17.81234 | 58° | 58km/h | 14743m | -13.3m/s | 0°C | 0% | 0hPa | 0V | 00:00:00 | 00:00:00 | 00:00:00 | |
| SQ6EMJ | 2026-08-31 13:05:20 | 51.43621 | 17.81195 | 57° | 58km/h | 14772m | -13.0m/s | 0°C | 0% | 0hPa | 0V | 00:00:00 | 00:00:00 | 00:00:00 | |
| KRY50SP | 2026-08-31 13:05:17 | 51.43597 | 17.81136 | 58° | 58km/h | 14812m | -13.8m/s | 0°C | 0% | 0hPa | 0V | 00:00:00 | 00:00:00 | 00:00:00 | |
| SP3BTT-10 | 2026-08-31 13:05:11 | 51.43547 | 17.81021 | 58° | 64km/h | 14900m | -12.8m/s | 0°C | 0% | 0hPa | 0V | 00:00:00 | 00:00:00 | 00:00:00 | |
| KRY50SP | 2026-08-31 13:05:10 | 51.43539 | 17.81000 | 58° | 60km/h | 14914m | -12.4m/s | 0°C | 0% | 0hPa | 0V | 00:00:00 | 00:00:00 | 00:00:00 | |
| SQ6EMJ | 2026-08-31 13:05:03 | 51.43486 | 17.80845 | 65° | 66km/h | 15011m | -14.5m/s | 0°C | 0% | 0hPa | 0V | 00:00:00 | 00:00:00 | 00:00:00 | |
| KRY50SP | 2026-08-31 13:05:00 | 51.43456 | 17.80753 | 63° | 62km/h | 15071m | -13.3m/s | 0°C | 0% | 0hPa | 0V | 00:00:00 | 00:00:00 | 00:00:00 | |
| SQ6EMJ | 2026-08-31 13:04:56 | 51.43434 | 17.80686 | 64° | 62km/h | 15111m | -13.2m/s | 0°C | 0% | 0hPa | 0V | 00:00:00 | 00:00:00 | 00:00:00 | |
| KRY50SP | 2026-08-31 13:04:48 | 51.43374 | 17.80517 | 62° | 58km/h | 15225m | -13.1m/s | 0°C | 0% | 0hPa | 0V | 00:00:00 | 00:00:00 | 00:00:00 | |
| KRY50SP | 2026-08-31 13:04:42 | 51.43326 | 17.80395 | 53° | 62km/h | 15312m | -14.4m/s | 0°C | 0% | 0hPa | 0V | 00:00:00 | 00:00:00 | 00:00:00 | |
| SQ6EMJ | 2026-08-31 13:04:36 | 51.43261 | 17.80273 | 50° | 69km/h | 15399m | -13.8m/s | 0°C | 0% | 0hPa | 0V | 00:00:00 | 00:00:00 | 00:00:00 | |
| KRY50SP | 2026-08-31 13:04:35 | 51.43250 | 17.80252 | 51° | 69km/h | 15413m | -13.4m/s | 0°C | 0% | 0hPa | 0V | 00:00:00 | 00:00:00 | 00:00:00 | |
| KRY50SP | 2026-08-31 13:04:30 | 51.43195 | 17.80140 | 52° | 75km/h | 15484m | -13.1m/s | 0°C | 0% | 0hPa | 0V | 00:00:00 | 00:00:00 | 00:00:00 | |
| SQ6EMJ | 2026-08-31 13:04:21 | 51.43079 | 17.79921 | 50° | 78km/h | 15614m | -14.4m/s | 0°C | 0% | 0hPa | 0V | 00:00:00 | 00:00:00 | 00:00:00 | |
| SP3BTT-10 | 2026-08-31 13:04:19 | 51.43054 | 17.79873 | 50° | 60km/h | 15643m | -13.6m/s | 0°C | 0% | 0hPa | 0V | 00:00:00 | 00:00:00 | 00:00:00 | |
| KRY50SP | 2026-08-31 13:04:13 | 51.42984 | 17.79728 | 56° | 75km/h | 15733m | -14.0m/s | 0°C | 0% | 0hPa | 0V | 00:00:00 | 00:00:00 | 00:00:00 | |
| KRY50SP | 2026-08-31 13:04:07 | 51.42925 | 17.79572 | 64° | 75km/h | 15822m | -12.2m/s | 0°C | 0% | 0hPa | 0V | 00:00:00 | 00:00:00 | 00:00:00 | |
| SQ6EMJ | 2026-08-31 13:04:04 | 51.42899 | 17.79494 | 63° | 73km/h | 15862m | -13.9m/s | 0°C | 0% | 0hPa | 0V | 00:00:00 | 00:00:00 | 00:00:00 | |
| KRY50SP | 2026-08-31 13:04:01 | 51.42875 | 17.79417 | 65° | 73km/h | 15907m | -14.4m/s | 0°C | 0% | 0hPa | 0V | 00:00:00 | 00:00:00 | 00:00:00 | |
| KRY50SP | 2026-08-31 13:03:52 | 51.42826 | 17.79189 | 79° | 58km/h | 16040m | -13.0m/s | 0°C | 0% | 0hPa | 0V | 00:00:00 | 00:00:00 | 00:00:00 | |
| SQ6EMJ | 2026-08-31 13:03:49 | 51.42817 | 17.79123 | 79° | 53km/h | 16085m | -14.4m/s | 0°C | 0% | 0hPa | 0V | 00:00:00 | 00:00:00 | 00:00:00 | |
| KRY50SP | 2026-08-31 13:03:43 | 51.42809 | 17.79014 | 84° | 40km/h | 16173m | -12.6m/s | 0°C | 0% | 0hPa | 0V | 00:00:00 | 00:00:00 | 00:00:00 | |
| SQ6EMJ | 2026-08-31 13:03:36 | 51.42799 | 17.78919 | 75° | 27km/h | 16275m | -13.3m/s | 0°C | 0% | 0hPa | 0V | 00:00:00 | 00:00:00 | 00:00:00 | |
| KRY50SP | 2026-08-31 13:03:35 | 51.42797 | 17.78909 | 70° | 26km/h | 16289m | -13.7m/s | 0°C | 0% | 0hPa | 0V | 00:00:00 | 00:00:00 | 00:00:00 | |
| KRY50SP | 2026-08-31 13:03:30 | 51.42779 | 17.78858 | 52° | 35km/h | 16363m | -14.0m/s | 0°C | 0% | 0hPa | 0V | 00:00:00 | 00:00:00 | 00:00:00 | |
| SQ6EMJ | 2026-08-31 13:03:28 | 51.42767 | 17.78836 | 49° | 37km/h | 16393m | -15.5m/s | 0°C | 0% | 0hPa | 0V | 00:00:00 | 00:00:00 | 00:00:00 | |
| KRY50SP | 2026-08-31 13:03:25 | 51.42744 | 17.78792 | 51° | 33km/h | 16456m | -15.2m/s | 0°C | 0% | 0hPa | 0V | 00:00:00 | 00:00:00 | 00:00:00 | |
| SQ6EMJ | 2026-08-31 13:03:22 | 51.42734 | 17.78771 | 57° | 35km/h | 16488m | -14.7m/s | 0°C | 0% | 0hPa | 0V | 00:00:00 | 00:00:00 | 00:00:00 | |
| KRY50SP | 2026-08-31 13:03:18 | 51.42717 | 17.78718 | 64° | 38km/h | 16549m | -14.3m/s | 0°C | 0% | 0hPa | 0V | 00:00:00 | 00:00:00 | 00:00:00 | |
| KRY50SP | 2026-08-31 13:03:12 | 51.42687 | 17.78638 | 59° | 37km/h | 16638m | -14.2m/s | 0°C | 0% | 0hPa | 0V | 00:00:00 | 00:00:00 | 00:00:00 | |
| SQ6EMJ | 2026-08-31 13:03:10 | 51.42676 | 17.78612 | 53° | 38km/h | 16669m | -14.7m/s | 0°C | 0% | 0hPa | 0V | 00:00:00 | 00:00:00 | 00:00:00 | |
| KRY50SP | 2026-08-31 13:03:05 | 51.42647 | 17.78552 | 49° | 40km/h | 16740m | -14.9m/s | 0°C | 0% | 0hPa | 0V | 00:00:00 | 00:00:00 | 00:00:00 | |
| KRY50SP | 2026-08-31 13:03:00 | 51.42612 | 17.78487 | 50° | 44km/h | 16818m | -16.3m/s | 0°C | 0% | 0hPa | 0V | 00:00:00 | 00:00:00 | 00:00:00 | |
| SQ6EMJ | 2026-08-31 13:02:57 | 51.42588 | 17.78443 | 50° | 51km/h | 16864m | -15.5m/s | 0°C | 0% | 0hPa | 0V | 00:00:00 | 00:00:00 | 00:00:00 | |
| KRY50SP | 2026-08-31 13:02:53 | 51.42556 | 17.78382 | 51° | 51km/h | 16929m | -15.2m/s | 0°C | 0% | 0hPa | 0V | 00:00:00 | 00:00:00 | 00:00:00 | |
| KRY50SP | 2026-08-31 13:02:48 | 51.42518 | 17.78302 | 53° | 49km/h | 17009m | -14.3m/s | 0°C | 0% | 0hPa | 0V | 00:00:00 | 00:00:00 | 00:00:00 | |
| KRY50SP | 2026-08-31 13:02:38 | 51.42432 | 17.78134 | 59° | 62km/h | 17164m | -13.4m/s | 0°C | 0% | 0hPa | 0V | 00:00:00 | 00:00:00 | 00:00:00 | |
| SQ6EMJ | 2026-08-31 13:02:37 | 51.42424 | 17.78114 | 57° | 60km/h | 17178m | -14.3m/s | 0°C | 0% | 0hPa | 0V | 00:00:00 | 00:00:00 | 00:00:00 | |
| SP3BTT-10 | 2026-08-31 13:02:27 | 51.42353 | 17.77912 | 65° | 29km/h | 17341m | -15.1m/s | 0°C | 0% | 0hPa | 0V | 00:00:00 | 00:00:00 | 00:00:00 | |
| KRY50SP | 2026-08-31 13:02:24 | 51.42344 | 17.77880 | 70° | 42km/h | 17372m | -15.2m/s | 0°C | 0% | 0hPa | 0V | 00:00:00 | 00:00:00 | 00:00:00 | |
| SQ6EMJ | 2026-08-31 13:02:18 | 51.42329 | 17.77798 | 68° | 33km/h | 17468m | -14.7m/s | 0°C | 0% | 0hPa | 0V | 00:00:00 | 00:00:00 | 00:00:00 | |
| KRY50SP | 2026-08-31 13:02:17 | 51.42326 | 17.77786 | 72° | 31km/h | 17483m | -13.8m/s | 0°C | 0% | 0hPa | 0V | 00:00:00 | 00:00:00 | 00:00:00 | |
| KRY50SP | 2026-08-31 13:02:09 | 51.42301 | 17.77680 | 70° | 42km/h | 17606m | -16.9m/s | 0°C | 0% | 0hPa | 0V | 00:00:00 | 00:00:00 | 00:00:00 | |
| SQ6EMJ | 2026-08-31 13:02:08 | 51.42297 | 17.77665 | 66° | 42km/h | 17625m | -14.7m/s | 0°C | 0% | 0hPa | 0V | 00:00:00 | 00:00:00 | 00:00:00 | |
| KRY50SP | 2026-08-31 13:01:34 | 51.42267 | 17.77296 | 66° | 11km/h | 18154m | -15.5m/s | 0°C | 0% | 0hPa | 0V | 00:00:00 | 00:00:00 | 00:00:00 | |
| KRY50SP | 2026-08-31 13:01:27 | 51.42253 | 17.77268 | 42° | 15km/h | 18266m | -16.0m/s | 0°C | 0% | 0hPa | 0V | 00:00:00 | 00:00:00 | 00:00:00 | |
| SQ6EMJ | 2026-08-31 13:01:22 | 51.42239 | 17.77250 | 38° | 13km/h | 18347m | -15.1m/s | 0°C | 0% | 0hPa | 0V | 00:00:00 | 00:00:00 | 00:00:00 | |
| SQ6EMJ | 2026-08-31 13:01:15 | 51.42218 | 17.77212 | 41° | 22km/h | 18459m | -15.0m/s | 0°C | 0% | 0hPa | 0V | 00:00:00 | 00:00:00 | 00:00:00 | |
| KRY50SP | 2026-08-31 13:01:12 | 51.42207 | 17.77193 | 49° | 20km/h | 18508m | -14.9m/s | 0°C | 0% | 0hPa | 0V | 00:00:00 | 00:00:00 | 00:00:00 | |
| SQ6EMJ | 2026-08-31 13:01:06 | 51.42185 | 17.77156 | 35° | 24km/h | 18604m | -15.6m/s | 0°C | 0% | 0hPa | 0V | 00:00:00 | 00:00:00 | 00:00:00 | |
| SQ6EMJ | 2026-08-31 13:01:01 | 51.42159 | 17.77127 | 31° | 22km/h | 18685m | -15.2m/s | 0°C | 0% | 0hPa | 0V | 00:00:00 | 00:00:00 | 00:00:00 | |
| KRY50SP | 2026-08-31 13:00:58 | 51.42147 | 17.77113 | 41° | 20km/h | 18734m | -17.9m/s | 0°C | 0% | 0hPa | 0V | 00:00:00 | 00:00:00 | 00:00:00 | |
| SP3BTT-10 | 2026-08-31 13:00:57 | 51.42143 | 17.77108 | 45° | 22km/h | 18751m | -14.9m/s | 0°C | 0% | 0hPa | 0V | 00:00:00 | 00:00:00 | 00:00:00 | |
| KRY50SP | 2026-08-31 13:00:47 | 51.42112 | 17.77036 | 48° | 20km/h | 18918m | -16.8m/s | 0°C | 0% | 0hPa | 0V | 00:00:00 | 00:00:00 | 00:00:00 | |
| SQ6EMJ | 2026-08-31 13:00:45 | 51.42104 | 17.77023 | 44° | 26km/h | 18951m | -14.9m/s | 0°C | 0% | 0hPa | 0V | 00:00:00 | 00:00:00 | 00:00:00 | |
| KRY50SP | 2026-08-31 13:00:27 | 51.42047 | 17.76908 | 23° | 24km/h | 19244m | -14.7m/s | 0°C | 0% | 0hPa | 0V | 00:00:00 | 00:00:00 | 00:00:00 | |
| KRY50SP | 2026-08-31 13:00:18 | 51.42005 | 17.76886 | 9° | 24km/h | 19397m | -14.8m/s | 0°C | 0% | 0hPa | 0V | 00:00:00 | 00:00:00 | 00:00:00 | |
| KRY50SP | 2026-08-31 13:00:03 | 51.41932 | 17.76851 | 8° | 24km/h | 19644m | -15.9m/s | 0°C | 0% | 0hPa | 0V | 00:00:00 | 00:00:00 | 00:00:00 | |
| KRY50SP | 2026-08-31 12:59:57 | 51.41898 | 17.76833 | 29° | 29km/h | 19746m | -15.6m/s | 0°C | 0% | 0hPa | 0V | 00:00:00 | 00:00:00 | 00:00:00 | |
| SP3BTT-10 | 2026-08-31 12:59:56 | 51.41892 | 17.76827 | 29° | 24km/h | 19763m | -17.2m/s | 0°C | 0% | 0hPa | 0V | 00:00:00 | 00:00:00 | 00:00:00 | |
| KRY50SP | 2026-08-31 12:59:43 | 51.41832 | 17.76729 | 62° | 29km/h | 19994m | -14.9m/s | 0°C | 0% | 0hPa | 0V | 00:00:00 | 00:00:00 | 00:00:00 | |
| SQ6EMJ | 2026-08-31 12:59:38 | 51.41818 | 17.76673 | 73° | 27km/h | 20073m | -15.5m/s | 0°C | 0% | 0hPa | 0V | 00:00:00 | 00:00:00 | 00:00:00 | |
| SP3BTT-10 | 2026-08-31 12:58:41 | 51.41678 | 17.76544 | 357° | 18km/h | 21073m | -17.8m/s | 0°C | 0% | 0hPa | 0V | 00:00:00 | 00:00:00 | 00:00:00 | |
| SP3BTT-10 | 2026-08-31 12:56:55 | 51.41506 | 17.76435 | 352° | 15km/h | 23037m | -21.2m/s | 0°C | 0% | 0hPa | 0V | 00:00:00 | 00:00:00 | 00:00:00 | |
| SP3BTT-10 | 2026-08-31 12:55:24 | 51.41394 | 17.76417 | 69° | 11km/h | 24956m | -23.1m/s | 0°C | 0% | 0hPa | 0V | 00:00:00 | 00:00:00 | 00:00:00 | |
| SP3BTT-10 | 2026-08-31 12:54:54 | 51.41365 | 17.76346 | 181° | 11km/h | 25659m | -24.6m/s | 0°C | 0% | 0hPa | 0V | 00:00:00 | 00:00:00 | 00:00:00 | |
| SQ6EMJ | 2026-08-31 12:53:40 | 51.41310 | 17.75995 | 119° | 11km/h | 27662m | -27.3m/s | 0°C | 0% | 0hPa | 0V | 00:00:00 | 00:00:00 | 00:00:00 | |
| SP3BTT-10 | 2026-08-31 12:53:37 | 51.41312 | 17.75990 | 174° | 20km/h | 27743m | -26.1m/s | 0°C | 0% | 0hPa | 0V | 00:00:00 | 00:00:00 | 00:00:00 | |
| SP3BTT-10 | 2026-08-31 12:52:22 | 51.41269 | 17.75539 | 130° | 18km/h | 30091m | -32.4m/s | 0°C | 0% | 0hPa | 0V | 00:00:00 | 00:00:00 | 00:00:00 | |
| PETON7-10 | 2026-08-31 12:52:15 | 51.41290 | 17.75523 | 153° | 11km/h | 30307m | -35.0m/s | 0°C | 0% | 0hPa | 0V | 00:00:00 | 00:00:00 | 00:00:00 | |
| PETON7-10 | 2026-08-31 12:51:55 | 51.41335 | 17.75467 | 81° | 20km/h | 30938m | -29.7m/s | 0°C | 0% | 0hPa | 0V | 00:00:00 | 00:00:00 | 00:00:00 | |
| PETON7-10 | 2026-08-31 12:51:31 | 51.41323 | 17.75359 | 75° | 16km/h | 31466m | 3.9m/s | 0°C | 0% | 0hPa | 0V | 00:00:00 | 00:00:00 | 00:00:00 | |
| PETON7-10 | 2026-08-31 12:51:16 | 51.41335 | 17.75272 | 107° | 22km/h | 31372m | 6.4m/s | 0°C | 0% | 0hPa | 0V | 00:00:00 | 00:00:00 | 00:00:00 | |
| SP3BTT-10 | 2026-08-31 12:51:07 | 51.41330 | 17.75210 | 70° | 11km/h | 31314m | 6.9m/s | 0°C | 0% | 0hPa | 0V | 00:00:00 | 00:00:00 | 00:00:00 | |
| PETON7-10 | 2026-08-31 12:51:01 | 51.41334 | 17.75187 | 73° | 11km/h | 31278m | 4.8m/s | 0°C | 0% | 0hPa | 0V | 00:00:00 | 00:00:00 | 00:00:00 | |
| PETON7-10 | 2026-08-31 12:50:46 | 51.41332 | 17.75136 | 88° | 16km/h | 31177m | 5.8m/s | 0°C | 0% | 0hPa | 0V | 00:00:00 | 00:00:00 | 00:00:00 | |
| OE5DRO-10 | 2026-08-31 12:50:43 | 51.41331 | 17.75123 | 24° | 18km/h | 31158m | 6.0m/s | 0°C | 0% | 0hPa | 0V | 00:00:00 | 00:00:00 | 00:00:00 | |
| PETON7-10 | 2026-08-31 12:50:31 | 51.41321 | 17.75073 | 95° | 13km/h | 31080m | 4.7m/s | 0°C | 0% | 0hPa | 0V | 00:00:00 | 00:00:00 | 00:00:00 | |
| PETON7-10 | 2026-08-31 12:50:16 | 51.41328 | 17.75023 | 97° | 15km/h | 30975m | 3.7m/s | 0°C | 0% | 0hPa | 0V | 00:00:00 | 00:00:00 | 00:00:00 | |
| PETON7-10 | 2026-08-31 12:50:00 | 51.41332 | 17.75008 | 85° | 15km/h | 30876m | 6.5m/s | 0°C | 0% | 0hPa | 0V | 00:00:00 | 00:00:00 | 00:00:00 | |
| PETON7-10 | 2026-08-31 12:49:36 | 51.41344 | 17.74978 | 125° | 15km/h | 30713m | 4.9m/s | 0°C | 0% | 0hPa | 0V | 00:00:00 | 00:00:00 | 00:00:00 | |
| PETON7-10 | 2026-08-31 12:49:20 | 51.41379 | 17.74941 | 124° | 20km/h | 30604m | 7.8m/s | 0°C | 0% | 0hPa | 0V | 00:00:00 | 00:00:00 | 00:00:00 | |
| PETON7-10 | 2026-08-31 12:49:04 | 51.41424 | 17.74869 | 83° | 20km/h | 30499m | 8.0m/s | 0°C | 0% | 0hPa | 0V | 00:00:00 | 00:00:00 | 00:00:00 | |
| PETON7-10 | 2026-08-31 12:48:48 | 51.41479 | 17.74808 | 191° | 26km/h | 30402m | 4.4m/s | 0°C | 0% | 0hPa | 0V | 00:00:00 | 00:00:00 | 00:00:00 | |
| PETON7-10 | 2026-08-31 12:48:33 | 51.41507 | 17.74763 | 320° | 15km/h | 30307m | 6.6m/s | 0°C | 0% | 0hPa | 0V | 00:00:00 | 00:00:00 | 00:00:00 | |
| SP3BTT-10 | 2026-08-31 12:48:21 | 51.41542 | 17.74736 | 115° | 22km/h | 30236m | 5.3m/s | 0°C | 0% | 0hPa | 0V | 00:00:00 | 00:00:00 | 00:00:00 | |
| PETON7-10 | 2026-08-31 12:48:18 | 51.41546 | 17.74729 | 157° | 22km/h | 30216m | 5.6m/s | 0°C | 0% | 0hPa | 0V | 00:00:00 | 00:00:00 | 00:00:00 | |
| PETON7-10 | 2026-08-31 12:48:03 | 51.41597 | 17.74635 | 145° | 22km/h | 30119m | 5.8m/s | 0°C | 0% | 0hPa | 0V | 00:00:00 | 00:00:00 | 00:00:00 | |
| PETON7-10 | 2026-08-31 12:47:47 | 51.41660 | 17.74512 | 127° | 29km/h | 30024m | 5.0m/s | 0°C | 0% | 0hPa | 0V | 00:00:00 | 00:00:00 | 00:00:00 | |
| PETON7-10 | 2026-08-31 12:47:31 | 51.41737 | 17.74353 | 138° | 26km/h | 29925m | 5.9m/s | 0°C | 0% | 0hPa | 0V | 00:00:00 | 00:00:00 | 00:00:00 | |
| PETON7-10 | 2026-08-31 12:47:12 | 51.41798 | 17.74206 | 181° | 26km/h | 29813m | 7.3m/s | 0°C | 0% | 0hPa | 0V | 00:00:00 | 00:00:00 | 00:00:00 | |
| SP3BTT-10 | 2026-08-31 12:47:05 | 51.41834 | 17.74144 | 110° | 24km/h | 29767m | 5.1m/s | 0°C | 0% | 0hPa | 0V | 00:00:00 | 00:00:00 | 00:00:00 | |
| PETON7-10 | 2026-08-31 12:46:55 | 51.41860 | 17.74069 | 100° | 18km/h | 29707m | 7.5m/s | 0°C | 0% | 0hPa | 0V | 00:00:00 | 00:00:00 | 00:00:00 | |
| OE5DRO-10 | 2026-08-31 12:46:47 | 51.41858 | 17.74013 | 106° | 22km/h | 29641m | 6.4m/s | 0°C | 0% | 0hPa | 0V | 00:00:00 | 00:00:00 | 00:00:00 | |
| PETON7-10 | 2026-08-31 12:46:39 | 51.41850 | 17.73988 | 342° | 18km/h | 29605m | 2.8m/s | 0°C | 0% | 0hPa | 0V | 00:00:00 | 00:00:00 | 00:00:00 | |
| PETON7-10 | 2026-08-31 12:46:24 | 51.41842 | 17.73918 | 81° | 22km/h | 29515m | 4.6m/s | 0°C | 0% | 0hPa | 0V | 00:00:00 | 00:00:00 | 00:00:00 | |
| PETON7-10 | 2026-08-31 12:46:08 | 51.41829 | 17.73776 | 78° | 27km/h | 29409m | 7.9m/s | 0°C | 0% | 0hPa | 0V | 00:00:00 | 00:00:00 | 00:00:00 | |
| PETON7-10 | 2026-08-31 12:45:36 | 51.41769 | 17.73457 | 100° | 24km/h | 29209m | 5.5m/s | 0°C | 0% | 0hPa | 0V | 00:00:00 | 00:00:00 | 00:00:00 | |
| SP3BTT-10 | 2026-08-31 12:45:35 | 51.41769 | 17.73447 | 75° | 24km/h | 29203m | 7.0m/s | 0°C | 0% | 0hPa | 0V | 00:00:00 | 00:00:00 | 00:00:00 | |
| PETON7-10 | 2026-08-31 12:45:20 | 51.41700 | 17.73383 | 26° | 18km/h | 29106m | 7.8m/s | 0°C | 0% | 0hPa | 0V | 00:00:00 | 00:00:00 | 00:00:00 | |
| PETON7-10 | 2026-08-31 12:45:05 | 51.41648 | 17.73357 | 17° | 9km/h | 29004m | 8.6m/s | 0°C | 0% | 0hPa | 0V | 00:00:00 | 00:00:00 | 00:00:00 | |
| PETON7-10 | 2026-08-31 12:44:50 | 51.41636 | 17.73348 | 109° | 13km/h | 28901m | 5.9m/s | 0°C | 0% | 0hPa | 0V | 00:00:00 | 00:00:00 | 00:00:00 | |
| PETON7-10 | 2026-08-31 12:44:35 | 51.41645 | 17.73339 | 359° | 15km/h | 28797m | 6.9m/s | 0°C | 0% | 0hPa | 0V | 00:00:00 | 00:00:00 | 00:00:00 | |
| PETON7-10 | 2026-08-31 12:44:19 | 51.41657 | 17.73279 | 119° | 18km/h | 28692m | 6.4m/s | 0°C | 0% | 0hPa | 0V | 00:00:00 | 00:00:00 | 00:00:00 | |
| OE5DRO-10 | 2026-08-31 12:44:17 | 51.41664 | 17.73266 | 143° | 24km/h | 28680m | 7.8m/s | 0°C | 0% | 0hPa | 0V | 00:00:00 | 00:00:00 | 00:00:00 | |
| PETON7-10 | 2026-08-31 12:44:04 | 51.41703 | 17.73184 | 126° | 29km/h | 28594m | 5.7m/s | 0°C | 0% | 0hPa | 0V | 00:00:00 | 00:00:00 | 00:00:00 | |
| PETON7-10 | 2026-08-31 12:43:48 | 51.41746 | 17.73045 | 62° | 31km/h | 28495m | 7.9m/s | 0°C | 0% | 0hPa | 0V | 00:00:00 | 00:00:00 | 00:00:00 | |
| PETON7-10 | 2026-08-31 12:43:33 | 51.41727 | 17.72867 | 56° | 35km/h | 28399m | 4.5m/s | 0°C | 0% | 0hPa | 0V | 00:00:00 | 00:00:00 | 00:00:00 | |
| PETON7-10 | 2026-08-31 12:43:17 | 51.41652 | 17.72675 | 52° | 42km/h | 28304m | 7.9m/s | 0°C | 0% | 0hPa | 0V | 00:00:00 | 00:00:00 | 00:00:00 | |
| PETON7-10 | 2026-08-31 12:43:02 | 51.41529 | 17.72533 | 50° | 27km/h | 28215m | 7.1m/s | 0°C | 0% | 0hPa | 0V | 00:00:00 | 00:00:00 | 00:00:00 | |
| OE5DRO-10 | 2026-08-31 12:42:58 | 51.41510 | 17.72520 | 359° | 24km/h | 28190m | 4.2m/s | 0°C | 0% | 0hPa | 0V | 00:00:00 | 00:00:00 | 00:00:00 | |
| SP3BTT-10 | 2026-08-31 12:42:49 | 51.41454 | 17.72466 | 10° | 16km/h | 28134m | 6.4m/s | 0°C | 0% | 0hPa | 0V | 00:00:00 | 00:00:00 | 00:00:00 | |
| PETON7-10 | 2026-08-31 12:42:47 | 51.41445 | 17.72463 | 12° | 22km/h | 28122m | 6.3m/s | 0°C | 0% | 0hPa | 0V | 00:00:00 | 00:00:00 | 00:00:00 | |
| OE5DRO-10 | 2026-08-31 12:42:39 | 51.41408 | 17.72431 | 356° | 16km/h | 28075m | 6.8m/s | 0°C | 0% | 0hPa | 0V | 00:00:00 | 00:00:00 | 00:00:00 | |
| PETON7-10 | 2026-08-31 12:42:15 | 51.41335 | 17.72411 | 68° | 7km/h | 27936m | 5.9m/s | 0°C | 0% | 0hPa | 0V | 00:00:00 | 00:00:00 | 00:00:00 | |
| PETON7-10 | 2026-08-31 12:42:00 | 51.41326 | 17.72411 | 70° | 9km/h | 27847m | 6.3m/s | 0°C | 0% | 0hPa | 0V | 00:00:00 | 00:00:00 | 00:00:00 | |
| OE5DRO-10 | 2026-08-31 12:41:51 | 51.41318 | 17.72418 | 18° | 11km/h | 27797m | 6.7m/s | 0°C | 0% | 0hPa | 0V | 00:00:00 | 00:00:00 | 00:00:00 | |
| PETON7-10 | 2026-08-31 12:41:45 | 51.41319 | 17.72395 | 189° | 11km/h | 27760m | 4.0m/s | 0°C | 0% | 0hPa | 0V | 00:00:00 | 00:00:00 | 00:00:00 | |
| SP3BTT-10 | 2026-08-31 12:41:33 | 51.41336 | 17.72357 | 212° | 15km/h | 27684m | 7.8m/s | 0°C | 0% | 0hPa | 0V | 00:00:00 | 00:00:00 | 00:00:00 | |
| OE5DRO-10 | 2026-08-31 12:41:31 | 51.41338 | 17.72362 | 238° | 11km/h | 27671m | 6.4m/s | 0°C | 0% | 0hPa | 0V | 00:00:00 | 00:00:00 | 00:00:00 | |
| PETON7-10 | 2026-08-31 12:41:28 | 51.41342 | 17.72356 | 106° | 15km/h | 27654m | 5.8m/s | 0°C | 0% | 0hPa | 0V | 00:00:00 | 00:00:00 | 00:00:00 | |
| PETON7-10 | 2026-08-31 12:41:12 | 51.41336 | 17.72292 | 48° | 15km/h | 27558m | 3.6m/s | 0°C | 0% | 0hPa | 0V | 00:00:00 | 00:00:00 | 00:00:00 | |
| PETON7-10 | 2026-08-31 12:40:57 | 51.41308 | 17.72208 | 67° | 16km/h | 27465m | 5.0m/s | 0°C | 0% | 0hPa | 0V | 00:00:00 | 00:00:00 | 00:00:00 | |
| PETON7-10 | 2026-08-31 12:40:42 | 51.41303 | 17.72129 | 48° | 16km/h | 27372m | 6.2m/s | 0°C | 0% | 0hPa | 0V | 00:00:00 | 00:00:00 | 00:00:00 | |
| PETON7-10 | 2026-08-31 12:40:25 | 51.41313 | 17.72061 | 79° | 22km/h | 27269m | 5.9m/s | 0°C | 0% | 0hPa | 0V | 00:00:00 | 00:00:00 | 00:00:00 | |
| PETON7-10 | 2026-08-31 12:40:05 | 51.41320 | 17.71935 | 72° | 22km/h | 27146m | 7.8m/s | 0°C | 0% | 0hPa | 0V | 00:00:00 | 00:00:00 | 00:00:00 | |
| SP3BTT-10 | 2026-08-31 12:40:02 | 51.41314 | 17.71904 | 91° | 16km/h | 27128m | 7.4m/s | 0°C | 0% | 0hPa | 0V | 00:00:00 | 00:00:00 | 00:00:00 | |
| PETON7-10 | 2026-08-31 12:39:50 | 51.41319 | 17.71808 | 76° | 18km/h | 27054m | 7.8m/s | 0°C | 0% | 0hPa | 0V | 00:00:00 | 00:00:00 | 00:00:00 | |
| PETON7-10 | 2026-08-31 12:39:35 | 51.41295 | 17.71731 | 30° | 18km/h | 26963m | 4.5m/s | 0°C | 0% | 0hPa | 0V | 00:00:00 | 00:00:00 | 00:00:00 | |
| PETON7-10 | 2026-08-31 12:39:18 | 51.41263 | 17.71620 | 74° | 16km/h | 26855m | 5.6m/s | 0°C | 0% | 0hPa | 0V | 00:00:00 | 00:00:00 | 00:00:00 | |
| PETON7-10 | 2026-08-31 12:39:03 | 51.41225 | 17.71553 | 16° | 15km/h | 26764m | 4.4m/s | 0°C | 0% | 0hPa | 0V | 00:00:00 | 00:00:00 | 00:00:00 | |
| SP3BTT-10 | 2026-08-31 12:39:02 | 51.41220 | 17.71550 | 22° | 18km/h | 26760m | 6.2m/s | 0°C | 0% | 0hPa | 0V | 00:00:00 | 00:00:00 | 00:00:00 | |
| PETON7-10 | 2026-08-31 12:38:47 | 51.41183 | 17.71505 | 90° | 9km/h | 26663m | 6.3m/s | 0°C | 0% | 0hPa | 0V | 00:00:00 | 00:00:00 | 00:00:00 | |
| PETON7-10 | 2026-08-31 12:38:30 | 51.41180 | 17.71491 | 296° | 13km/h | 26570m | 4.0m/s | 0°C | 0% | 0hPa | 0V | 00:00:00 | 00:00:00 | 00:00:00 | |
| PETON7-10 | 2026-08-31 12:38:13 | 51.41196 | 17.71463 | 170° | 15km/h | 26473m | 6.8m/s | 0°C | 0% | 0hPa | 0V | 00:00:00 | 00:00:00 | 00:00:00 | |
| PETON7-10 | 2026-08-31 12:37:58 | 51.41236 | 17.71425 | 140° | 20km/h | 26391m | 4.3m/s | 0°C | 0% | 0hPa | 0V | 00:00:00 | 00:00:00 | 00:00:00 | |
| PETON7-10 | 2026-08-31 12:37:43 | 51.41261 | 17.71342 | 63° | 16km/h | 26305m | 7.0m/s | 0°C | 0% | 0hPa | 0V | 00:00:00 | 00:00:00 | 00:00:00 | |
| PETON7-10 | 2026-08-31 12:37:27 | 51.41260 | 17.71254 | 138° | 16km/h | 26212m | 6.0m/s | 0°C | 0% | 0hPa | 0V | 00:00:00 | 00:00:00 | 00:00:00 | |
| SP3BTT-10 | 2026-08-31 12:37:16 | 51.41247 | 17.71179 | 122° | 15km/h | 26151m | 6.5m/s | 0°C | 0% | 0hPa | 0V | 00:00:00 | 00:00:00 | 00:00:00 | |
| PETON7-10 | 2026-08-31 12:37:12 | 51.41267 | 17.71146 | 64° | 24km/h | 26130m | 8.1m/s | 0°C | 0% | 0hPa | 0V | 00:00:00 | 00:00:00 | 00:00:00 | |
| OE5DRO-10 | 2026-08-31 12:37:03 | 51.41239 | 17.71086 | 46° | 22km/h | 26076m | 4.8m/s | 0°C | 0% | 0hPa | 0V | 00:00:00 | 00:00:00 | 00:00:00 | |
| PETON7-10 | 2026-08-31 12:36:57 | 51.41222 | 17.71032 | 36° | 22km/h | 26040m | 5.7m/s | 0°C | 0% | 0hPa | 0V | 00:00:00 | 00:00:00 | 00:00:00 | |
| OE5DRO-10 | 2026-08-31 12:36:43 | 51.41183 | 17.70943 | 42° | 11km/h | 25959m | 7.5m/s | 0°C | 0% | 0hPa | 0V | 00:00:00 | 00:00:00 | 00:00:00 | |
| PETON7-10 | 2026-08-31 12:36:41 | 51.41173 | 17.70938 | 22° | 13km/h | 25948m | 5.0m/s | 0°C | 0% | 0hPa | 0V | 00:00:00 | 00:00:00 | 00:00:00 | |
| PETON7-10 | 2026-08-31 12:36:26 | 51.41142 | 17.70917 | 163° | 7km/h | 25856m | 4.6m/s | 0°C | 0% | 0hPa | 0V | 00:00:00 | 00:00:00 | 00:00:00 | |
| OE5DRO-10 | 2026-08-31 12:36:19 | 51.41149 | 17.70910 | 77° | 9km/h | 25816m | 4.9m/s | 0°C | 0% | 0hPa | 0V | 00:00:00 | 00:00:00 | 00:00:00 | |
| PETON7-10 | 2026-08-31 12:36:11 | 51.41154 | 17.70907 | 42° | 11km/h | 25766m | 5.6m/s | 0°C | 0% | 0hPa | 0V | 00:00:00 | 00:00:00 | 00:00:00 | |
| OE5DRO-10 | 2026-08-31 12:36:00 | 51.41167 | 17.70908 | 134° | 15km/h | 25702m | 8.1m/s | 0°C | 0% | 0hPa | 0V | 00:00:00 | 00:00:00 | 00:00:00 | |
| PETON7-10 | 2026-08-31 12:35:56 | 51.41167 | 17.70896 | 122° | 15km/h | 25677m | 7.0m/s | 0°C | 0% | 0hPa | 0V | 00:00:00 | 00:00:00 | 00:00:00 | |
| OM5KV | 2026-08-31 12:35:54 | 51.41171 | 17.70890 | 155° | 7km/h | 25664m | 5.8m/s | 0°C | 0% | 0hPa | 0V | 00:00:00 | 00:00:00 | 00:00:00 | |
| OM5KV | 2026-08-31 12:35:53 | 51.41172 | 17.70890 | 212° | 4km/h | 25658m | 6.7m/s | 0°C | 0% | 0hPa | 0V | 00:00:00 | 00:00:00 | 00:00:00 | |
| OM5KV | 2026-08-31 12:35:48 | 51.41181 | 17.70880 | 128° | 27km/h | 25628m | 5.9m/s | 0°C | 0% | 0hPa | 0V | 00:00:00 | 00:00:00 | 00:00:00 | |
| OM5KV | 2026-08-31 12:35:46 | 51.41186 | 17.70863 | 107° | 20km/h | 25617m | 7.8m/s | 0°C | 0% | 0hPa | 0V | 00:00:00 | 00:00:00 | 00:00:00 | |
| SP3BTT-10 | 2026-08-31 12:35:45 | 51.41187 | 17.70857 | 96° | 16km/h | 25610m | 4.7m/s | 0°C | 0% | 0hPa | 0V | 00:00:00 | 00:00:00 | 00:00:00 | |
| OM5KV | 2026-08-31 12:35:42 | 51.41192 | 17.70848 | 158° | 20km/h | 25594m | 6.4m/s | 0°C | 0% | 0hPa | 0V | 00:00:00 | 00:00:00 | 00:00:00 | |
| PETON7-10 | 2026-08-31 12:35:41 | 51.41197 | 17.70844 | 145° | 16km/h | 25587m | 5.8m/s | 0°C | 0% | 0hPa | 0V | 00:00:00 | 00:00:00 | 00:00:00 | |
| OM5KV | 2026-08-31 12:35:34 | 51.41204 | 17.70812 | 169° | 15km/h | 25546m | 5.6m/s | 0°C | 0% | 0hPa | 0V | 00:00:00 | 00:00:00 | 00:00:00 | |
| OM5KV | 2026-08-31 12:35:28 | 51.41212 | 17.70788 | 116° | 26km/h | 25511m | 5.9m/s | 0°C | 0% | 0hPa | 0V | 00:00:00 | 00:00:00 | 00:00:00 | |
| PETON7-10 | 2026-08-31 12:35:27 | 51.41215 | 17.70770 | 79° | 11km/h | 25501m | 3.6m/s | 0°C | 0% | 0hPa | 0V | 00:00:00 | 00:00:00 | 00:00:00 | |
| OM5KV | 2026-08-31 12:35:23 | 51.41208 | 17.70755 | 41° | 9km/h | 25486m | 6.1m/s | 0°C | 0% | 0hPa | 0V | 00:00:00 | 00:00:00 | 00:00:00 | |
| OM5KV | 2026-08-31 12:35:22 | 51.41208 | 17.70754 | 140° | 5km/h | 25480m | 8.1m/s | 0°C | 0% | 0hPa | 0V | 00:00:00 | 00:00:00 | 00:00:00 | |
| OM5KV | 2026-08-31 12:35:17 | 51.41214 | 17.70739 | 91° | 11km/h | 25448m | 5.0m/s | 0°C | 0% | 0hPa | 0V | 00:00:00 | 00:00:00 | 00:00:00 | |
| OM5KV | 2026-08-31 12:35:16 | 51.41215 | 17.70735 | 112° | 11km/h | 25443m | 8.1m/s | 0°C | 0% | 0hPa | 0V | 00:00:00 | 00:00:00 | 00:00:00 | |
| OE5DRO-10 | 2026-08-31 12:35:12 | 51.41213 | 17.70721 | 28° | 13km/h | 25419m | 6.4m/s | 0°C | 0% | 0hPa | 0V | 00:00:00 | 00:00:00 | 00:00:00 | |
| OM5KV | 2026-08-31 12:35:11 | 51.41210 | 17.70720 | 2° | 11km/h | 25413m | 5.2m/s | 0°C | 0% | 0hPa | 0V | 00:00:00 | 00:00:00 | 00:00:00 | |
| PETON7-10 | 2026-08-31 12:35:10 | 51.41209 | 17.70720 | 329° | 9km/h | 25407m | 7.3m/s | 0°C | 0% | 0hPa | 0V | 00:00:00 | 00:00:00 | 00:00:00 | |
| OM5KV | 2026-08-31 12:35:04 | 51.41206 | 17.70723 | 29° | 13km/h | 25370m | 5.5m/s | 0°C | 0% | 0hPa | 0V | 00:00:00 | 00:00:00 | 00:00:00 | |
| OM5KV | 2026-08-31 12:34:59 | 51.41198 | 17.70713 | 13° | 11km/h | 25340m | 6.5m/s | 0°C | 0% | 0hPa | 0V | 00:00:00 | 00:00:00 | 00:00:00 | |
| OM5KV | 2026-08-31 12:34:54 | 51.41186 | 17.70710 | 25° | 20km/h | 25305m | 7.4m/s | 0°C | 0% | 0hPa | 0V | 00:00:00 | 00:00:00 | 00:00:00 | |
| OM5KV | 2026-08-31 12:34:53 | 51.41186 | 17.70710 | 25° | 20km/h | 25305m | 7.4m/s | 0°C | 0% | 0hPa | 0V | 00:00:00 | 00:00:00 | 00:00:00 | |
| OM5KV | 2026-08-31 12:34:47 | 51.41169 | 17.70700 | 157° | 5km/h | 25266m | 6.1m/s | 0°C | 0% | 0hPa | 0V | 00:00:00 | 00:00:00 | 00:00:00 | |
| OE5DRO-10 | 2026-08-31 12:34:42 | 51.41158 | 17.70693 | 352° | 22km/h | 25237m | 4.9m/s | 0°C | 0% | 0hPa | 0V | 00:00:00 | 00:00:00 | 00:00:00 | |
| OM5KV | 2026-08-31 12:34:41 | 51.41153 | 17.70693 | 15° | 20km/h | 25231m | 5.0m/s | 0°C | 0% | 0hPa | 0V | 00:00:00 | 00:00:00 | 00:00:00 | |
| PETON7-10 | 2026-08-31 12:34:39 | 51.41143 | 17.70684 | 44° | 20km/h | 25219m | 5.1m/s | 0°C | 0% | 0hPa | 0V | 00:00:00 | 00:00:00 | 00:00:00 | |
| OM5KV | 2026-08-31 12:34:32 | 51.41119 | 17.70680 | 6° | 26km/h | 25180m | 5.4m/s | 0°C | 0% | 0hPa | 0V | 00:00:00 | 00:00:00 | 00:00:00 | |
| SP3BTT-10 | 2026-08-31 12:34:30 | 51.41107 | 17.70678 | 359° | 18km/h | 25166m | 6.1m/s | 0°C | 0% | 0hPa | 0V | 00:00:00 | 00:00:00 | 00:00:00 | |
| OM5KV | 2026-08-31 12:34:26 | 51.41089 | 17.70664 | 27° | 24km/h | 25145m | 4.0m/s | 0°C | 0% | 0hPa | 0V | 00:00:00 | 00:00:00 | 00:00:00 | |
| PETON7-10 | 2026-08-31 12:34:24 | 51.41077 | 17.70663 | 340° | 20km/h | 25133m | 7.8m/s | 0°C | 0% | 0hPa | 0V | 00:00:00 | 00:00:00 | 00:00:00 | |
| OE5DRO-10 | 2026-08-31 12:34:23 | 51.41071 | 17.70668 | 324° | 20km/h | 25127m | 3.9m/s | 0°C | 0% | 0hPa | 0V | 00:00:00 | 00:00:00 | 00:00:00 | |
| OM5KV | 2026-08-31 12:34:21 | 51.41064 | 17.70675 | 354° | 13km/h | 25116m | 8.2m/s | 0°C | 0% | 0hPa | 0V | 00:00:00 | 00:00:00 | 00:00:00 | |
| OM5KV | 2026-08-31 12:34:15 | 51.41037 | 17.70653 | 38° | 22km/h | 25079m | 6.4m/s | 0°C | 0% | 0hPa | 0V | 00:00:00 | 00:00:00 | 00:00:00 | |
| OM5KV | 2026-08-31 12:34:13 | 51.41030 | 17.70649 | 345° | 15km/h | 25068m | 7.9m/s | 0°C | 0% | 0hPa | 0V | 00:00:00 | 00:00:00 | 00:00:00 | |
| OM5KV | 2026-08-31 12:34:10 | 51.41019 | 17.70663 | 333° | 16km/h | 25051m | 6.1m/s | 0°C | 0% | 0hPa | 0V | 00:00:00 | 00:00:00 | 00:00:00 | |
| PETON7-10 | 2026-08-31 12:34:09 | 51.41016 | 17.70664 | 20° | 18km/h | 25045m | 7.2m/s | 0°C | 0% | 0hPa | 0V | 00:00:00 | 00:00:00 | 00:00:00 | |
| OM5KV | 2026-08-31 12:34:04 | 51.40997 | 17.70636 | 38° | 18km/h | 25015m | 7.4m/s | 0°C | 0% | 0hPa | 0V | 00:00:00 | 00:00:00 | 00:00:00 | |
| OM5KV | 2026-08-31 12:34:01 | 51.40988 | 17.70631 | 327° | 13km/h | 24998m | 6.4m/s | 0°C | 0% | 0hPa | 0V | 00:00:00 | 00:00:00 | 00:00:00 | |
| OM5KV | 2026-08-31 12:33:59 | 51.40983 | 17.70642 | 308° | 18km/h | 24986m | 4.4m/s | 0°C | 0% | 0hPa | 0V | 00:00:00 | 00:00:00 | 00:00:00 | |
| OM5KV | 2026-08-31 12:33:55 | 51.40973 | 17.70633 | 56° | 22km/h | 24963m | 5.8m/s | 0°C | 0% | 0hPa | 0V | 00:00:00 | 00:00:00 | 00:00:00 | |
| PETON7-10 | 2026-08-31 12:33:54 | 51.40969 | 17.70626 | 46° | 13km/h | 24957m | 6.9m/s | 0°C | 0% | 0hPa | 0V | 00:00:00 | 00:00:00 | 00:00:00 | |
| OM5KV | 2026-08-31 12:33:53 | 51.40965 | 17.70622 | 22° | 16km/h | 24951m | 6.0m/s | 0°C | 0% | 0hPa | 0V | 00:00:00 | 00:00:00 | 00:00:00 | |
| OM5KV | 2026-08-31 12:33:49 | 51.40958 | 17.70615 | 121° | 2km/h | 24929m | 3.4m/s | 0°C | 0% | 0hPa | 0V | 00:00:00 | 00:00:00 | 00:00:00 | |
| OM5KV | 2026-08-31 12:33:48 | 51.40956 | 17.70615 | 2° | 13km/h | 24924m | 6.9m/s | 0°C | 0% | 0hPa | 0V | 00:00:00 | 00:00:00 | 00:00:00 | |
| OM5KV | 2026-08-31 12:33:44 | 51.40947 | 17.70596 | 80° | 26km/h | 24904m | 6.7m/s | 0°C | 0% | 0hPa | 0V | 00:00:00 | 00:00:00 | 00:00:00 | |
| OE5DRO-10 | 2026-08-31 12:33:35 | 51.40932 | 17.70552 | 62° | 16km/h | 24854m | 7.5m/s | 0°C | 0% | 0hPa | 0V | 00:00:00 | 00:00:00 | 00:00:00 | |
| OM5KV | 2026-08-31 12:33:32 | 51.40924 | 17.70530 | 65° | 26km/h | 24835m | 7.1m/s | 0°C | 0% | 0hPa | 0V | 00:00:00 | 00:00:00 | 00:00:00 | |
| SP3BTT-10 | 2026-08-31 12:33:30 | 51.40920 | 17.70511 | 82° | 20km/h | 24824m | 5.5m/s | 0°C | 0% | 0hPa | 0V | 00:00:00 | 00:00:00 | 00:00:00 | |
| PETON7-10 | 2026-08-31 12:33:23 | 51.40904 | 17.70472 | 79° | 20km/h | 24785m | 6.5m/s | 0°C | 0% | 0hPa | 0V | 00:00:00 | 00:00:00 | 00:00:00 | |
| OM5KV | 2026-08-31 12:33:21 | 51.40902 | 17.70458 | 63° | 13km/h | 24772m | 5.3m/s | 0°C | 0% | 0hPa | 0V | 00:00:00 | 00:00:00 | 00:00:00 | |
| OM5KV | 2026-08-31 12:33:16 | 51.40886 | 17.70430 | 8° | 31km/h | 24743m | 5.9m/s | 0°C | 0% | 0hPa | 0V | 00:00:00 | 00:00:00 | 00:00:00 | |
| PETON7-10 | 2026-08-31 12:33:08 | 51.40855 | 17.70396 | 18° | 22km/h | 24699m | 5.8m/s | 0°C | 0% | 0hPa | 0V | 00:00:00 | 00:00:00 | 00:00:00 | |
| PETON7-10 | 2026-08-31 12:32:53 | 51.40778 | 17.70357 | 32° | 20km/h | 24616m | 5.9m/s | 0°C | 0% | 0hPa | 0V | 00:00:00 | 00:00:00 | 00:00:00 | |
| PETON7-10 | 2026-08-31 12:32:38 | 51.40711 | 17.70377 | 298° | 20km/h | 24527m | 5.0m/s | 0°C | 0% | 0hPa | 0V | 00:00:00 | 00:00:00 | 00:00:00 | |
| PETON7-10 | 2026-08-31 12:32:23 | 51.40644 | 17.70441 | 352° | 24km/h | 24443m | 4.7m/s | 0°C | 0% | 0hPa | 0V | 00:00:00 | 00:00:00 | 00:00:00 | |
| PETON7-10 | 2026-08-31 12:32:07 | 51.40571 | 17.70527 | 338° | 22km/h | 24353m | 4.8m/s | 0°C | 0% | 0hPa | 0V | 00:00:00 | 00:00:00 | 00:00:00 | |
| SP3BTT-10 | 2026-08-31 12:31:59 | 51.40534 | 17.70547 | 282° | 15km/h | 24309m | 3.7m/s | 0°C | 0% | 0hPa | 0V | 00:00:00 | 00:00:00 | 00:00:00 | |
| PETON7-10 | 2026-08-31 12:31:52 | 51.40512 | 17.70566 | 341° | 11km/h | 24273m | 5.6m/s | 0°C | 0% | 0hPa | 0V | 00:00:00 | 00:00:00 | 00:00:00 | |
| PETON7-10 | 2026-08-31 12:31:37 | 51.40503 | 17.70632 | 254° | 15km/h | 24186m | 6.4m/s | 0°C | 0% | 0hPa | 0V | 00:00:00 | 00:00:00 | 00:00:00 | |
| SP3BTT-10 | 2026-08-31 12:31:29 | 51.40502 | 17.70666 | 263° | 13km/h | 24141m | 4.8m/s | 0°C | 0% | 0hPa | 0V | 00:00:00 | 00:00:00 | 00:00:00 | |
| PETON7-10 | 2026-08-31 12:31:22 | 51.40502 | 17.70706 | 282° | 18km/h | 24098m | 6.3m/s | 0°C | 0% | 0hPa | 0V | 00:00:00 | 00:00:00 | 00:00:00 | |
| PETON7-10 | 2026-08-31 12:31:07 | 51.40509 | 17.70798 | 258° | 15km/h | 24020m | 4.5m/s | 0°C | 0% | 0hPa | 0V | 00:00:00 | 00:00:00 | 00:00:00 | |
| PETON7-10 | 2026-08-31 12:30:50 | 51.40543 | 17.70862 | 267° | 15km/h | 23920m | 5.9m/s | 0°C | 0% | 0hPa | 0V | 00:00:00 | 00:00:00 | 00:00:00 | |
| PETON7-10 | 2026-08-31 12:30:35 | 51.40560 | 17.70897 | 309° | 5km/h | 23842m | 5.3m/s | 0°C | 0% | 0hPa | 0V | 00:00:00 | 00:00:00 | 00:00:00 | |
| PETON7-10 | 2026-08-31 12:30:19 | 51.40556 | 17.70900 | 33° | 11km/h | 23754m | 6.0m/s | 0°C | 0% | 0hPa | 0V | 00:00:00 | 00:00:00 | 00:00:00 | |
| SQ6EMJ | 2026-08-31 12:30:09 | 51.40538 | 17.70883 | 39° | 13km/h | 23696m | 5.2m/s | 0°C | 0% | 0hPa | 0V | 00:00:00 | 00:00:00 | 00:00:00 | |
| OE5DRO-10 | 2026-08-31 12:30:08 | 51.40536 | 17.70881 | 24° | 13km/h | 23692m | 3.6m/s | 0°C | 0% | 0hPa | 0V | 00:00:00 | 00:00:00 | 00:00:00 | |
| PETON7-10 | 2026-08-31 12:30:04 | 51.40530 | 17.70884 | 321° | 11km/h | 23674m | 5.1m/s | 0°C | 0% | 0hPa | 0V | 00:00:00 | 00:00:00 | 00:00:00 | |
| SQ6EMJ | 2026-08-31 12:30:02 | 51.40526 | 17.70885 | 15° | 11km/h | 23664m | 4.1m/s | 0°C | 0% | 0hPa | 0V | 00:00:00 | 00:00:00 | 00:00:00 | |
| SQ6EMJ | 2026-08-31 12:29:57 | 51.40502 | 17.70873 | 19° | 18km/h | 23639m | 7.1m/s | 0°C | 0% | 0hPa | 0V | 00:00:00 | 00:00:00 | 00:00:00 | |
| PETON7-10 | 2026-08-31 12:29:49 | 51.40489 | 17.70878 | 44° | 9km/h | 23595m | 4.7m/s | 0°C | 0% | 0hPa | 0V | 00:00:00 | 00:00:00 | 00:00:00 | |
| SQ6EMJ | 2026-08-31 12:29:44 | 51.40476 | 17.70867 | 87° | 9km/h | 23570m | 7.0m/s | 0°C | 0% | 0hPa | 0V | 00:00:00 | 00:00:00 | 00:00:00 | |
| SP3BTT-10 | 2026-08-31 12:29:43 | 51.40477 | 17.70864 | 133° | 15km/h | 23565m | 5.6m/s | 0°C | 0% | 0hPa | 0V | 00:00:00 | 00:00:00 | 00:00:00 | |
| KRY50SP | 2026-08-31 12:29:42 | 51.40477 | 17.70861 | 99° | 5km/h | 23559m | 6.2m/s | 0°C | 0% | 0hPa | 0V | 00:00:00 | 00:00:00 | 00:00:00 | |
| SQ6EMJ | 2026-08-31 12:29:36 | 51.40476 | 17.70879 | 291° | 9km/h | 23527m | 5.4m/s | 0°C | 0% | 0hPa | 0V | 00:00:00 | 00:00:00 | 00:00:00 | |
| PETON7-10 | 2026-08-31 12:29:33 | 51.40473 | 17.70879 | 110° | 7km/h | 23510m | 6.9m/s | 0°C | 0% | 0hPa | 0V | 00:00:00 | 00:00:00 | 00:00:00 | |
| KRY50SP | 2026-08-31 12:29:32 | 51.40475 | 17.70876 | 135° | 13km/h | 23503m | 5.6m/s | 0°C | 0% | 0hPa | 0V | 00:00:00 | 00:00:00 | 00:00:00 | |
| SQ6EMJ | 2026-08-31 12:29:23 | 51.40483 | 17.70881 | 53° | 7km/h | 23457m | 6.6m/s | 0°C | 0% | 0hPa | 0V | 00:00:00 | 00:00:00 | 00:00:00 | |
| SQ6EMJ | 2026-08-31 12:29:18 | 51.40490 | 17.70868 | 190° | 15km/h | 23431m | 5.3m/s | 0°C | 0% | 0hPa | 0V | 00:00:00 | 00:00:00 | 00:00:00 | |
| PETON7-10 | 2026-08-31 12:29:17 | 51.40492 | 17.70869 | 223° | 7km/h | 23426m | 5.8m/s | 0°C | 0% | 0hPa | 0V | 00:00:00 | 00:00:00 | 00:00:00 | |
| KRY50SP | 2026-08-31 12:29:11 | 51.40498 | 17.70879 | 34° | 5km/h | 23396m | 7.6m/s | 0°C | 0% | 0hPa | 0V | 00:00:00 | 00:00:00 | 00:00:00 | |
| SQ6EMJ | 2026-08-31 12:29:04 | 51.40496 | 17.70861 | 9° | 5km/h | 23359m | 4.8m/s | 0°C | 0% | 0hPa | 0V | 00:00:00 | 00:00:00 | 00:00:00 | |
| PETON7-10 | 2026-08-31 12:29:02 | 51.40494 | 17.70858 | 85° | 11km/h | 23347m | 7.3m/s | 0°C | 0% | 0hPa | 0V | 00:00:00 | 00:00:00 | 00:00:00 | |
| SQ6EMJ | 2026-08-31 12:28:59 | 51.40490 | 17.70850 | 25° | 13km/h | 23331m | 8.4m/s | 0°C | 0% | 0hPa | 0V | 00:00:00 | 00:00:00 | 00:00:00 | |
| KRY50SP | 2026-08-31 12:28:56 | 51.40478 | 17.70839 | 59° | 16km/h | 23314m | 7.0m/s | 0°C | 0% | 0hPa | 0V | 00:00:00 | 00:00:00 | 00:00:00 | |
| SQ6EMJ | 2026-08-31 12:28:53 | 51.40474 | 17.70827 | 12° | 9km/h | 23298m | 6.2m/s | 0°C | 0% | 0hPa | 0V | 00:00:00 | 00:00:00 | 00:00:00 | |
| KRY50SP | 2026-08-31 12:28:50 | 51.40464 | 17.70824 | 39° | 16km/h | 23284m | 6.5m/s | 0°C | 0% | 0hPa | 0V | 00:00:00 | 00:00:00 | 00:00:00 | |
| PETON7-10 | 2026-08-31 12:28:47 | 51.40456 | 17.70807 | 32° | 18km/h | 23269m | 8.8m/s | 0°C | 0% | 0hPa | 0V | 00:00:00 | 00:00:00 | 00:00:00 | |
| KRY50SP | 2026-08-31 12:28:40 | 51.40434 | 17.70786 | 12° | 18km/h | 23227m | 5.6m/s | 0°C | 0% | 0hPa | 0V | 00:00:00 | 00:00:00 | 00:00:00 | |
| KRY50SP | 2026-08-31 12:28:34 | 51.40409 | 17.70767 | 18° | 27km/h | 23194m | 4.1m/s | 0°C | 0% | 0hPa | 0V | 00:00:00 | 00:00:00 | 00:00:00 | |
| SQ6EMJ | 2026-08-31 12:28:33 | 51.40403 | 17.70763 | 25° | 26km/h | 23189m | 5.7m/s | 0°C | 0% | 0hPa | 0V | 00:00:00 | 00:00:00 | 00:00:00 | |
| PETON7-10 | 2026-08-31 12:28:29 | 51.40387 | 17.70751 | 345° | 18km/h | 23165m | 6.7m/s | 0°C | 0% | 0hPa | 0V | 00:00:00 | 00:00:00 | 00:00:00 | |
| SP3BTT-10 | 2026-08-31 12:28:28 | 51.40384 | 17.70753 | 330° | 9km/h | 23160m | 4.1m/s | 0°C | 0% | 0hPa | 0V | 00:00:00 | 00:00:00 | 00:00:00 | |
| SQ6EMJ | 2026-08-31 12:28:25 | 51.40377 | 17.70753 | 43° | 13km/h | 23145m | 4.8m/s | 0°C | 0% | 0hPa | 0V | 00:00:00 | 00:00:00 | 00:00:00 | |
| KRY50SP | 2026-08-31 12:28:23 | 51.40371 | 17.70746 | 29° | 18km/h | 23134m | 6.2m/s | 0°C | 0% | 0hPa | 0V | 00:00:00 | 00:00:00 | 00:00:00 | |
| SQ6EMJ | 2026-08-31 12:28:19 | 51.40352 | 17.70736 | 23° | 18km/h | 23109m | 5.7m/s | 0°C | 0% | 0hPa | 0V | 00:00:00 | 00:00:00 | 00:00:00 | |
| KRY50SP | 2026-08-31 12:28:18 | 51.40347 | 17.70733 | 15° | 20km/h | 23104m | 4.0m/s | 0°C | 0% | 0hPa | 0V | 00:00:00 | 00:00:00 | 00:00:00 | |
| SQ6EMJ | 2026-08-31 12:28:13 | 51.40325 | 17.70741 | 324° | 15km/h | 23076m | 5.1m/s | 0°C | 0% | 0hPa | 0V | 00:00:00 | 00:00:00 | 00:00:00 | |
| PETON7-10 | 2026-08-31 12:28:11 | 51.40308 | 17.70752 | 327° | 22km/h | 23059m | 7.2m/s | 0°C | 0% | 0hPa | 0V | 00:00:00 | 00:00:00 | 00:00:00 | |
| SQ6EMJ | 2026-08-31 12:28:07 | 51.40295 | 17.70758 | 352° | 15km/h | 23041m | 4.2m/s | 0°C | 0% | 0hPa | 0V | 00:00:00 | 00:00:00 | 00:00:00 | |
| KRY50SP | 2026-08-31 12:28:06 | 51.40290 | 17.70760 | 344° | 18km/h | 23036m | 6.6m/s | 0°C | 0% | 0hPa | 0V | 00:00:00 | 00:00:00 | 00:00:00 | |
| SQ6EMJ | 2026-08-31 12:28:01 | 51.40272 | 17.70784 | 293° | 15km/h | 23006m | 5.1m/s | 0°C | 0% | 0hPa | 0V | 00:00:00 | 00:00:00 | 00:00:00 | |
| KRY50SP | 2026-08-31 12:27:58 | 51.40264 | 17.70806 | 314° | 26km/h | 22991m | 3.0m/s | 0°C | 0% | 0hPa | 0V | 00:00:00 | 00:00:00 | 00:00:00 | |
| SQ6EMJ | 2026-08-31 12:27:54 | 51.40253 | 17.70825 | 302° | 15km/h | 22969m | 6.8m/s | 0°C | 0% | 0hPa | 0V | 00:00:00 | 00:00:00 | 00:00:00 | |
| KRY50SP | 2026-08-31 12:27:50 | 51.40243 | 17.70858 | 279° | 22km/h | 22947m | 5.3m/s | 0°C | 0% | 0hPa | 0V | 00:00:00 | 00:00:00 | 00:00:00 | |
| SQ6EMJ | 2026-08-31 12:27:47 | 51.40241 | 17.70882 | 292° | 20km/h | 22933m | 7.5m/s | 0°C | 0% | 0hPa | 0V | 00:00:00 | 00:00:00 | 00:00:00 | |
| PETON7-10 | 2026-08-31 12:27:45 | 51.40236 | 17.70897 | 298° | 15km/h | 22923m | 5.5m/s | 0°C | 0% | 0hPa | 0V | 00:00:00 | 00:00:00 | 00:00:00 | |
| SQ6EMJ | 2026-08-31 12:27:41 | 51.40236 | 17.70925 | 283° | 16km/h | 22900m | 7.6m/s | 0°C | 0% | 0hPa | 0V | 00:00:00 | 00:00:00 | 00:00:00 | |
| KRY50SP | 2026-08-31 12:27:39 | 51.40234 | 17.70938 | 281° | 16km/h | 22889m | 6.6m/s | 0°C | 0% | 0hPa | 0V | 00:00:00 | 00:00:00 | 00:00:00 | |
| SQ6EMJ | 2026-08-31 12:27:36 | 51.40236 | 17.70958 | 261° | 18km/h | 22870m | 6.5m/s | 0°C | 0% | 0hPa | 0V | 00:00:00 | 00:00:00 | 00:00:00 | |
| KRY50SP | 2026-08-31 12:27:32 | 51.40236 | 17.70979 | 235° | 5km/h | 22849m | 5.1m/s | 0°C | 0% | 0hPa | 0V | 00:00:00 | 00:00:00 | 00:00:00 | |
| PETON7-10 | 2026-08-31 12:27:31 | 51.40236 | 17.70983 | 299° | 9km/h | 22840m | 7.0m/s | 0°C | 0% | 0hPa | 0V | 00:00:00 | 00:00:00 | 00:00:00 | |
| KRY50SP | 2026-08-31 12:27:27 | 51.40233 | 17.70994 | 255° | 9km/h | 22821m | 7.3m/s | 0°C | 0% | 0hPa | 0V | 00:00:00 | 00:00:00 | 00:00:00 | |
| SQ6EMJ | 2026-08-31 12:27:25 | 51.40237 | 17.71001 | 233° | 11km/h | 22809m | 6.7m/s | 0°C | 0% | 0hPa | 0V | 00:00:00 | 00:00:00 | 00:00:00 | |
| KRY50SP | 2026-08-31 12:27:21 | 51.40238 | 17.71014 | 215° | 7km/h | 22786m | 6.1m/s | 0°C | 0% | 0hPa | 0V | 00:00:00 | 00:00:00 | 00:00:00 | |
| SQ6EMJ | 2026-08-31 12:27:20 | 51.40239 | 17.71016 | 250° | 4km/h | 22781m | 4.3m/s | 0°C | 0% | 0hPa | 0V | 00:00:00 | 00:00:00 | 00:00:00 | |
| PETON7-10 | 2026-08-31 12:27:15 | 51.40240 | 17.71025 | 192° | 9km/h | 22751m | 6.3m/s | 0°C | 0% | 0hPa | 0V | 00:00:00 | 00:00:00 | 00:00:00 | |
| SQ6EMJ | 2026-08-31 12:27:14 | 51.40243 | 17.71027 | 205° | 15km/h | 22746m | 4.7m/s | 0°C | 0% | 0hPa | 0V | 00:00:00 | 00:00:00 | 00:00:00 | |
| SP3BTT-10 | 2026-08-31 12:27:12 | 51.40248 | 17.71034 | 238° | 16km/h | 22736m | 5.5m/s | 0°C | 0% | 0hPa | 0V | 00:00:00 | 00:00:00 | 00:00:00 | |
| KRY50SP | 2026-08-31 12:27:10 | 51.40251 | 17.71039 | 208° | 5km/h | 22725m | 7.6m/s | 0°C | 0% | 0hPa | 0V | 00:00:00 | 00:00:00 | 00:00:00 | |
| SQ6EMJ | 2026-08-31 12:27:09 | 51.40252 | 17.71039 | 161° | 7km/h | 22718m | 5.8m/s | 0°C | 0% | 0hPa | 0V | 00:00:00 | 00:00:00 | 00:00:00 | |
| SQ6EMJ | 2026-08-31 12:27:03 | 51.40260 | 17.71033 | 161° | 13km/h | 22684m | 4.6m/s | 0°C | 0% | 0hPa | 0V | 00:00:00 | 00:00:00 | 00:00:00 | |
| KRY50SP | 2026-08-31 12:27:01 | 51.40267 | 17.71030 | 176° | 7km/h | 22673m | 7.0m/s | 0°C | 0% | 0hPa | 0V | 00:00:00 | 00:00:00 | 00:00:00 | |
| PETON7-10 | 2026-08-31 12:26:59 | 51.40271 | 17.71027 | 135° | 11km/h | 22661m | 7.1m/s | 0°C | 0% | 0hPa | 0V | 00:00:00 | 00:00:00 | 00:00:00 | |
| SQ6EMJ | 2026-08-31 12:26:58 | 51.40273 | 17.71023 | 128° | 16km/h | 22654m | 6.7m/s | 0°C | 0% | 0hPa | 0V | 00:00:00 | 00:00:00 | 00:00:00 | |
| KRY50SP | 2026-08-31 12:26:57 | 51.40277 | 17.71014 | 119° | 9km/h | 22643m | 6.6m/s | 0°C | 0% | 0hPa | 0V | 00:00:00 | 00:00:00 | 00:00:00 | |
| SQ6EMJ | 2026-08-31 12:26:53 | 51.40280 | 17.71010 | 129° | 7km/h | 22625m | 7.0m/s | 0°C | 0% | 0hPa | 0V | 00:00:00 | 00:00:00 | 00:00:00 | |
| KRY50SP | 2026-08-31 12:26:50 | 51.40284 | 17.70996 | 107° | 11km/h | 22607m | 6.3m/s | 0°C | 0% | 0hPa | 0V | 00:00:00 | 00:00:00 | 00:00:00 | |
| SQ6EMJ | 2026-08-31 12:26:47 | 51.40285 | 17.70981 | 91° | 18km/h | 22590m | 6.5m/s | 0°C | 0% | 0hPa | 0V | 00:00:00 | 00:00:00 | 00:00:00 | |
| KRY50SP | 2026-08-31 12:26:44 | 51.40287 | 17.70963 | 131° | 9km/h | 22575m | 6.8m/s | 0°C | 0% | 0hPa | 0V | 00:00:00 | 00:00:00 | 00:00:00 | |
| PETON7-10 | 2026-08-31 12:26:43 | 51.40289 | 17.70961 | 155° | 16km/h | 22569m | 5.2m/s | 0°C | 0% | 0hPa | 0V | 00:00:00 | 00:00:00 | 00:00:00 | |
| SQ6EMJ | 2026-08-31 12:26:42 | 51.40292 | 17.70958 | 145° | 15km/h | 22563m | 6.6m/s | 0°C | 0% | 0hPa | 0V | 00:00:00 | 00:00:00 | 00:00:00 | |
| KRY50SP | 2026-08-31 12:26:39 | 51.40299 | 17.70942 | 113° | 13km/h | 22543m | 6.3m/s | 0°C | 0% | 0hPa | 0V | 00:00:00 | 00:00:00 | 00:00:00 | |
| SQ6EMJ | 2026-08-31 12:26:36 | 51.40297 | 17.70929 | 70° | 15km/h | 22527m | 5.0m/s | 0°C | 0% | 0hPa | 0V | 00:00:00 | 00:00:00 | 00:00:00 | |
| KRY50SP | 2026-08-31 12:26:34 | 51.40294 | 17.70914 | 87° | 20km/h | 22517m | 4.8m/s | 0°C | 0% | 0hPa | 0V | 00:00:00 | 00:00:00 | 00:00:00 | |
| SQ6EMJ | 2026-08-31 12:26:30 | 51.40295 | 17.70890 | 111° | 15km/h | 22495m | 7.2m/s | 0°C | 0% | 0hPa | 0V | 00:00:00 | 00:00:00 | 00:00:00 | |
| KRY50SP | 2026-08-31 12:26:27 | 51.40296 | 17.70873 | 56° | 13km/h | 22477m | 6.8m/s | 0°C | 0% | 0hPa | 0V | 00:00:00 | 00:00:00 | 00:00:00 | |
| SQ6EMJ | 2026-08-31 12:26:24 | 51.40289 | 17.70857 | 73° | 18km/h | 22459m | 5.7m/s | 0°C | 0% | 0hPa | 0V | 00:00:00 | 00:00:00 | 00:00:00 | |
| KRY50SP | 2026-08-31 12:26:21 | 51.40285 | 17.70838 | 64° | 11km/h | 22443m | 6.3m/s | 0°C | 0% | 0hPa | 0V | 00:00:00 | 00:00:00 | 00:00:00 | |
| SQ6EMJ | 2026-08-31 12:26:19 | 51.40283 | 17.70830 | 75° | 13km/h | 22431m | 6.5m/s | 0°C | 0% | 0hPa | 0V | 00:00:00 | 00:00:00 | 00:00:00 | |
| KRY50SP | 2026-08-31 12:26:15 | 51.40275 | 17.70812 | 15° | 15km/h | 22409m | 5.1m/s | 0°C | 0% | 0hPa | 0V | 00:00:00 | 00:00:00 | 00:00:00 | |
| SQ6EMJ | 2026-08-31 12:26:14 | 51.40271 | 17.70810 | 25° | 16km/h | 22405m | 3.5m/s | 0°C | 0% | 0hPa | 0V | 00:00:00 | 00:00:00 | 00:00:00 | |
| KRY50SP | 2026-08-31 12:26:10 | 51.40260 | 17.70786 | 45° | 20km/h | 22385m | 6.3m/s | 0°C | 0% | 0hPa | 0V | 00:00:00 | 00:00:00 | 00:00:00 | |
| SQ6EMJ | 2026-08-31 12:26:08 | 51.40251 | 17.70777 | 31° | 22km/h | 22374m | 4.4m/s | 0°C | 0% | 0hPa | 0V | 00:00:00 | 00:00:00 | 00:00:00 | |
| KRY50SP | 2026-08-31 12:26:05 | 51.40239 | 17.70759 | 45° | 20km/h | 22360m | 4.0m/s | 0°C | 0% | 0hPa | 0V | 00:00:00 | 00:00:00 | 00:00:00 | |
| SQ6EMJ | 2026-08-31 12:26:03 | 51.40231 | 17.70752 | 24° | 15km/h | 22346m | 6.6m/s | 0°C | 0% | 0hPa | 0V | 00:00:00 | 00:00:00 | 00:00:00 | |
| KRY50SP | 2026-08-31 12:25:59 | 51.40218 | 17.70730 | 50° | 26km/h | 22325m | 4.1m/s | 0°C | 0% | 0hPa | 0V | 00:00:00 | 00:00:00 | 00:00:00 | |
| SQ6EMJ | 2026-08-31 12:25:58 | 51.40213 | 17.70723 | 32° | 24km/h | 22320m | 7.7m/s | 0°C | 0% | 0hPa | 0V | 00:00:00 | 00:00:00 | 00:00:00 | |
| SP3BTT-10 | 2026-08-31 12:25:57 | 51.40207 | 17.70719 | 15° | 18km/h | 22313m | 4.3m/s | 0°C | 0% | 0hPa | 0V | 00:00:00 | 00:00:00 | 00:00:00 | |
| KRY50SP | 2026-08-31 12:25:54 | 51.40184 | 17.70703 | 33° | 18km/h | 22294m | 5.8m/s | 0°C | 0% | 0hPa | 0V | 00:00:00 | 00:00:00 | 00:00:00 | |
| SQ6EMJ | 2026-08-31 12:25:52 | 51.40181 | 17.70700 | 31° | 11km/h | 22287m | 7.7m/s | 0°C | 0% | 0hPa | 0V | 00:00:00 | 00:00:00 | 00:00:00 | |
| SQ6EMJ | 2026-08-31 12:25:47 | 51.40168 | 17.70678 | 37° | 24km/h | 22260m | 6.0m/s | 0°C | 0% | 0hPa | 0V | 00:00:00 | 00:00:00 | 00:00:00 | |
| PETON7-10 | 2026-08-31 12:25:44 | 51.40155 | 17.70669 | 14° | 15km/h | 22243m | 4.8m/s | 0°C | 0% | 0hPa | 0V | 00:00:00 | 00:00:00 | 00:00:00 | |
| KRY50SP | 2026-08-31 12:25:41 | 51.40143 | 17.70660 | 49° | 13km/h | 22226m | 6.2m/s | 0°C | 0% | 0hPa | 0V | 00:00:00 | 00:00:00 | 00:00:00 | |
| KRY50SP | 2026-08-31 12:25:36 | 51.40125 | 17.70648 | 20° | 22km/h | 22199m | 3.5m/s | 0°C | 0% | 0hPa | 0V | 00:00:00 | 00:00:00 | 00:00:00 | |
| SQ6EMJ | 2026-08-31 12:25:30 | 51.40103 | 17.70647 | 27° | 18km/h | 22167m | 4.7m/s | 0°C | 0% | 0hPa | 0V | 00:00:00 | 00:00:00 | 00:00:00 | |
| KRY50SP | 2026-08-31 12:25:28 | 51.40094 | 17.70643 | 5° | 18km/h | 22158m | 4.9m/s | 0°C | 0% | 0hPa | 0V | 00:00:00 | 00:00:00 | 00:00:00 | |
| SQ6EMJ | 2026-08-31 12:25:24 | 51.40073 | 17.70645 | 6° | 15km/h | 22138m | 6.0m/s | 0°C | 0% | 0hPa | 0V | 00:00:00 | 00:00:00 | 00:00:00 | |
| PETON7-10 | 2026-08-31 12:25:23 | 51.40070 | 17.70645 | 342° | 15km/h | 22132m | 6.5m/s | 0°C | 0% | 0hPa | 0V | 00:00:00 | 00:00:00 | 00:00:00 | |
| KRY50SP | 2026-08-31 12:25:18 | 51.40052 | 17.70653 | 18° | 22km/h | 22103m | 4.6m/s | 0°C | 0% | 0hPa | 0V | 00:00:00 | 00:00:00 | 00:00:00 | |
| SQ6EMJ | 2026-08-31 12:25:12 | 51.40020 | 17.70657 | 349° | 18km/h | 22070m | 4.6m/s | 0°C | 0% | 0hPa | 0V | 00:00:00 | 00:00:00 | 00:00:00 | |
| PETON7-10 | 2026-08-31 12:25:07 | 51.40003 | 17.70668 | 26° | 15km/h | 22043m | 4.5m/s | 0°C | 0% | 0hPa | 0V | 00:00:00 | 00:00:00 | 00:00:00 | |
| KRY50SP | 2026-08-31 12:25:06 | 51.39999 | 17.70665 | 17° | 24km/h | 22039m | 5.8m/s | 0°C | 0% | 0hPa | 0V | 00:00:00 | 00:00:00 | 00:00:00 | |
| KRY50SP | 2026-08-31 12:25:01 | 51.39975 | 17.70656 | 14° | 9km/h | 22015m | 3.1m/s | 0°C | 0% | 0hPa | 0V | 00:00:00 | 00:00:00 | 00:00:00 | |
| SQ6EMJ | 2026-08-31 12:24:56 | 51.39967 | 17.70661 | 62° | 11km/h | 21990m | 3.7m/s | 0°C | 0% | 0hPa | 0V | 00:00:00 | 00:00:00 | 00:00:00 | |
| KRY50SP | 2026-08-31 12:24:55 | 51.39965 | 17.70657 | 64° | 13km/h | 21986m | 4.5m/s | 0°C | 0% | 0hPa | 0V | 00:00:00 | 00:00:00 | 00:00:00 | |
| SQ6EMJ | 2026-08-31 12:24:51 | 51.39958 | 17.70645 | 44° | 13km/h | 21962m | 5.6m/s | 0°C | 0% | 0hPa | 0V | 00:00:00 | 00:00:00 | 00:00:00 | |
| PETON7-10 | 2026-08-31 12:24:50 | 51.39956 | 17.70641 | 32° | 11km/h | 21957m | 4.6m/s | 0°C | 0% | 0hPa | 0V | 00:00:00 | 00:00:00 | 00:00:00 | |
| SQ6EMJ | 2026-08-31 12:24:46 | 51.39953 | 17.70646 | 137° | 2km/h | 21935m | 5.7m/s | 0°C | 0% | 0hPa | 0V | 00:00:00 | 00:00:00 | 00:00:00 | |
| KRY50SP | 2026-08-31 12:24:44 | 51.39956 | 17.70638 | 118° | 15km/h | 21926m | 4.2m/s | 0°C | 0% | 0hPa | 0V | 00:00:00 | 00:00:00 | 00:00:00 | |
| SQ6EMJ | 2026-08-31 12:24:40 | 51.39957 | 17.70624 | 77° | 11km/h | 21905m | 6.2m/s | 0°C | 0% | 0hPa | 0V | 00:00:00 | 00:00:00 | 00:00:00 | |
| KRY50SP | 2026-08-31 12:24:37 | 51.39956 | 17.70611 | 42° | 7km/h | 21889m | 5.9m/s | 0°C | 0% | 0hPa | 0V | 00:00:00 | 00:00:00 | 00:00:00 | |
| SQ6EMJ | 2026-08-31 12:24:35 | 51.39956 | 17.70607 | 139° | 9km/h | 21878m | 5.5m/s | 0°C | 0% | 0hPa | 0V | 00:00:00 | 00:00:00 | 00:00:00 | |
| PETON7-10 | 2026-08-31 12:24:34 | 51.39959 | 17.70603 | 132° | 16km/h | 21872m | 6.7m/s | 0°C | 0% | 0hPa | 0V | 00:00:00 | 00:00:00 | 00:00:00 | |
| KRY50SP | 2026-08-31 12:24:31 | 51.39969 | 17.70588 | 139° | 13km/h | 21855m | 7.2m/s | 0°C | 0% | 0hPa | 0V | 00:00:00 | 00:00:00 | 00:00:00 | |
| SQ6EMJ | 2026-08-31 12:24:29 | 51.39970 | 17.70584 | 71° | 9km/h | 21844m | 5.4m/s | 0°C | 0% | 0hPa | 0V | 00:00:00 | 00:00:00 | 00:00:00 | |
| KRY50SP | 2026-08-31 12:24:26 | 51.39969 | 17.70566 | 93° | 15km/h | 21828m | 6.5m/s | 0°C | 0% | 0hPa | 0V | 00:00:00 | 00:00:00 | 00:00:00 | |
| SQ6EMJ | 2026-08-31 12:24:23 | 51.39972 | 17.70550 | 119° | 16km/h | 21813m | 6.1m/s | 0°C | 0% | 0hPa | 0V | 00:00:00 | 00:00:00 | 00:00:00 | |
| PETON7-10 | 2026-08-31 12:24:19 | 51.39973 | 17.70527 | 53° | 15km/h | 21794m | 4.3m/s | 0°C | 0% | 0hPa | 0V | 00:00:00 | 00:00:00 | 00:00:00 | |
| SQ6EMJ | 2026-08-31 12:24:17 | 51.39969 | 17.70516 | 76° | 18km/h | 21782m | 7.2m/s | 0°C | 0% | 0hPa | 0V | 00:00:00 | 00:00:00 | 00:00:00 | |
| KRY50SP | 2026-08-31 12:24:12 | 51.39975 | 17.70492 | 130° | 11km/h | 21755m | 5.8m/s | 0°C | 0% | 0hPa | 0V | 00:00:00 | 00:00:00 | 00:00:00 | |
| SQ6EMJ | 2026-08-31 12:24:08 | 51.39968 | 17.70474 | 31° | 20km/h | 21734m | 3.2m/s | 0°C | 0% | 0hPa | 0V | 00:00:00 | 00:00:00 | 00:00:00 | |
| KRY50SP | 2026-08-31 12:24:07 | 51.39965 | 17.70469 | 51° | 20km/h | 21729m | 4.6m/s | 0°C | 0% | 0hPa | 0V | 00:00:00 | 00:00:00 | 00:00:00 | |
| PETON7-10 | 2026-08-31 12:24:04 | 51.39962 | 17.70448 | 104° | 15km/h | 21715m | 4.9m/s | 0°C | 0% | 0hPa | 0V | 00:00:00 | 00:00:00 | 00:00:00 | |
| KRY50SP | 2026-08-31 12:24:02 | 51.39964 | 17.70442 | 79° | 4km/h | 21704m | 4.3m/s | 0°C | 0% | 0hPa | 0V | 00:00:00 | 00:00:00 | 00:00:00 | |
| SQ6EMJ | 2026-08-31 12:23:57 | 51.39948 | 17.70419 | 32° | 27km/h | 21675m | 4.3m/s | 0°C | 0% | 0hPa | 0V | 00:00:00 | 00:00:00 | 00:00:00 | |
| KRY50SP | 2026-08-31 12:23:56 | 51.39943 | 17.70413 | 39° | 24km/h | 21671m | 3.3m/s | 0°C | 0% | 0hPa | 0V | 00:00:00 | 00:00:00 | 00:00:00 | |
| KRY50SP | 2026-08-31 12:23:51 | 51.39931 | 17.70382 | 28° | 15km/h | 21646m | 4.8m/s | 0°C | 0% | 0hPa | 0V | 00:00:00 | 00:00:00 | 00:00:00 | |
| PETON7-10 | 2026-08-31 12:23:49 | 51.39922 | 17.70373 | 36° | 29km/h | 21636m | 6.9m/s | 0°C | 0% | 0hPa | 0V | 00:00:00 | 00:00:00 | 00:00:00 | |
| SQ6EMJ | 2026-08-31 12:23:45 | 51.39899 | 17.70343 | 25° | 29km/h | 21614m | 5.9m/s | 0°C | 0% | 0hPa | 0V | 00:00:00 | 00:00:00 | 00:00:00 | |
| KRY50SP | 2026-08-31 12:23:44 | 51.39892 | 17.70340 | 14° | 27km/h | 21609m | 4.7m/s | 0°C | 0% | 0hPa | 0V | 00:00:00 | 00:00:00 | 00:00:00 | |
| KRY50SP | 2026-08-31 12:23:39 | 51.39871 | 17.70316 | 53° | 13km/h | 21586m | 5.7m/s | 0°C | 0% | 0hPa | 0V | 00:00:00 | 00:00:00 | 00:00:00 | |
| KRY50SP | 2026-08-31 12:23:31 | 51.39845 | 17.70299 | 351° | 9km/h | 21547m | 5.4m/s | 0°C | 0% | 0hPa | 0V | 00:00:00 | 00:00:00 | 00:00:00 | |
| SQ6EMJ | 2026-08-31 12:23:25 | 51.39832 | 17.70288 | 352° | 13km/h | 21518m | 4.2m/s | !°C | 0% | 0hPa | 0V | 00:00:00 | 00:00:00 | 00:00:00 | |
| KRY50SP | 2026-08-31 12:23:19 | 51.39809 | 17.70280 | 24° | 15km/h | 21486m | 6.2m/s | 0°C | 0% | 0hPa | 0V | 00:00:00 | 00:00:00 | 00:00:00 | |
| KRY50SP | 2026-08-31 12:23:13 | 51.39791 | 17.70274 | 356° | 15km/h | 21454m | 6.3m/s | 0°C | 0% | 0hPa | 0V | 00:00:00 | 00:00:00 | 00:00:00 | |
| KRY50SP | 2026-08-31 12:23:07 | 51.39767 | 17.70270 | 57° | 9km/h | 21422m | 5.9m/s | 0°C | 0% | 0hPa | 0V | 00:00:00 | 00:00:00 | 00:00:00 | |
| KRY50SP | 2026-08-31 12:23:00 | 51.39747 | 17.70262 | 21° | 15km/h | 21387m | 6.9m/s | 0°C | 0% | 0hPa | 0V | 00:00:00 | 00:00:00 | 00:00:00 | |
| SQ6EMJ | 2026-08-31 12:22:59 | 51.39742 | 17.70260 | 14° | 22km/h | 21381m | 5.7m/s | 0°C | 0% | 0hPa | 0V | 00:00:00 | 00:00:00 | 00:00:00 | |
| KRY50SP | 2026-08-31 12:22:54 | 51.39726 | 17.70249 | 5° | 7km/h | 21356m | 6.0m/s | 0°C | 0% | 0hPa | 0V | 00:00:00 | 00:00:00 | 00:00:00 | |
| SQ6EMJ | 2026-08-31 12:22:52 | 51.39721 | 17.70253 | 333° | 15km/h | 21345m | 4.2m/s | 0°C | 0% | 0hPa | 0V | 00:00:00 | 00:00:00 | 00:00:00 | |
| KRY50SP | 2026-08-31 12:22:48 | 51.39706 | 17.70250 | 23° | 18km/h | 21325m | 4.7m/s | 0°C | 0% | 0hPa | 0V | 00:00:00 | 00:00:00 | 00:00:00 | |
| SQ6EMJ | 2026-08-31 12:22:46 | 51.39697 | 17.70249 | 354° | 18km/h | 21316m | 3.7m/s | 0°C | 0% | 0hPa | 0V | 00:00:00 | 00:00:00 | 00:00:00 | |
| KRY50SP | 2026-08-31 12:22:42 | 51.39687 | 17.70252 | 352° | 4km/h | 21295m | 6.2m/s | 0°C | 0% | 0hPa | 0V | 00:00:00 | 00:00:00 | 00:00:00 | |
| SP3BTT-10 | 2026-08-31 12:22:40 | 51.39684 | 17.70255 | 311° | 18km/h | 21287m | 3.7m/s | 0°C | 0% | 0hPa | 0V | 00:00:00 | 00:00:00 | 00:00:00 | |
| SQ6EMJ | 2026-08-31 12:22:38 | 51.39680 | 17.70257 | 3° | 11km/h | 21277m | 4.7m/s | 0°C | 0% | 0hPa | 0V | 00:00:00 | 00:00:00 | 00:00:00 | |
| KRY50SP | 2026-08-31 12:22:34 | 51.39663 | 17.70259 | 349° | 16km/h | 21259m | 5.5m/s | 0°C | 0% | 0hPa | 0V | 00:00:00 | 00:00:00 | 00:00:00 | |
| SQ6EMJ | 2026-08-31 12:22:33 | 51.39660 | 17.70261 | 272° | 5km/h | 21246m | 6.1m/s | 0°C | 0% | 0hPa | 0V | 00:00:00 | 00:00:00 | 00:00:00 | |
| KRY50SP | 2026-08-31 12:22:29 | 51.39659 | 17.70270 | 303° | 11km/h | 21230m | 3.3m/s | 0°C | 0% | 0hPa | 0V | 00:00:00 | 00:00:00 | 00:00:00 | |
| SQ6EMJ | 2026-08-31 12:22:25 | 51.39647 | 17.70275 | 354° | 22km/h | 21209m | 6.3m/s | 0°C | 0% | 0hPa | 0V | 00:00:00 | 00:00:00 | 00:00:00 | |
| KRY50SP | 2026-08-31 12:22:18 | 51.39636 | 17.70278 | 280° | 2km/h | 21170m | 6.1m/s | 0°C | 0% | 0hPa | 0V | 00:00:00 | 00:00:00 | 00:00:00 | |
| KRY50SP | 2026-08-31 12:22:10 | 51.39605 | 17.70282 | 300° | 7km/h | 21126m | 5.0m/s | 0°C | 0% | 0hPa | 0V | 00:00:00 | 00:00:00 | 00:00:00 | |
| SQ6EMJ | 2026-08-31 12:22:09 | 51.39604 | 17.70284 | 341° | 7km/h | 21121m | 4.3m/s | 0°C | 0% | 0hPa | 0V | 00:00:00 | 00:00:00 | 00:00:00 | |
| KRY50SP | 2026-08-31 12:22:03 | 51.39573 | 17.70283 | 9° | 29km/h | 21092m | 6.2m/s | 0°C | 0% | 0hPa | 0V | 00:00:00 | 00:00:00 | 00:00:00 | |
| SP3BTT-10 | 2026-08-31 12:21:55 | 51.39535 | 17.70272 | 14° | 15km/h | 21053m | 3.6m/s | 0°C | 0% | 0hPa | 0V | 00:00:00 | 00:00:00 | 00:00:00 | |
| SP3BTT-10 | 2026-08-31 12:19:54 | 51.39217 | 17.70059 | 77° | 22km/h | 20412m | 4.9m/s | 0°C | 0% | 0hPa | 0V | 00:00:00 | 00:00:00 | 00:00:00 | |
| SP3BTT-10 | 2026-08-31 12:18:08 | 51.38993 | 17.69123 | 28° | 18km/h | 19866m | 3.3m/s | 0°C | 0% | 0hPa | 0V | 00:00:00 | 00:00:00 | 00:00:00 | |
| SP3BTT-10 | 2026-08-31 12:16:38 | 51.38689 | 17.68853 | 21° | 16km/h | 19416m | 7.1m/s | 0°C | 0% | 0hPa | 0V | 00:00:00 | 00:00:00 | 00:00:00 | |
| KRY50SP | 2026-08-31 12:16:09 | 51.38584 | 17.68786 | 16° | 11km/h | 19269m | 6.6m/s | 0°C | 0% | 0hPa | 0V | 00:00:00 | 00:00:00 | 00:00:00 | |
| KRY50SP | 2026-08-31 12:15:54 | 51.38536 | 17.68750 | 38° | 16km/h | 19189m | 5.7m/s | 0°C | 0% | 0hPa | 0V | 00:00:00 | 00:00:00 | 00:00:00 | |
| SP3BTT-10 | 2026-08-31 12:15:52 | 51.38530 | 17.68741 | 53° | 16km/h | 19179m | 3.0m/s | 0°C | 0% | 0hPa | 0V | 00:00:00 | 00:00:00 | 00:00:00 | |
| SQ6EMJ | 2026-08-31 12:15:45 | 51.38517 | 17.68716 | 52° | 15km/h | 19143m | 4.7m/s | 0°C | 0% | 0hPa | 0V | 00:00:00 | 00:00:00 | 00:00:00 | |
| SQ6EMJ | 2026-08-31 12:15:36 | 51.38500 | 17.68659 | 88° | 13km/h | 19100m | 3.5m/s | 0°C | 0% | 0hPa | 0V | 00:00:00 | 00:00:00 | 00:00:00 | |
| KRY50SP | 2026-08-31 12:15:22 | 51.38471 | 17.68575 | 47° | 24km/h | 19032m | 5.5m/s | 0°C | 0% | 0hPa | 0V | 00:00:00 | 00:00:00 | 00:00:00 | |
| KRY50SP | 2026-08-31 12:15:12 | 51.38442 | 17.68509 | 46° | 22km/h | 18981m | 4.6m/s | 0°C | 0% | 0hPa | 0V | 00:00:00 | 00:00:00 | 00:00:00 | |
| SQ6EMJ | 2026-08-31 12:15:10 | 51.38436 | 17.68494 | 57° | 24km/h | 18973m | 3.8m/s | 0°C | 0% | 0hPa | 0V | 00:00:00 | 00:00:00 | 00:00:00 | |
| KRY50SP | 2026-08-31 12:15:05 | 51.38417 | 17.68471 | 43° | 22km/h | 18950m | 5.4m/s | 0°C | 0% | 0hPa | 0V | 00:00:00 | 00:00:00 | 00:00:00 | |
| SQ6EMJ | 2026-08-31 12:15:03 | 51.38408 | 17.68457 | 46° | 24km/h | 18941m | 6.6m/s | 0°C | 0% | 0hPa | 0V | 00:00:00 | 00:00:00 | 00:00:00 | |
| SQ6EMJ | 2026-08-31 12:14:58 | 51.38390 | 17.68429 | 49° | 15km/h | 18913m | 5.6m/s | 0°C | 0% | 0hPa | 0V | 00:00:00 | 00:00:00 | 00:00:00 | |
| KRY50SP | 2026-08-31 12:14:52 | 51.38371 | 17.68398 | 60° | 20km/h | 18885m | 6.3m/s | 0°C | 0% | 0hPa | 0V | 00:00:00 | 00:00:00 | 00:00:00 | |
| SQ6EMJ | 2026-08-31 12:14:48 | 51.38361 | 17.68370 | 55° | 22km/h | 18864m | 4.8m/s | 0°C | 0% | 0hPa | 0V | 00:00:00 | 00:00:00 | 00:00:00 | |
| SQ6EMJ | 2026-08-31 12:14:43 | 51.38345 | 17.68344 | 49° | 22km/h | 18837m | 4.6m/s | 0°C | 0% | 0hPa | 0V | 00:00:00 | 00:00:00 | 00:00:00 | |
| KRY50SP | 2026-08-31 12:14:42 | 51.38342 | 17.68338 | 56° | 18km/h | 18833m | 5.1m/s | 0°C | 0% | 0hPa | 0V | 00:00:00 | 00:00:00 | 00:00:00 | |
| SP3BTT-10 | 2026-08-31 12:14:38 | 51.38329 | 17.68306 | 48° | 22km/h | 18807m | 4.5m/s | 0°C | 0% | 0hPa | 0V | 00:00:00 | 00:00:00 | 00:00:00 | |
| SQ6EMJ | 2026-08-31 12:14:35 | 51.38317 | 17.68284 | 57° | 15km/h | 18795m | 2.8m/s | 0°C | 0% | 0hPa | 0V | 00:00:00 | 00:00:00 | 00:00:00 | |
| KRY50SP | 2026-08-31 12:14:31 | 51.38313 | 17.68264 | 76° | 20km/h | 18782m | 3.7m/s | 0°C | 0% | 0hPa | 0V | 00:00:00 | 00:00:00 | 00:00:00 | |
| SQ6EMJ | 2026-08-31 12:14:29 | 51.38309 | 17.68250 | 48° | 15km/h | 18772m | 5.5m/s | 0°C | 0% | 0hPa | 0V | 00:00:00 | 00:00:00 | 00:00:00 | |
| KRY50SP | 2026-08-31 12:14:26 | 51.38297 | 17.68230 | 38° | 29km/h | 18755m | 4.4m/s | 0°C | 0% | 0hPa | 0V | 00:00:00 | 00:00:00 | 00:00:00 | |
| SQ6EMJ | 2026-08-31 12:14:22 | 51.38276 | 17.68211 | 39° | 16km/h | 18736m | 5.9m/s | 0°C | 0% | 0hPa | 0V | 00:00:00 | 00:00:00 | 00:00:00 | |
| KRY50SP | 2026-08-31 12:14:19 | 51.38266 | 17.68195 | 53° | 18km/h | 18722m | 4.6m/s | 0°C | 0% | 0hPa | 0V | 00:00:00 | 00:00:00 | 00:00:00 | |
| SQ6EMJ | 2026-08-31 12:14:16 | 51.38257 | 17.68186 | 17° | 22km/h | 18709m | 4.4m/s | 0°C | 0% | 0hPa | 0V | 00:00:00 | 00:00:00 | 00:00:00 | |
| KRY50SP | 2026-08-31 12:14:13 | 51.38240 | 17.68169 | 35° | 27km/h | 18693m | 5.6m/s | 0°C | 0% | 0hPa | 0V | 00:00:00 | 00:00:00 | 00:00:00 | |
| SQ6EMJ | 2026-08-31 12:14:09 | 51.38220 | 17.68147 | 50° | 20km/h | 18671m | 6.1m/s | 0°C | 0% | 0hPa | 0V | 00:00:00 | 00:00:00 | 00:00:00 | |
| KRY50SP | 2026-08-31 12:14:08 | 51.38216 | 17.68142 | 30° | 18km/h | 18665m | 5.7m/s | 0°C | 0% | 0hPa | 0V | 00:00:00 | 00:00:00 | 00:00:00 | |
| SQ6EMJ | 2026-08-31 12:14:04 | 51.38198 | 17.68129 | 23° | 33km/h | 18645m | 5.7m/s | 0°C | 0% | 0hPa | 0V | 00:00:00 | 00:00:00 | 00:00:00 | |
| KRY50SP | 2026-08-31 12:14:01 | 51.38175 | 17.68112 | 27° | 26km/h | 18631m | 6.2m/s | 0°C | 0% | 0hPa | 0V | 00:00:00 | 00:00:00 | 00:00:00 | |
| SQ6EMJ | 2026-08-31 12:13:56 | 51.38152 | 17.68089 | 27° | 29km/h | 18605m | 4.5m/s | 0°C | 0% | 0hPa | 0V | 00:00:00 | 00:00:00 | 00:00:00 | |
| KRY50SP | 2026-08-31 12:13:55 | 51.38146 | 17.68085 | 14° | 26km/h | 18600m | 5.9m/s | 0°C | 0% | 0hPa | 0V | 00:00:00 | 00:00:00 | 00:00:00 | |
| SQ6EMJ | 2026-08-31 12:13:51 | 51.38123 | 17.68073 | 26° | 29km/h | 18582m | 5.8m/s | 0°C | 0% | 0hPa | 0V | 00:00:00 | 00:00:00 | 00:00:00 | |
| KRY50SP | 2026-08-31 12:13:49 | 51.38110 | 17.68064 | 32° | 24km/h | 18571m | 6.4m/s | 0°C | 0% | 0hPa | 0V | 00:00:00 | 00:00:00 | 00:00:00 | |
| KRY50SP | 2026-08-31 12:13:43 | 51.38080 | 17.68046 | 8° | 24km/h | 18541m | 5.7m/s | 0°C | 0% | 0hPa | 0V | 00:00:00 | 00:00:00 | 00:00:00 | |
| SQ6EMJ | 2026-08-31 12:13:41 | 51.38069 | 17.68044 | 12° | 24km/h | 18532m | 5.2m/s | 0°C | 0% | 0hPa | 0V | 00:00:00 | 00:00:00 | 00:00:00 | |
| KRY50SP | 2026-08-31 12:13:37 | 51.38046 | 17.68029 | 21° | 16km/h | 18513m | 5.1m/s | 0°C | 0% | 0hPa | 0V | 00:00:00 | 00:00:00 | 00:00:00 | |
| SQ6EMJ | 2026-08-31 12:13:35 | 51.38040 | 17.68024 | 41° | 13km/h | 18503m | 6.2m/s | 0°C | 0% | 0hPa | 0V | 00:00:00 | 00:00:00 | 00:00:00 | |
| KRY50SP | 2026-08-31 12:13:31 | 51.38026 | 17.68007 | 19° | 22km/h | 18484m | 4.4m/s | 0°C | 0% | 0hPa | 0V | 00:00:00 | 00:00:00 | 00:00:00 | |
| SQ6EMJ | 2026-08-31 12:13:30 | 51.38020 | 17.68003 | 23° | 27km/h | 18479m | 7.0m/s | 0°C | 0% | 0hPa | 0V | 00:00:00 | 00:00:00 | 00:00:00 | |
| KRY50SP | 2026-08-31 12:13:25 | 51.37996 | 17.67985 | 59° | 11km/h | 18454m | 4.9m/s | 0°C | 0% | 0hPa | 0V | 00:00:00 | 00:00:00 | 00:00:00 | |
| SQ6EMJ | 2026-08-31 12:13:24 | 51.37994 | 17.67980 | 64° | 18km/h | 18450m | 5.7m/s | 0°C | 0% | 0hPa | 0V | 00:00:00 | 00:00:00 | 00:00:00 | |
| KRY50SP | 2026-08-31 12:13:19 | 51.37971 | 17.67953 | 28° | 29km/h | 18424m | 5.4m/s | 0°C | 0% | 0hPa | 0V | 00:00:00 | 00:00:00 | 00:00:00 | |
| SQ6EMJ | 2026-08-31 12:13:13 | 51.37941 | 17.67926 | 59° | 24km/h | 18396m | 4.3m/s | 0°C | 0% | 0hPa | 0V | 00:00:00 | 00:00:00 | 00:00:00 | |
| SQ6EMJ | 2026-08-31 12:13:08 | 51.37921 | 17.67901 | 38° | 18km/h | 18371m | 5.9m/s | 0°C | 0% | 0hPa | 0V | 00:00:00 | 00:00:00 | 00:00:00 | |
| SP3BTT-10 | 2026-08-31 12:13:07 | 51.37917 | 17.67897 | 50° | 16km/h | 18366m | 4.3m/s | 0°C | 0% | 0hPa | 0V | 00:00:00 | 00:00:00 | 00:00:00 | |
| SQ6EMJ | 2026-08-31 12:13:03 | 51.37901 | 17.67879 | 37° | 24km/h | 18348m | 4.4m/s | 0°C | 0% | 0hPa | 0V | 00:00:00 | 00:00:00 | 00:00:00 | |
| KRY50SP | 2026-08-31 12:13:01 | 51.37892 | 17.67864 | 55° | 24km/h | 18338m | 5.2m/s | 0°C | 0% | 0hPa | 0V | 00:00:00 | 00:00:00 | 00:00:00 | |
| SQ6EMJ | 2026-08-31 12:12:57 | 51.37875 | 17.67839 | 50° | 13km/h | 18311m | 5.4m/s | 0°C | 0% | 0hPa | 0V | 00:00:00 | 00:00:00 | 00:00:00 | |
| KRY50SP | 2026-08-31 12:12:55 | 51.37873 | 17.67835 | 59° | 11km/h | 18307m | 3.9m/s | 0°C | 0% | 0hPa | 0V | 00:00:00 | 00:00:00 | 00:00:00 | |
| KRY50SP | 2026-08-31 12:12:50 | 51.37856 | 17.67815 | 44° | 22km/h | 18280m | 5.3m/s | 0°C | 0% | 0hPa | 0V | 00:00:00 | 00:00:00 | 00:00:00 | |
| SQ6EMJ | 2026-08-31 12:12:49 | 51.37851 | 17.67810 | 35° | 24km/h | 18274m | 5.9m/s | 0°C | 0% | 0hPa | 0V | 00:00:00 | 00:00:00 | 00:00:00 | |
| KRY50SP | 2026-08-31 12:12:45 | 51.37838 | 17.67791 | 67° | 13km/h | 18254m | 3.8m/s | 0°C | 0% | 0hPa | 0V | 00:00:00 | 00:00:00 | 00:00:00 | |
| KRY50SP | 2026-08-31 12:12:40 | 51.37820 | 17.67781 | 34° | 18km/h | 18231m | 5.7m/s | 0°C | 0% | 0hPa | 0V | 00:00:00 | 00:00:00 | 00:00:00 | |
| SQ6EMJ | 2026-08-31 12:12:39 | 51.37816 | 17.67777 | 41° | 16km/h | 18226m | 4.4m/s | 0°C | 0% | 0hPa | 0V | 00:00:00 | 00:00:00 | 00:00:00 | |
| KRY50SP | 2026-08-31 12:12:34 | 51.37803 | 17.67762 | 36° | 16km/h | 18203m | 2.9m/s | 0°C | 0% | 0hPa | 0V | 00:00:00 | 00:00:00 | 00:00:00 | |
| SQ6EMJ | 2026-08-31 12:12:31 | 51.37791 | 17.67753 | 23° | 15km/h | 18189m | 5.2m/s | 0°C | 0% | 0hPa | 0V | 00:00:00 | 00:00:00 | 00:00:00 | |
| KRY50SP | 2026-08-31 12:12:29 | 51.37784 | 17.67746 | 44° | 16km/h | 18177m | 4.0m/s | 0°C | 0% | 0hPa | 0V | 00:00:00 | 00:00:00 | 00:00:00 | |
| SQ6EMJ | 2026-08-31 12:12:27 | 51.37778 | 17.67736 | 42° | 7km/h | 18162m | 3.7m/s | 0°C | 0% | 0hPa | 0V | 00:00:00 | 00:00:00 | 00:00:00 | |
| KRY50SP | 2026-08-31 12:12:23 | 51.37773 | 17.67726 | 46° | 11km/h | 18148m | 5.8m/s | 0°C | 0% | 0hPa | 0V | 00:00:00 | 00:00:00 | 00:00:00 | |
| SQ6EMJ | 2026-08-31 12:12:20 | 51.37765 | 17.67720 | 40° | 16km/h | 18133m | 6.6m/s | 0°C | 0% | 0hPa | 0V | 00:00:00 | 00:00:00 | 00:00:00 | |
| KRY50SP | 2026-08-31 12:12:17 | 51.37756 | 17.67708 | 39° | 9km/h | 18118m | 5.2m/s | 0°C | 0% | 0hPa | 0V | 00:00:00 | 00:00:00 | 00:00:00 | |
| SQ6EMJ | 2026-08-31 12:12:15 | 51.37751 | 17.67701 | 49° | 16km/h | 18102m | 4.5m/s | 0°C | 0% | 0hPa | 0V | 00:00:00 | 00:00:00 | 00:00:00 | |
| KRY50SP | 2026-08-31 12:12:12 | 51.37746 | 17.67690 | 41° | 15km/h | 18093m | 5.0m/s | 0°C | 0% | 0hPa | 0V | 00:00:00 | 00:00:00 | 00:00:00 | |
| SQ6EMJ | 2026-08-31 12:12:06 | 51.37736 | 17.67666 | 33° | 13km/h | 18063m | 3.8m/s | 0°C | 0% | 0hPa | 0V | 00:00:00 | 00:00:00 | 00:00:00 | |
| KRY50SP | 2026-08-31 12:12:00 | 51.37724 | 17.67639 | 87° | 7km/h | 18036m | 4.9m/s | 0°C | 0% | 0hPa | 0V | 00:00:00 | 00:00:00 | 00:00:00 | |
| KRY50SP | 2026-08-31 12:11:54 | 51.37725 | 17.67604 | 85° | 20km/h | 18004m | 5.3m/s | 0°C | 0% | 0hPa | 0V | 00:00:00 | 00:00:00 | 00:00:00 | |
| SQ6EMJ | 2026-08-31 12:11:52 | 51.37724 | 17.67584 | 89° | 26km/h | 17994m | 3.1m/s | 0°C | 0% | 0hPa | 0V | 00:00:00 | 00:00:00 | 00:00:00 | |
| SP3BTT-10 | 2026-08-31 12:11:51 | 51.37724 | 17.67575 | 89° | 31km/h | 17990m | 6.3m/s | 0°C | 0% | 0hPa | 0V | 00:00:00 | 00:00:00 | 00:00:00 | |
| KRY50SP | 2026-08-31 12:11:49 | 51.37724 | 17.67563 | 75° | 11km/h | 17980m | 4.0m/s | 0°C | 0% | 0hPa | 0V | 00:00:00 | 00:00:00 | 00:00:00 | |
| KRY50SP | 2026-08-31 12:11:43 | 51.37722 | 17.67520 | 83° | 29km/h | 17947m | 5.3m/s | 0°C | 0% | 0hPa | 0V | 00:00:00 | 00:00:00 | 00:00:00 | |
| SQ6EMJ | 2026-08-31 12:11:39 | 51.37720 | 17.67481 | 70° | 13km/h | 17927m | 2.8m/s | 0°C | 0% | 0hPa | 0V | 00:00:00 | 00:00:00 | 00:00:00 | |
| KRY50SP | 2026-08-31 12:11:37 | 51.37717 | 17.67468 | 70° | 24km/h | 17917m | 5.2m/s | 0°C | 0% | 0hPa | 0V | 00:00:00 | 00:00:00 | 00:00:00 | |
| SQ6EMJ | 2026-08-31 12:11:33 | 51.37714 | 17.67430 | 84° | 29km/h | 17896m | 5.5m/s | 0°C | 0% | 0hPa | 0V | 00:00:00 | 00:00:00 | 00:00:00 | |
| KRY50SP | 2026-08-31 12:11:32 | 51.37713 | 17.67417 | 76° | 33km/h | 17891m | 4.9m/s | 0°C | 0% | 0hPa | 0V | 00:00:00 | 00:00:00 | 00:00:00 | |
| KRY50SP | 2026-08-31 12:11:26 | 51.37708 | 17.67359 | 78° | 20km/h | 17861m | 3.4m/s | 0°C | 0% | 0hPa | 0V | 00:00:00 | 00:00:00 | 00:00:00 | |
| SQ6EMJ | 2026-08-31 12:11:23 | 51.37707 | 17.67327 | 88° | 35km/h | 17846m | 4.2m/s | 0°C | 0% | 0hPa | 0V | 00:00:00 | 00:00:00 | 00:00:00 | |
| KRY50SP | 2026-08-31 12:11:20 | 51.37700 | 17.67283 | 79° | 37km/h | 17832m | 4.4m/s | 0°C | 0% | 0hPa | 0V | 00:00:00 | 00:00:00 | 00:00:00 | |
| KRY50SP | 2026-08-31 12:11:14 | 51.37691 | 17.67210 | 75° | 35km/h | 17803m | 6.4m/s | 0°C | 0% | 0hPa | 0V | 00:00:00 | 00:00:00 | 00:00:00 | |
| KRY50SP | 2026-08-31 12:11:07 | 51.37676 | 17.67110 | 72° | 31km/h | 17766m | 1.9m/s | 0°C | 0% | 0hPa | 0V | 00:00:00 | 00:00:00 | 00:00:00 | |
| KRY50SP | 2026-08-31 12:11:00 | 51.37653 | 17.67010 | 71° | 37km/h | 17731m | 6.7m/s | 0°C | 0% | 0hPa | 0V | 00:00:00 | 00:00:00 | 00:00:00 | |
| SQ6EMJ | 2026-08-31 12:10:58 | 51.37646 | 17.66984 | 68° | 33km/h | 17720m | 4.6m/s | 0°C | 0% | 0hPa | 0V | 00:00:00 | 00:00:00 | 00:00:00 | |
| KRY50SP | 2026-08-31 12:10:55 | 51.37636 | 17.66942 | 61° | 42km/h | 17705m | 3.9m/s | 0°C | 0% | 0hPa | 0V | 00:00:00 | 00:00:00 | 00:00:00 | |
| KRY50SP | 2026-08-31 12:10:50 | 51.37614 | 17.66864 | 63° | 37km/h | 17683m | 4.8m/s | 0°C | 0% | 0hPa | 0V | 00:00:00 | 00:00:00 | 00:00:00 | |
| SQ6EMJ | 2026-08-31 12:10:45 | 51.37595 | 17.66800 | 52° | 44km/h | 17660m | 6.4m/s | 0°C | 0% | 0hPa | 0V | 00:00:00 | 00:00:00 | 00:00:00 | |
| KRY50SP | 2026-08-31 12:10:44 | 51.37588 | 17.66785 | 55° | 53km/h | 17655m | 3.8m/s | 0°C | 0% | 0hPa | 0V | 00:00:00 | 00:00:00 | 00:00:00 | |
| SQ6EMJ | 2026-08-31 12:10:40 | 51.37560 | 17.66702 | 65° | 33km/h | 17628m | 5.9m/s | 0°C | 0% | 0hPa | 0V | 00:00:00 | 00:00:00 | 00:00:00 | |
| KRY50SP | 2026-08-31 12:10:39 | 51.37556 | 17.66690 | 71° | 33km/h | 17622m | 6.5m/s | 0°C | 0% | 0hPa | 0V | 00:00:00 | 00:00:00 | 00:00:00 | |
| KRY50SP | 2026-08-31 12:10:32 | 51.37532 | 17.66612 | 53° | 37km/h | 17589m | 4.5m/s | 0°C | 0% | 0hPa | 0V | 00:00:00 | 00:00:00 | 00:00:00 | |
| KRY50SP | 2026-08-31 12:10:25 | 51.37525 | 17.66520 | 89° | 33km/h | 17555m | 5.8m/s | 0°C | 0% | 0hPa | 0V | 00:00:00 | 00:00:00 | 00:00:00 | |
| KRY50SP | 2026-08-31 12:10:20 | 51.37518 | 17.66457 | 70° | 33km/h | 17529m | 6.2m/s | 0°C | 0% | 0hPa | 0V | 00:00:00 | 00:00:00 | 00:00:00 | |
| SQ6EMJ | 2026-08-31 12:10:19 | 51.37515 | 17.66444 | 67° | 37km/h | 17524m | 4.0m/s | 0°C | 0% | 0hPa | 0V | 00:00:00 | 00:00:00 | 00:00:00 | |
| SQ6EMJ | 2026-08-31 12:10:14 | 51.37503 | 17.66378 | 73° | 35km/h | 17500m | 6.7m/s | 0°C | 0% | 0hPa | 0V | 00:00:00 | 00:00:00 | 00:00:00 | |
| KRY50SP | 2026-08-31 12:10:13 | 51.37500 | 17.66365 | 67° | 35km/h | 17494m | 4.9m/s | 0°C | 0% | 0hPa | 0V | 00:00:00 | 00:00:00 | 00:00:00 | |
| SQ6EMJ | 2026-08-31 12:10:08 | 51.37482 | 17.66278 | 77° | 42km/h | 17464m | 5.3m/s | 0°C | 0% | 0hPa | 0V | 00:00:00 | 00:00:00 | 00:00:00 | |
| SP3BTT-10 | 2026-08-31 12:10:06 | 51.37480 | 17.66262 | 75° | 42km/h | 17460m | 1.7m/s | 0°C | 0% | 0hPa | 0V | 00:00:00 | 00:00:00 | 00:00:00 | |
| KRY50SP | 2026-08-31 12:10:01 | 51.37460 | 17.66196 | 71° | 37km/h | 17435m | 4.3m/s | 0°C | 0% | 0hPa | 0V | 00:00:00 | 00:00:00 | 00:00:00 | |
| SQ6EMJ | 2026-08-31 12:10:00 | 51.37454 | 17.66166 | 71° | 42km/h | 17426m | 6.3m/s | 0°C | 0% | 0hPa | 0V | 00:00:00 | 00:00:00 | 00:00:00 | |
| KRY50SP | 2026-08-31 12:09:53 | 51.37429 | 17.66059 | 60° | 47km/h | 17395m | 7.2m/s | 0°C | 0% | 0hPa | 0V | 00:00:00 | 00:00:00 | 00:00:00 | |
| SQ6EMJ | 2026-08-31 12:09:49 | 51.37409 | 17.65992 | 72° | 51km/h | 17377m | 3.5m/s | 0°C | 0% | 0hPa | 0V | 00:00:00 | 00:00:00 | 00:00:00 | |
| KRY50SP | 2026-08-31 12:09:47 | 51.37399 | 17.65953 | 64° | 55km/h | 17365m | 4.9m/s | 0°C | 0% | 0hPa | 0V | 00:00:00 | 00:00:00 | 00:00:00 | |
| KRY50SP | 2026-08-31 12:09:41 | 51.37356 | 17.65840 | 55° | 53km/h | 17339m | 4.8m/s | 0°C | 0% | 0hPa | 0V | 00:00:00 | 00:00:00 | 00:00:00 | |
| SQ6EMJ | 2026-08-31 12:09:39 | 51.37342 | 17.65800 | 67° | 62km/h | 17330m | 3.8m/s | 0°C | 0% | 0hPa | 0V | 00:00:00 | 00:00:00 | 00:00:00 | |
| KRY50SP | 2026-08-31 12:09:36 | 51.37319 | 17.65729 | 57° | 64km/h | 17315m | 3.7m/s | 0°C | 0% | 0hPa | 0V | 00:00:00 | 00:00:00 | 00:00:00 | |
| SQ6EMJ | 2026-08-31 12:09:33 | 51.37296 | 17.65667 | 57° | 58km/h | 17299m | 5.7m/s | 0°C | 0% | 0hPa | 0V | 00:00:00 | 00:00:00 | 00:00:00 | |
| KRY50SP | 2026-08-31 12:09:30 | 51.37268 | 17.65608 | 51° | 60km/h | 17284m | 3.9m/s | 0°C | 0% | 0hPa | 0V | 00:00:00 | 00:00:00 | 00:00:00 | |
| SQ6EMJ | 2026-08-31 12:09:27 | 51.37243 | 17.65558 | 53° | 51km/h | 17269m | 5.9m/s | 0°C | 0% | 0hPa | 0V | 00:00:00 | 00:00:00 | 00:00:00 | |
| KRY50SP | 2026-08-31 12:09:25 | 51.37227 | 17.65525 | 45° | 53km/h | 17258m | 2.7m/s | 0°C | 0% | 0hPa | 0V | 00:00:00 | 00:00:00 | 00:00:00 | |
| KRY50SP | 2026-08-31 12:09:16 | 51.37148 | 17.65385 | 49° | 49km/h | 17214m | 4.7m/s | 0°C | 0% | 0hPa | 0V | 00:00:00 | 00:00:00 | 00:00:00 | |
| KRY50SP | 2026-08-31 12:09:11 | 51.37109 | 17.65318 | 47° | 53km/h | 17190m | 4.0m/s | 0°C | 0% | 0hPa | 0V | 00:00:00 | 00:00:00 | 00:00:00 | |
| SQ6EMJ | 2026-08-31 12:09:05 | 51.37050 | 17.65216 | 52° | 42km/h | 17156m | 5.0m/s | 0°C | 0% | 0hPa | 0V | 00:00:00 | 00:00:00 | 00:00:00 | |
| KRY50SP | 2026-08-31 12:09:01 | 51.37027 | 17.65179 | 45° | 49km/h | 17143m | 5.1m/s | 0°C | 0% | 0hPa | 0V | 00:00:00 | 00:00:00 | 00:00:00 | |
| SP3BTT-10 | 2026-08-31 12:08:50 | 51.36939 | 17.65039 | 42° | 35km/h | 17090m | 4.1m/s | 0°C | 0% | 0hPa | 0V | 00:00:00 | 00:00:00 | 00:00:00 | |
| SP3BTT-10 | 2026-08-31 12:07:35 | 51.36505 | 17.64148 | 45° | 35km/h | 16720m | 4.4m/s | 0°C | 0% | 0hPa | 0V | 00:00:00 | 00:00:00 | 00:00:00 | |
| SP3BTT-10 | 2026-08-31 12:06:03 | 51.36237 | 17.63038 | 90° | 53km/h | 16272m | 5.0m/s | 0°C | 0% | 0hPa | 0V | 00:00:00 | 00:00:00 | 00:00:00 | |
| SP3BTT-10 | 2026-08-31 12:05:18 | 51.36221 | 17.62130 | 81° | 71km/h | 16054m | 5.4m/s | 0°C | 0% | 0hPa | 0V | 00:00:00 | 00:00:00 | 00:00:00 | |
| SP3BTT-10 | 2026-08-31 12:03:32 | 51.35225 | 17.59575 | 39° | 62km/h | 15542m | 5.8m/s | 0°C | 0% | 0hPa | 0V | 00:00:00 | 00:00:00 | 00:00:00 | |
| SP3BTT-10 | 2026-08-31 12:01:47 | 51.34217 | 17.57521 | 48° | 68km/h | 15034m | 3.8m/s | 0°C | 0% | 0hPa | 0V | 00:00:00 | 00:00:00 | 00:00:00 | |
| SP3BTT-10 | 2026-08-31 12:00:01 | 51.33443 | 17.55591 | 73° | 75km/h | 14533m | 7.8m/s | 0°C | 0% | 0hPa | 0V | 00:00:00 | 00:00:00 | 00:00:00 | |
| KRY50SP | 2026-08-31 11:58:42 | 51.32942 | 17.53272 | 77° | 84km/h | 14098m | 4.6m/s | 0°C | 0% | 0hPa | 0V | 00:00:00 | 00:00:00 | 00:00:00 | |
| KRY50SP | 2026-08-31 11:58:31 | 51.32877 | 17.52934 | 74° | 78km/h | 14036m | 8.4m/s | 0°C | 0% | 0hPa | 0V | 00:00:00 | 00:00:00 | 00:00:00 | |
| SP3BTT-10 | 2026-08-31 11:58:16 | 51.32771 | 17.52494 | 66° | 82km/h | 13947m | 6.3m/s | 0°C | 0% | 0hPa | 0V | 00:00:00 | 00:00:00 | 00:00:00 | |
| KRY50SP | 2026-08-31 11:58:08 | 51.32714 | 17.52268 | 72° | 71km/h | 13906m | 4.3m/s | 0°C | 0% | 0hPa | 0V | 00:00:00 | 00:00:00 | 00:00:00 | |
| KRY50SP | 2026-08-31 11:57:54 | 51.32619 | 17.51876 | 68° | 82km/h | 13828m | 7.1m/s | 0°C | 0% | 0hPa | 0V | 00:00:00 | 00:00:00 | 00:00:00 | |
| SP3BTT-10 | 2026-08-31 11:57:32 | 51.32464 | 17.51151 | 79° | 111km/h | 13702m | 5.9m/s | 0°C | 0% | 0hPa | 0V | 00:00:00 | 00:00:00 | 00:00:00 | |
| KRY50SP | 2026-08-31 11:57:29 | 51.32451 | 17.51084 | 74° | 86km/h | 13695m | 4.7m/s | 0°C | 0% | 0hPa | 0V | 00:00:00 | 00:00:00 | 00:00:00 | |
| SQ6EMJ | 2026-08-31 11:57:21 | 51.32403 | 17.50816 | 73° | 93km/h | 13651m | 4.4m/s | 0°C | 0% | 0hPa | 0V | 00:00:00 | 00:00:00 | 00:00:00 | |
| KRY50SP | 2026-08-31 11:57:17 | 51.32377 | 17.50671 | 76° | 91km/h | 13631m | 7.1m/s | 0°C | 0% | 0hPa | 0V | 00:00:00 | 00:00:00 | 00:00:00 | |
| SQ6EMJ | 2026-08-31 11:57:08 | 51.32320 | 17.50342 | 75° | 104km/h | 13586m | 4.2m/s | 0°C | 0% | 0hPa | 0V | 00:00:00 | 00:00:00 | 00:00:00 | |
| KRY50SP | 2026-08-31 11:57:00 | 51.32278 | 17.50045 | 78° | 100km/h | 13540m | 4.2m/s | 0°C | 0% | 0hPa | 0V | 00:00:00 | 00:00:00 | 00:00:00 | |
| KRY50SP | 2026-08-31 11:56:53 | 51.32224 | 17.49755 | 80° | 95km/h | 13495m | 4.9m/s | 0°C | 0% | 0hPa | 0V | 00:00:00 | 00:00:00 | 00:00:00 | |
| KRY50SP | 2026-08-31 11:56:41 | 51.32149 | 17.49241 | 76° | 115km/h | 13429m | 6.6m/s | 0°C | 0% | 0hPa | 0V | 00:00:00 | 00:00:00 | 00:00:00 | |
| SQ6EMJ | 2026-08-31 11:56:40 | 51.32142 | 17.49195 | 81° | 119km/h | 13424m | 4.4m/s | 0°C | 0% | 0hPa | 0V | 00:00:00 | 00:00:00 | 00:00:00 | |
| KRY50SP | 2026-08-31 11:56:27 | 51.32038 | 17.48627 | 73° | 111km/h | 13358m | 5.8m/s | 0°C | 0% | 0hPa | 0V | 00:00:00 | 00:00:00 | 00:00:00 | |
| KRY50SP | 2026-08-31 11:56:21 | 51.31988 | 17.48364 | 77° | 130km/h | 13330m | 5.5m/s | 0°C | 0% | 0hPa | 0V | 00:00:00 | 00:00:00 | 00:00:00 | |
| SQ6EMJ | 2026-08-31 11:56:19 | 51.31973 | 17.48265 | 79° | 119km/h | 13315m | 4.9m/s | 0°C | 0% | 0hPa | 0V | 00:00:00 | 00:00:00 | 00:00:00 | |
| KRY50SP | 2026-08-31 11:56:15 | 51.31943 | 17.48089 | 70° | 108km/h | 13294m | 3.6m/s | 0°C | 0% | 0hPa | 0V | 00:00:00 | 00:00:00 | 00:00:00 | |
| SQ6EMJ | 2026-08-31 11:56:02 | 51.31813 | 17.47484 | 67° | 122km/h | 13230m | 3.9m/s | 0°C | 0% | 0hPa | 0V | 00:00:00 | 00:00:00 | 00:00:00 | |
| KRY50SP | 2026-08-31 11:55:48 | 51.31662 | 17.46857 | 61° | 122km/h | 13144m | 3.3m/s | 0°C | 0% | 0hPa | 0V | 00:00:00 | 00:00:00 | 00:00:00 | |
| SQ6EMJ | 2026-08-31 11:55:47 | 51.31630 | 17.46770 | 62° | 126km/h | 13137m | 5.4m/s | 0°C | 0% | 0hPa | 0V | 00:00:00 | 00:00:00 | 00:00:00 | |
| SP3BTT-10 | 2026-08-31 11:55:45 | 51.31616 | 17.46726 | 63° | 139km/h | 13131m | 7.1m/s | 0°C | 0% | 0hPa | 0V | 00:00:00 | 00:00:00 | 00:00:00 | |
| SQ6EMJ | 2026-08-31 11:55:35 | 51.31492 | 17.46269 | 69° | 124km/h | 13080m | 4.8m/s | 0°C | 0% | 0hPa | 0V | 00:00:00 | 00:00:00 | 00:00:00 | |
| KRY50SP | 2026-08-31 11:55:30 | 51.31440 | 17.46026 | 71° | 128km/h | 13053m | 5.2m/s | 0°C | 0% | 0hPa | 0V | 00:00:00 | 00:00:00 | 00:00:00 | |
| SQ6EMJ | 2026-08-31 11:55:23 | 51.31353 | 17.45690 | 73° | 126km/h | 13009m | 8.7m/s | 0°C | 0% | 0hPa | 0V | 00:00:00 | 00:00:00 | 00:00:00 | |
| KRY50SP | 2026-08-31 11:55:15 | 51.31263 | 17.45301 | 73° | 135km/h | 12965m | 4.6m/s | 0°C | 0% | 0hPa | 0V | 00:00:00 | 00:00:00 | 00:00:00 | |
| SQ6EMJ | 2026-08-31 11:55:08 | 51.31181 | 17.44930 | 68° | 137km/h | 12925m | 6.8m/s | 0°C | 0% | 0hPa | 0V | 00:00:00 | 00:00:00 | 00:00:00 | |
| KRY50SP | 2026-08-31 11:55:03 | 51.31114 | 17.44677 | 70° | 139km/h | 12895m | 8.2m/s | 0°C | 0% | 0hPa | 0V | 00:00:00 | 00:00:00 | 00:00:00 | |
| KRY50SP | 2026-08-31 11:54:56 | 51.31025 | 17.44314 | 69° | 135km/h | 12858m | 5.1m/s | 0°C | 0% | 0hPa | 0V | 00:00:00 | 00:00:00 | 00:00:00 | |
| KRY50SP | 2026-08-31 11:54:50 | 51.30940 | 17.44007 | 68° | 144km/h | 12819m | 8.4m/s | 0°C | 0% | 0hPa | 0V | 00:00:00 | 00:00:00 | 00:00:00 | |
| SQ6EMJ | 2026-08-31 11:54:46 | 51.30882 | 17.43803 | 67° | 141km/h | 12796m | 9.0m/s | 0°C | 0% | 0hPa | 0V | 00:00:00 | 00:00:00 | 00:00:00 | |
| KRY50SP | 2026-08-31 11:54:45 | 51.30867 | 17.43751 | 67° | 141km/h | 12790m | 4.4m/s | 0°C | 0% | 0hPa | 0V | 00:00:00 | 00:00:00 | 00:00:00 | |
| KRY50SP | 2026-08-31 11:54:40 | 51.30792 | 17.43497 | 65° | 146km/h | 12760m | 6.7m/s | 0°C | 0% | 0hPa | 0V | 00:00:00 | 00:00:00 | 00:00:00 | |
| KRY50SP | 2026-08-31 11:54:35 | 51.30715 | 17.43229 | 68° | 144km/h | 12732m | 6.7m/s | 0°C | 0% | 0hPa | 0V | 00:00:00 | 00:00:00 | 00:00:00 | |
| SQ6EMJ | 2026-08-31 11:54:34 | 51.30701 | 17.43176 | 69° | 141km/h | 12727m | 4.2m/s | 0°C | 0% | 0hPa | 0V | 00:00:00 | 00:00:00 | 00:00:00 | |
| KRY50SP | 2026-08-31 11:54:25 | 51.30562 | 17.42705 | 69° | 146km/h | 12671m | 5.2m/s | 0°C | 0% | 0hPa | 0V | 00:00:00 | 00:00:00 | 00:00:00 | |
| SQ6EMJ | 2026-08-31 11:54:23 | 51.30534 | 17.42598 | 68° | 142km/h | 12659m | 3.6m/s | 0°C | 0% | 0hPa | 0V | 00:00:00 | 00:00:00 | 00:00:00 | |
| KRY50SP | 2026-08-31 11:54:19 | 51.30474 | 17.42382 | 67° | 144km/h | 12639m | 8.7m/s | 0°C | 0% | 0hPa | 0V | 00:00:00 | 00:00:00 | 00:00:00 | |
| SP3BTT-10 | 2026-08-31 11:54:15 | 51.30416 | 17.42170 | 68° | 150km/h | 12613m | 7.5m/s | 0°C | 0% | 0hPa | 0V | 00:00:00 | 00:00:00 | 00:00:00 | |
| SQ6EMJ | 2026-08-31 11:54:14 | 51.30402 | 17.42113 | 71° | 153km/h | 12607m | 3.8m/s | 0°C | 0% | 0hPa | 0V | 00:00:00 | 00:00:00 | 00:00:00 | |
| KRY50SP | 2026-08-31 11:54:13 | 51.30388 | 17.42055 | 71° | 153km/h | 12602m | 6.7m/s | 0°C | 0% | 0hPa | 0V | 00:00:00 | 00:00:00 | 00:00:00 | |
| SQ6EMJ | 2026-08-31 11:54:09 | 51.30334 | 17.41828 | 70° | 151km/h | 12579m | 6.5m/s | 0°C | 0% | 0hPa | 0V | 00:00:00 | 00:00:00 | 00:00:00 | |
| KRY50SP | 2026-08-31 11:54:08 | 51.30321 | 17.41772 | 71° | 144km/h | 12574m | 4.8m/s | 0°C | 0% | 0hPa | 0V | 00:00:00 | 00:00:00 | 00:00:00 | |
| SQ6EMJ | 2026-08-31 11:54:04 | 51.30272 | 17.41549 | 71° | 146km/h | 12551m | 5.0m/s | 0°C | 0% | 0hPa | 0V | 00:00:00 | 00:00:00 | 00:00:00 | |
| KRY50SP | 2026-08-31 11:54:02 | 51.30244 | 17.41440 | 66° | 148km/h | 12538m | 3.8m/s | 0°C | 0% | 0hPa | 0V | 00:00:00 | 00:00:00 | 00:00:00 | |
| SQ6EMJ | 2026-08-31 11:53:57 | 51.30166 | 17.41150 | 71° | 157km/h | 12509m | 7.0m/s | 0°C | 0% | 0hPa | 0V | 00:00:00 | 00:00:00 | 00:00:00 | |
| KRY50SP | 2026-08-31 11:53:55 | 51.30140 | 17.41035 | 71° | 150km/h | 12496m | 9.0m/s | 0°C | 0% | 0hPa | 0V | 00:00:00 | 00:00:00 | 00:00:00 | |
| SQ6EMJ | 2026-08-31 11:53:52 | 51.30096 | 17.40869 | 62° | 151km/h | 12474m | 5.9m/s | 0°C | 0% | 0hPa | 0V | 00:00:00 | 00:00:00 | 00:00:00 | |
| KRY50SP | 2026-08-31 11:53:49 | 51.30041 | 17.40707 | 65° | 146km/h | 12457m | 5.6m/s | 0°C | 0% | 0hPa | 0V | 00:00:00 | 00:00:00 | 00:00:00 | |
| SQ6EMJ | 2026-08-31 11:53:47 | 51.30012 | 17.40598 | 71° | 148km/h | 12444m | 6.3m/s | 0°C | 0% | 0hPa | 0V | 00:00:00 | 00:00:00 | 00:00:00 | |
| KRY50SP | 2026-08-31 11:53:44 | 51.29970 | 17.40427 | 67° | 157km/h | 12426m | 7.8m/s | 0°C | 0% | 0hPa | 0V | 00:00:00 | 00:00:00 | 00:00:00 | |
| SQ6EMJ | 2026-08-31 11:53:42 | 51.29934 | 17.40309 | 64° | 162km/h | 12413m | 9.3m/s | 0°C | 0% | 0hPa | 0V | 00:00:00 | 00:00:00 | 00:00:00 | |
| OE3JTB-15 | 2026-08-31 11:53:39 | 51.29882 | 17.40143 | 63° | 148km/h | 12395m | 5.0m/s | 0°C | 0% | 0hPa | 0V | 00:00:00 | 00:00:00 | 00:00:00 | |
| KRY50SP | 2026-08-31 11:53:38 | 51.29866 | 17.40092 | 64° | 141km/h | 12389m | 7.7m/s | 0°C | 0% | 0hPa | 0V | 00:00:00 | 00:00:00 | 00:00:00 | |
| SQ6EMJ | 2026-08-31 11:53:37 | 51.29850 | 17.40040 | 67° | 144km/h | 12383m | 3.3m/s | 0°C | 0% | 0hPa | 0V | 00:00:00 | 00:00:00 | 00:00:00 | |
| SQ6EMJ | 2026-08-31 11:53:31 | 51.29748 | 17.39709 | 61° | 148km/h | 12349m | 4.7m/s | 0°C | 0% | 0hPa | 0V | 00:00:00 | 00:00:00 | 00:00:00 | |
| KRY50SP | 2026-08-31 11:53:28 | 51.29694 | 17.39553 | 65° | 146km/h | 12331m | 5.6m/s | 0°C | 0% | 0hPa | 0V | 00:00:00 | 00:00:00 | 00:00:00 | |
| SQ6EMJ | 2026-08-31 11:53:26 | 51.29663 | 17.39449 | 68° | 141km/h | 12321m | 6.3m/s | 0°C | 0% | 0hPa | 0V | 00:00:00 | 00:00:00 | 00:00:00 | |
| KRY50SP | 2026-08-31 11:53:23 | 51.29619 | 17.39286 | 65° | 150km/h | 12302m | 5.0m/s | 0°C | 0% | 0hPa | 0V | 00:00:00 | 00:00:00 | 00:00:00 | |
| SQ6EMJ | 2026-08-31 11:53:20 | 51.29565 | 17.39127 | 62° | 148km/h | 12285m | 6.7m/s | 0°C | 0% | 0hPa | 0V | 00:00:00 | 00:00:00 | 00:00:00 | |
| KRY50SP | 2026-08-31 11:53:15 | 51.29479 | 17.38862 | 67° | 150km/h | 12256m | 5.5m/s | 0°C | 0% | 0hPa | 0V | 00:00:00 | 00:00:00 | 00:00:00 | |
| KRY50SP | 2026-08-31 11:53:10 | 51.29403 | 17.38585 | 64° | 142km/h | 12221m | 6.8m/s | 0°C | 0% | 0hPa | 0V | 00:00:00 | 00:00:00 | 00:00:00 | |
| SQ6EMJ | 2026-08-31 11:53:09 | 51.29387 | 17.38535 | 64° | 137km/h | 12215m | 5.3m/s | 0°C | 0% | 0hPa | 0V | 00:00:00 | 00:00:00 | 00:00:00 | |
| SQ6EMJ | 2026-08-31 11:53:05 | 51.29316 | 17.38266 | 71° | 150km/h | 12185m | 6.7m/s | 0°C | 0% | 0hPa | 0V | 00:00:00 | 00:00:00 | 00:00:00 | |
| SQ6EMJ | 2026-08-31 11:52:59 | 51.29235 | 17.38010 | 63° | 144km/h | 12157m | 5.1m/s | 0°C | 0% | 0hPa | 0V | 00:00:00 | 00:00:00 | 00:00:00 | |
| SQ6EMJ | 2026-08-31 11:52:53 | 51.29134 | 17.37683 | 66° | 151km/h | 12126m | 8.1m/s | 0°C | 0% | 0hPa | 0V | 00:00:00 | 00:00:00 | 00:00:00 | |
| KRY50SP | 2026-08-31 11:52:50 | 51.29086 | 17.37523 | 66° | 151km/h | 12107m | 4.8m/s | 0°C | 0% | 0hPa | 0V | 00:00:00 | 00:00:00 | 00:00:00 | |
| SQ6EMJ | 2026-08-31 11:52:48 | 51.29052 | 17.37416 | 63° | 146km/h | 12094m | 4.8m/s | 0°C | 0% | 0hPa | 0V | 00:00:00 | 00:00:00 | 00:00:00 | |
| KRY50SP | 2026-08-31 11:52:44 | 51.28990 | 17.37208 | 65° | 148km/h | 12070m | 5.1m/s | 0°C | 0% | 0hPa | 0V | 00:00:00 | 00:00:00 | 00:00:00 | |
| SQ6EMJ | 2026-08-31 11:52:42 | 51.28957 | 17.37096 | 66° | 157km/h | 12057m | 4.2m/s | 0°C | 0% | 0hPa | 0V | 00:00:00 | 00:00:00 | 00:00:00 | |
| KRY50SP | 2026-08-31 11:52:37 | 51.28871 | 17.36830 | 63° | 150km/h | 12028m | 5.0m/s | 0°C | 0% | 0hPa | 0V | 00:00:00 | 00:00:00 | 00:00:00 | |
| KRY50SP | 2026-08-31 11:52:31 | 51.28765 | 17.36510 | 62° | 150km/h | 11994m | 7.2m/s | 0°C | 0% | 0hPa | 0V | 00:00:00 | 00:00:00 | 00:00:00 | |
| SP3BTT-10 | 2026-08-31 11:52:29 | 51.28726 | 17.36403 | 61° | 135km/h | 11980m | 7.9m/s | 0°C | 0% | 0hPa | 0V | 00:00:00 | 00:00:00 | 00:00:00 | |
| SQ6EMJ | 2026-08-31 11:52:26 | 51.28671 | 17.36239 | 65° | 146km/h | 11961m | 5.8m/s | 0°C | 0% | 0hPa | 0V | 00:00:00 | 00:00:00 | 00:00:00 | |
| KRY50SP | 2026-08-31 11:52:25 | 51.28655 | 17.36186 | 68° | 144km/h | 11955m | 5.1m/s | 0°C | 0% | 0hPa | 0V | 00:00:00 | 00:00:00 | 00:00:00 | |
| SQ6EMJ | 2026-08-31 11:52:20 | 51.28576 | 17.35912 | 62° | 153km/h | 11923m | 5.4m/s | 0°C | 0% | 0hPa | 0V | 00:00:00 | 00:00:00 | 00:00:00 | |
| KRY50SP | 2026-08-31 11:52:19 | 51.28558 | 17.35859 | 62° | 148km/h | 11917m | 7.0m/s | 0°C | 0% | 0hPa | 0V | 00:00:00 | 00:00:00 | 00:00:00 | |
| SQ6EMJ | 2026-08-31 11:52:15 | 51.28483 | 17.35592 | 69° | 155km/h | 11887m | 4.5m/s | 0°C | 0% | 0hPa | 0V | 00:00:00 | 00:00:00 | 00:00:00 | |
| KRY50SP | 2026-08-31 11:52:13 | 51.28468 | 17.35535 | 67° | 151km/h | 11883m | 4.6m/s | 0°C | 0% | 0hPa | 0V | 00:00:00 | 00:00:00 | 00:00:00 | |
| SQ6EMJ | 2026-08-31 11:52:08 | 51.28382 | 17.35286 | 64° | 133km/h | 11854m | 6.3m/s | 0°C | 0% | 0hPa | 0V | 00:00:00 | 00:00:00 | 00:00:00 | |
| KRY50SP | 2026-08-31 11:52:07 | 51.28366 | 17.35237 | 65° | 139km/h | 11848m | 4.4m/s | 0°C | 0% | 0hPa | 0V | 00:00:00 | 00:00:00 | 00:00:00 | |
| SQ6EMJ | 2026-08-31 11:52:02 | 51.28284 | 17.34978 | 64° | 151km/h | 11820m | 5.8m/s | 0°C | 0% | 0hPa | 0V | 00:00:00 | 00:00:00 | 00:00:00 | |
| KRY50SP | 2026-08-31 11:52:01 | 51.28267 | 17.34925 | 63° | 144km/h | 11814m | 4.8m/s | 0°C | 0% | 0hPa | 0V | 00:00:00 | 00:00:00 | 00:00:00 | |
| SQ6EMJ | 2026-08-31 11:51:56 | 51.28192 | 17.34693 | 62° | 128km/h | 11788m | 6.4m/s | 0°C | 0% | 0hPa | 0V | 00:00:00 | 00:00:00 | 00:00:00 | |
| KRY50SP | 2026-08-31 11:51:55 | 51.28176 | 17.34647 | 63° | 135km/h | 11783m | 3.3m/s | 0°C | 0% | 0hPa | 0V | 00:00:00 | 00:00:00 | 00:00:00 | |
| SQ6EMJ | 2026-08-31 11:51:51 | 51.28115 | 17.34461 | 68° | 119km/h | 11760m | 4.6m/s | 0°C | 0% | 0hPa | 0V | 00:00:00 | 00:00:00 | 00:00:00 | |
| KRY50SP | 2026-08-31 11:51:50 | 51.28103 | 17.34418 | 68° | 117km/h | 11755m | 6.0m/s | 0°C | 0% | 0hPa | 0V | 00:00:00 | 00:00:00 | 00:00:00 | |
| SQ6EMJ | 2026-08-31 11:51:45 | 51.28029 | 17.34184 | 60° | 131km/h | 11731m | 6.0m/s | 0°C | 0% | 0hPa | 0V | 00:00:00 | 00:00:00 | 00:00:00 | |
| SP3BTT-10 | 2026-08-31 11:51:44 | 51.28013 | 17.34139 | 62° | 117km/h | 11727m | 2.7m/s | 0°C | 0% | 0hPa | 0V | 00:00:00 | 00:00:00 | 00:00:00 | |
| SQ6EMJ | 2026-08-31 11:51:41 | 51.27956 | 17.33947 | 66° | 135km/h | 11706m | 5.0m/s | 0°C | 0% | 0hPa | 0V | 00:00:00 | 00:00:00 | 00:00:00 | |
| KRY50SP | 2026-08-31 11:51:38 | 51.27925 | 17.33848 | 64° | 135km/h | 11694m | 3.8m/s | 0°C | 0% | 0hPa | 0V | 00:00:00 | 00:00:00 | 00:00:00 | |
| SQ6EMJ | 2026-08-31 11:51:34 | 51.27866 | 17.33659 | 65° | 133km/h | 11670m | 6.4m/s | 0°C | 0% | 0hPa | 0V | 00:00:00 | 00:00:00 | 00:00:00 | |
| SQ6EMJ | 2026-08-31 11:51:29 | 51.27790 | 17.33400 | 67° | 139km/h | 11644m | 3.6m/s | 0°C | 0% | 0hPa | 0V | 00:00:00 | 00:00:00 | 00:00:00 | |
| KRY50SP | 2026-08-31 11:51:24 | 51.27718 | 17.33155 | 65° | 141km/h | 11615m | 6.0m/s | 0°C | 0% | 0hPa | 0V | 00:00:00 | 00:00:00 | 00:00:00 | |
| SQ6EMJ | 2026-08-31 11:51:23 | 51.27702 | 17.33103 | 66° | 142km/h | 11610m | 5.4m/s | 0°C | 0% | 0hPa | 0V | 00:00:00 | 00:00:00 | 00:00:00 | |
| KRY50SP | 2026-08-31 11:51:19 | 51.27639 | 17.32893 | 63° | 139km/h | 11588m | 3.6m/s | 0°C | 0% | 0hPa | 0V | 00:00:00 | 00:00:00 | 00:00:00 | |
| SQ6EMJ | 2026-08-31 11:51:17 | 51.27607 | 17.32792 | 66° | 142km/h | 11576m | 5.5m/s | 0°C | 0% | 0hPa | 0V | 00:00:00 | 00:00:00 | 00:00:00 | |
| KRY50SP | 2026-08-31 11:51:13 | 51.27546 | 17.32591 | 61° | 137km/h | 11556m | 5.4m/s | 0°C | 0% | 0hPa | 0V | 00:00:00 | 00:00:00 | 00:00:00 | |
| SQ6EMJ | 2026-08-31 11:51:10 | 51.27494 | 17.32439 | 67° | 142km/h | 11541m | 5.3m/s | 0°C | 0% | 0hPa | 0V | 00:00:00 | 00:00:00 | 00:00:00 | |
| KRY50SP | 2026-08-31 11:51:07 | 51.27454 | 17.32288 | 66° | 130km/h | 11527m | 4.5m/s | 0°C | 0% | 0hPa | 0V | 00:00:00 | 00:00:00 | 00:00:00 | |
| SQ6EMJ | 2026-08-31 11:51:04 | 51.27410 | 17.32158 | 61° | 117km/h | 11509m | 7.0m/s | 0°C | 0% | 0hPa | 0V | 00:00:00 | 00:00:00 | 00:00:00 | |
| KRY50SP | 2026-08-31 11:51:01 | 51.27362 | 17.32020 | 64° | 142km/h | 11492m | 6.5m/s | 0°C | 0% | 0hPa | 0V | 00:00:00 | 00:00:00 | 00:00:00 | |
| SQ6EMJ | 2026-08-31 11:50:59 | 51.27332 | 17.31915 | 68° | 142km/h | 11481m | 6.4m/s | 0°C | 0% | 0hPa | 0V | 00:00:00 | 00:00:00 | 00:00:00 | |
| SQ6EMJ | 2026-08-31 11:50:53 | 51.27253 | 17.31636 | 63° | 131km/h | 11450m | 5.0m/s | 0°C | 0% | 0hPa | 0V | 00:00:00 | 00:00:00 | 00:00:00 | |
| KRY50SP | 2026-08-31 11:50:52 | 51.27237 | 17.31588 | 63° | 133km/h | 11445m | 3.7m/s | 0°C | 0% | 0hPa | 0V | 00:00:00 | 00:00:00 | 00:00:00 | |
| KRY50SP | 2026-08-31 11:50:47 | 51.27166 | 17.31356 | 65° | 126km/h | 11421m | 2.6m/s | 0°C | 0% | 0hPa | 0V | 00:00:00 | 00:00:00 | 00:00:00 | |
| SQ6EMJ | 2026-08-31 11:50:42 | 51.27099 | 17.31146 | 67° | 111km/h | 11397m | 3.8m/s | 0°C | 0% | 0hPa | 0V | 00:00:00 | 00:00:00 | 00:00:00 | |
| SQ6EMJ | 2026-08-31 11:50:37 | 51.27036 | 17.30914 | 68° | 130km/h | 11371m | 5.5m/s | 0°C | 0% | 0hPa | 0V | 00:00:00 | 00:00:00 | 00:00:00 | |
| KRY50SP | 2026-08-31 11:50:35 | 51.27013 | 17.30824 | 69° | 111km/h | 11361m | 2.6m/s | 0°C | 0% | 0hPa | 0V | 00:00:00 | 00:00:00 | 00:00:00 | |
| SQ6EMJ | 2026-08-31 11:50:32 | 51.26964 | 17.30656 | 66° | 124km/h | 11337m | 4.3m/s | 0°C | 0% | 0hPa | 0V | 00:00:00 | 00:00:00 | 00:00:00 | |
| KRY50SP | 2026-08-31 11:50:31 | 51.26951 | 17.30611 | 65° | 126km/h | 11331m | 7.5m/s | 0°C | 0% | 0hPa | 0V | 00:00:00 | 00:00:00 | 00:00:00 | |
| SQ6EMJ | 2026-08-31 11:50:26 | 51.26893 | 17.30401 | 67° | 110km/h | 11305m | 6.1m/s | 0°C | 0% | 0hPa | 0V | 00:00:00 | 00:00:00 | 00:00:00 | |
| KRY50SP | 2026-08-31 11:50:25 | 51.26893 | 17.30401 | 67° | 110km/h | 11305m | 6.1m/s | 0°C | 0% | 0hPa | 0V | 00:00:00 | 00:00:00 | 00:00:00 | |
| KRY50SP | 2026-08-31 11:50:19 | 51.26819 | 17.30149 | 66° | 110km/h | 11276m | 6.1m/s | 0°C | 0% | 0hPa | 0V | 00:00:00 | 00:00:00 | 00:00:00 | |
| KRY50SP | 2026-08-31 11:50:14 | 51.26757 | 17.29939 | 72° | 117km/h | 11250m | 3.8m/s | 0°C | 0% | 0hPa | 0V | 00:00:00 | 00:00:00 | 00:00:00 | |
| KRY50SP | 2026-08-31 11:50:10 | 51.26699 | 17.29735 | 63° | 110km/h | 11230m | 3.4m/s | 0°C | 0% | 0hPa | 0V | 00:00:00 | 00:00:00 | 00:00:00 | |
| SQ6EMJ | 2026-08-31 11:50:09 | 51.26686 | 17.29695 | 67° | 113km/h | 11226m | 5.4m/s | 0°C | 0% | 0hPa | 0V | 00:00:00 | 00:00:00 | 00:00:00 | |
| KRY50SP | 2026-08-31 11:50:03 | 51.26634 | 17.29482 | 71° | 106km/h | 11206m | 3.8m/s | 0°C | 0% | 0hPa | 0V | 00:00:00 | 00:00:00 | 00:00:00 | |
| SQ6EMJ | 2026-08-31 11:50:02 | 51.26624 | 17.29440 | 70° | 113km/h | 11203m | 4.7m/s | 0°C | 0% | 0hPa | 0V | 00:00:00 | 00:00:00 | 00:00:00 | |
| KRY50SP | 2026-08-31 11:49:59 | 51.26583 | 17.29275 | 69° | 113km/h | 11187m | 6.3m/s | 0°C | 0% | 0hPa | 0V | 00:00:00 | 00:00:00 | 00:00:00 | |
| SP3BTT-10 | 2026-08-31 11:49:58 | 51.26583 | 17.29275 | 69° | 102km/h | 11187m | 6.3m/s | 0°C | 0% | 0hPa | 0V | 00:00:00 | 00:00:00 | 00:00:00 | |
| SQ6EMJ | 2026-08-31 11:49:57 | 51.26572 | 17.29232 | 69° | 113km/h | 11181m | 6.9m/s | 0°C | 0% | 0hPa | 0V | 00:00:00 | 00:00:00 | 00:00:00 | |
| SQ6EMJ | 2026-08-31 11:49:51 | 51.26506 | 17.28983 | 64° | 111km/h | 11153m | 3.8m/s | 0°C | 0% | 0hPa | 0V | 00:00:00 | 00:00:00 | 00:00:00 | |
| KRY50SP | 2026-08-31 11:49:50 | 51.26494 | 17.28943 | 67° | 110km/h | 11149m | 4.3m/s | 0°C | 0% | 0hPa | 0V | 00:00:00 | 00:00:00 | 00:00:00 | |
| SQ6EMJ | 2026-08-31 11:49:46 | 51.26451 | 17.28782 | 68° | 113km/h | 11128m | 4.6m/s | 0°C | 0% | 0hPa | 0V | 00:00:00 | 00:00:00 | 00:00:00 | |
| KRY50SP | 2026-08-31 11:49:44 | 51.26428 | 17.28700 | 65° | 106km/h | 11118m | 3.6m/s | 0°C | 0% | 0hPa | 0V | 00:00:00 | 00:00:00 | 00:00:00 | |
| SQ6EMJ | 2026-08-31 11:49:40 | 51.26383 | 17.28535 | 71° | 117km/h | 11101m | 5.9m/s | 0°C | 0% | 0hPa | 0V | 00:00:00 | 00:00:00 | 00:00:00 | |
| KRY50SP | 2026-08-31 11:49:39 | 51.26373 | 17.28492 | 70° | 111km/h | 11095m | 5.6m/s | 0°C | 0% | 0hPa | 0V | 00:00:00 | 00:00:00 | 00:00:00 | |
| KRY50SP | 2026-08-31 11:49:34 | 51.26319 | 17.28309 | 63° | 108km/h | 11067m | 5.8m/s | 0°C | 0% | 0hPa | 0V | 00:00:00 | 00:00:00 | 00:00:00 | |
| SQ6EMJ | 2026-08-31 11:49:30 | 51.26259 | 17.28093 | 72° | 110km/h | 11041m | 5.4m/s | 0°C | 0% | 0hPa | 0V | 00:00:00 | 00:00:00 | 00:00:00 | |
| KRY50SP | 2026-08-31 11:49:28 | 51.26249 | 17.28053 | 69° | 104km/h | 11036m | 6.2m/s | 0°C | 0% | 0hPa | 0V | 00:00:00 | 00:00:00 | 00:00:00 | |
| SQ6EMJ | 2026-08-31 11:49:23 | 51.26185 | 17.27869 | 66° | 104km/h | 11010m | 4.6m/s | 0°C | 0% | 0hPa | 0V | 00:00:00 | 00:00:00 | 00:00:00 | |
| KRY50SP | 2026-08-31 11:49:22 | 51.26174 | 17.27830 | 67° | 108km/h | 11007m | 3.9m/s | 0°C | 0% | 0hPa | 0V | 00:00:00 | 00:00:00 | 00:00:00 | |
| SQ6EMJ | 2026-08-31 11:49:17 | 51.26117 | 17.27652 | 67° | 93km/h | 10981m | 7.7m/s | 0°C | 0% | 0hPa | 0V | 00:00:00 | 00:00:00 | 00:00:00 | |
| KRY50SP | 2026-08-31 11:49:14 | 51.26090 | 17.27541 | 69° | 100km/h | 10964m | 5.8m/s | 0°C | 0% | 0hPa | 0V | 00:00:00 | 00:00:00 | 00:00:00 | |
| SQ6EMJ | 2026-08-31 11:49:12 | 51.26071 | 17.27466 | 66° | 102km/h | 10955m | 5.8m/s | 0°C | 0% | 0hPa | 0V | 00:00:00 | 00:00:00 | 00:00:00 | |
| KRY50SP | 2026-08-31 11:49:07 | 51.26017 | 17.27283 | 63° | 99km/h | 10926m | 4.8m/s | 0°C | 0% | 0hPa | 0V | 00:00:00 | 00:00:00 | 00:00:00 | |
| SQ6EMJ | 2026-08-31 11:49:06 | 51.26006 | 17.27249 | 64° | 95km/h | 10921m | 5.2m/s | 0°C | 0% | 0hPa | 0V | 00:00:00 | 00:00:00 | 00:00:00 | |
| KRY50SP | 2026-08-31 11:49:00 | 51.25944 | 17.27034 | 64° | 102km/h | 10891m | 5.2m/s | 0°C | 0% | 0hPa | 0V | 00:00:00 | 00:00:00 | 00:00:00 | |
| SQ6EMJ | 2026-08-31 11:48:55 | 51.25893 | 17.26857 | 65° | 91km/h | 10865m | 5.7m/s | 0°C | 0% | 0hPa | 0V | 00:00:00 | 00:00:00 | 00:00:00 | |
| KRY50SP | 2026-08-31 11:48:54 | 51.25884 | 17.26824 | 70° | 88km/h | 10860m | 4.0m/s | 0°C | 0% | 0hPa | 0V | 00:00:00 | 00:00:00 | 00:00:00 | |
| SQ6EMJ | 2026-08-31 11:48:49 | 51.25830 | 17.26648 | 63° | 97km/h | 10832m | 5.6m/s | 0°C | 0% | 0hPa | 0V | 00:00:00 | 00:00:00 | 00:00:00 | |
| KRY50SP | 2026-08-31 11:48:47 | 51.25810 | 17.26580 | 70° | 93km/h | 10823m | 5.0m/s | 0°C | 0% | 0hPa | 0V | 00:00:00 | 00:00:00 | 00:00:00 | |
| KRY50SP | 2026-08-31 11:48:41 | 51.25764 | 17.26366 | 61° | 111km/h | 10796m | 6.8m/s | 0°C | 0% | 0hPa | 0V | 00:00:00 | 00:00:00 | 00:00:00 | |
| SQ6EMJ | 2026-08-31 11:48:38 | 51.25723 | 17.26248 | 64° | 97km/h | 10776m | 6.6m/s | 0°C | 0% | 0hPa | 0V | 00:00:00 | 00:00:00 | 00:00:00 | |
| KRY50SP | 2026-08-31 11:48:34 | 51.25677 | 17.26147 | 49° | 84km/h | 10749m | 4.1m/s | 0°C | 0% | 0hPa | 0V | 00:00:00 | 00:00:00 | 00:00:00 | |
| SQ6EMJ | 2026-08-31 11:48:32 | 51.25649 | 17.26082 | 64° | 106km/h | 10737m | 8.7m/s | 0°C | 0% | 0hPa | 0V | 00:00:00 | 00:00:00 | 00:00:00 | |
| KRY50SP | 2026-08-31 11:48:28 | 51.25620 | 17.25929 | 71° | 77km/h | 10709m | 7.6m/s | 0°C | 0% | 0hPa | 0V | 00:00:00 | 00:00:00 | 00:00:00 | |
| SQ6EMJ | 2026-08-31 11:48:26 | 51.25599 | 17.25884 | 42° | 75km/h | 10695m | 6.6m/s | 0°C | 0% | 0hPa | 0V | 00:00:00 | 00:00:00 | 00:00:00 | |
| KRY50SP | 2026-08-31 11:48:21 | 51.25531 | 17.25723 | 68° | 115km/h | 10659m | 5.1m/s | 0°C | 0% | 0hPa | 0V | 00:00:00 | 00:00:00 | 00:00:00 | |
| SQ6EMJ | 2026-08-31 11:48:20 | 51.25519 | 17.25682 | 62° | 115km/h | 10655m | 2.4m/s | 0°C | 0% | 0hPa | 0V | 00:00:00 | 00:00:00 | 00:00:00 | |
| SQ6EMJ | 2026-08-31 11:48:15 | 51.25449 | 17.25547 | 56° | 57km/h | 10626m | 5.4m/s | 0°C | 0% | 0hPa | 0V | 00:00:00 | 00:00:00 | 00:00:00 | |
| SP3BTT-10 | 2026-08-31 11:48:14 | 51.25442 | 17.25526 | 69° | 75km/h | 10620m | 5.0m/s | 0°C | 0% | 0hPa | 0V | 00:00:00 | 00:00:00 | 00:00:00 | |
| SQ6EMJ | 2026-08-31 11:48:09 | 51.25393 | 17.25367 | 60° | 106km/h | 10585m | 7.3m/s | 0°C | 0% | 0hPa | 0V | 00:00:00 | 00:00:00 | 00:00:00 | |
| SQ6EMJ | 2026-08-31 11:48:03 | 51.25346 | 17.25200 | 43° | 66km/h | 10546m | 6.6m/s | 0°C | 0% | 0hPa | 0V | 00:00:00 | 00:00:00 | 00:00:00 | |
| KRY50SP | 2026-08-31 11:47:57 | 51.25264 | 17.25036 | 70° | 86km/h | 10510m | 7.1m/s | 0°C | 0% | 0hPa | 0V | 00:00:00 | 00:00:00 | 00:00:00 | |
| SQ6EMJ | 2026-08-31 11:47:52 | 51.25228 | 17.24886 | 70° | 78km/h | 10481m | 7.5m/s | 0°C | 0% | 0hPa | 0V | 00:00:00 | 00:00:00 | 00:00:00 | |
| KRY50SP | 2026-08-31 11:47:51 | 51.25220 | 17.24858 | 64° | 73km/h | 10473m | 7.1m/s | 0°C | 0% | 0hPa | 0V | 00:00:00 | 00:00:00 | 00:00:00 | |
| KRY50SP | 2026-08-31 11:47:45 | 51.25158 | 17.24725 | 61° | 88km/h | 10438m | 5.9m/s | 0°C | 0% | 0hPa | 0V | 00:00:00 | 00:00:00 | 00:00:00 | |
| SQ6EMJ | 2026-08-31 11:47:41 | 51.25125 | 17.24615 | 75° | 62km/h | 10415m | 5.7m/s | 0°C | 0% | 0hPa | 0V | 00:00:00 | 00:00:00 | 00:00:00 | |
| KRY50SP | 2026-08-31 11:47:40 | 51.25121 | 17.24589 | 76° | 69km/h | 10407m | 7.1m/s | 0°C | 0% | 0hPa | 0V | 00:00:00 | 00:00:00 | 00:00:00 | |
| SQ6EMJ | 2026-08-31 11:47:35 | 51.25071 | 17.24469 | 40° | 66km/h | 10379m | 5.0m/s | 0°C | 0% | 0hPa | 0V | 00:00:00 | 00:00:00 | 00:00:00 | |
| KRY50SP | 2026-08-31 11:47:34 | 51.25058 | 17.24453 | 39° | 62km/h | 10375m | 2.6m/s | 0°C | 0% | 0hPa | 0V | 00:00:00 | 00:00:00 | 00:00:00 | |
| SQ6EMJ | 2026-08-31 11:47:29 | 51.25006 | 17.24323 | 69° | 86km/h | 10346m | 5.2m/s | 0°C | 0% | 0hPa | 0V | 00:00:00 | 00:00:00 | 00:00:00 | |
| KRY50SP | 2026-08-31 11:47:26 | 51.24977 | 17.24242 | 53° | 71km/h | 10328m | 7.8m/s | 0°C | 0% | 0hPa | 0V | 00:00:00 | 00:00:00 | 00:00:00 | |
| SQ6EMJ | 2026-08-31 11:47:23 | 51.24949 | 17.24175 | 62° | 64km/h | 10311m | 5.1m/s | 0°C | 0% | 0hPa | 0V | 00:00:00 | 00:00:00 | 00:00:00 | |
| KRY50SP | 2026-08-31 11:47:20 | 51.24921 | 17.24110 | 52° | 71km/h | 10291m | 5.7m/s | 0°C | 0% | 0hPa | 0V | 00:00:00 | 00:00:00 | 00:00:00 | |
| SQ6EMJ | 2026-08-31 11:47:18 | 51.24887 | 17.24032 | 58° | 80km/h | 10274m | 5.0m/s | 0°C | 0% | 0hPa | 0V | 00:00:00 | 00:00:00 | 00:00:00 | |
| KRY50SP | 2026-08-31 11:47:15 | 51.24869 | 17.23984 | 61° | 58km/h | 10262m | 4.6m/s | 0°C | 0% | 0hPa | 0V | 00:00:00 | 00:00:00 | 00:00:00 | |
| SQ6EMJ | 2026-08-31 11:47:11 | 51.24838 | 17.23895 | 61° | 84km/h | 10244m | 7.0m/s | 0°C | 0% | 0hPa | 0V | 00:00:00 | 00:00:00 | 00:00:00 | |
| KRY50SP | 2026-08-31 11:47:09 | 51.24815 | 17.23831 | 62° | 95km/h | 10233m | 4.0m/s | 0°C | 0% | 0hPa | 0V | 00:00:00 | 00:00:00 | 00:00:00 | |
| SQ6EMJ | 2026-08-31 11:47:05 | 51.24781 | 17.23729 | 62° | 55km/h | 10212m | 5.3m/s | 0°C | 0% | 0hPa | 0V | 00:00:00 | 00:00:00 | 00:00:00 | |
| KRY50SP | 2026-08-31 11:47:02 | 51.24757 | 17.23662 | 62° | 75km/h | 10194m | 5.8m/s | 0°C | 0% | 0hPa | 0V | 00:00:00 | 00:00:00 | 00:00:00 | |
| SP3BTT-10 | 2026-08-31 11:47:00 | 51.24725 | 17.23585 | 52° | 75km/h | 10173m | 6.5m/s | 0°C | 0% | 0hPa | 0V | 00:00:00 | 00:00:00 | 00:00:00 | |
| KRY50SP | 2026-08-31 11:46:57 | 51.24702 | 17.23546 | 43° | 64km/h | 10162m | 2.3m/s | 0°C | 0% | 0hPa | 0V | 00:00:00 | 00:00:00 | 00:00:00 | |
| SQ6EMJ | 2026-08-31 11:46:54 | 51.24670 | 17.23477 | 64° | 84km/h | 10148m | 5.6m/s | 0°C | 0% | 0hPa | 0V | 00:00:00 | 00:00:00 | 00:00:00 | |
| KRY50SP | 2026-08-31 11:46:48 | 51.24605 | 17.23324 | 46° | 73km/h | 10113m | 5.4m/s | 0°C | 0% | 0hPa | 0V | 00:00:00 | 00:00:00 | 00:00:00 | |
| SQ6EMJ | 2026-08-31 11:46:43 | 51.24551 | 17.23208 | 57° | 75km/h | 10084m | 4.2m/s | 0°C | 0% | 0hPa | 0V | 00:00:00 | 00:00:00 | 00:00:00 | |
| KRY50SP | 2026-08-31 11:46:41 | 51.24529 | 17.23157 | 56° | 78km/h | 10074m | 6.8m/s | 0°C | 0% | 0hPa | 0V | 00:00:00 | 00:00:00 | 00:00:00 | |
| SQ6EMJ | 2026-08-31 11:46:37 | 51.24484 | 17.23073 | 52° | 60km/h | 10051m | 3.7m/s | 0°C | 0% | 0hPa | 0V | 00:00:00 | 00:00:00 | 00:00:00 | |
| KRY50SP | 2026-08-31 11:46:35 | 51.24464 | 17.23028 | 57° | 78km/h | 10040m | 6.9m/s | 0°C | 0% | 0hPa | 0V | 00:00:00 | 00:00:00 | 00:00:00 | |
| SQ6EMJ | 2026-08-31 11:46:31 | 51.24410 | 17.22927 | 46° | 69km/h | 10011m | 5.1m/s | 0°C | 0% | 0hPa | 0V | 00:00:00 | 00:00:00 | 00:00:00 | |
| KRY50SP | 2026-08-31 11:46:30 | 51.24399 | 17.22907 | 48° | 64km/h | 10005m | 6.1m/s | 0°C | 0% | 0hPa | 0V | 00:00:00 | 00:00:00 | 00:00:00 | |
| SQ6EMJ | 2026-08-31 11:46:25 | 51.24343 | 17.22790 | 56° | 89km/h | 9979m | 4.8m/s | 0°C | 0% | 0hPa | 0V | 00:00:00 | 00:00:00 | 00:00:00 | |
| KRY50SP | 2026-08-31 11:46:24 | 51.24331 | 17.22760 | 58° | 84km/h | 9974m | 5.3m/s | 0°C | 0% | 0hPa | 0V | 00:00:00 | 00:00:00 | 00:00:00 | |
| SQ6EMJ | 2026-08-31 11:46:19 | 51.24273 | 17.22649 | 52° | 78km/h | 9941m | 4.9m/s | 0°C | 0% | 0hPa | 0V | 00:00:00 | 00:00:00 | 00:00:00 | |
| KRY50SP | 2026-08-31 11:46:16 | 51.24237 | 17.22582 | 49° | 64km/h | 9922m | 5.6m/s | 0°C | 0% | 0hPa | 0V | 00:00:00 | 00:00:00 | 00:00:00 | |
| SQ6EMJ | 2026-08-31 11:46:13 | 51.24209 | 17.22520 | 61° | 68km/h | 9904m | 5.4m/s | 0°C | 0% | 0hPa | 0V | 00:00:00 | 00:00:00 | 00:00:00 | |
| KRY50SP | 2026-08-31 11:46:10 | 51.24175 | 17.22448 | 47° | 80km/h | 9888m | 5.1m/s | 0°C | 0% | 0hPa | 0V | 00:00:00 | 00:00:00 | 00:00:00 | |
| SQ6EMJ | 2026-08-31 11:46:07 | 51.24133 | 17.22376 | 55° | 77km/h | 9872m | 5.6m/s | 0°C | 0% | 0hPa | 0V | 00:00:00 | 00:00:00 | 00:00:00 | |
| KRY50SP | 2026-08-31 11:46:04 | 51.24106 | 17.22299 | 65° | 77km/h | 9855m | 4.7m/s | 0°C | 0% | 0hPa | 0V | 00:00:00 | 00:00:00 | 00:00:00 | |
| SQ6EMJ | 2026-08-31 11:46:02 | 51.24089 | 17.22243 | 64° | 78km/h | 9845m | 6.6m/s | 0°C | 0% | 0hPa | 0V | 00:00:00 | 00:00:00 | 00:00:00 | |
| KRY50SP | 2026-08-31 11:45:59 | 51.24063 | 17.22169 | 59° | 60km/h | 9826m | 6.5m/s | 0°C | 0% | 0hPa | 0V | 00:00:00 | 00:00:00 | 00:00:00 | |
| SQ6EMJ | 2026-08-31 11:45:57 | 51.24047 | 17.22127 | 63° | 64km/h | 9815m | 5.5m/s | 0°C | 0% | 0hPa | 0V | 00:00:00 | 00:00:00 | 00:00:00 | |
| KRY50SP | 2026-08-31 11:45:53 | 51.24005 | 17.22025 | 52° | 73km/h | 9793m | 7.6m/s | 0°C | 0% | 0hPa | 0V | 00:00:00 | 00:00:00 | 00:00:00 | |
| KRY50SP | 2026-08-31 11:45:48 | 51.23959 | 17.21925 | 61° | 78km/h | 9760m | 6.8m/s | 0°C | 0% | 0hPa | 0V | 00:00:00 | 00:00:00 | 00:00:00 | |
| SQ6EMJ | 2026-08-31 11:45:46 | 51.23936 | 17.21867 | 52° | 88km/h | 9745m | 6.5m/s | 0°C | 0% | 0hPa | 0V | 00:00:00 | 00:00:00 | 00:00:00 | |
| KRY50SP | 2026-08-31 11:45:42 | 51.23880 | 17.21789 | 47° | 60km/h | 9725m | 3.7m/s | 0°C | 0% | 0hPa | 0V | 00:00:00 | 00:00:00 | 00:00:00 | |
| SQ6EMJ | 2026-08-31 11:45:40 | 51.23860 | 17.21747 | 64° | 73km/h | 9713m | 6.4m/s | 0°C | 0% | 0hPa | 0V | 00:00:00 | 00:00:00 | 00:00:00 | |
| KRY50SP | 2026-08-31 11:45:37 | 51.23837 | 17.21662 | 64° | 73km/h | 9693m | 6.7m/s | 0°C | 0% | 0hPa | 0V | 00:00:00 | 00:00:00 | 00:00:00 | |
| SQ6EMJ | 2026-08-31 11:45:34 | 51.23804 | 17.21601 | 39° | 73km/h | 9672m | 5.4m/s | 0°C | 0% | 0hPa | 0V | 00:00:00 | 00:00:00 | 00:00:00 | |
| KRY50SP | 2026-08-31 11:45:30 | 51.23747 | 17.21503 | 58° | 89km/h | 9647m | 5.7m/s | 0°C | 0% | 0hPa | 0V | 00:00:00 | 00:00:00 | 00:00:00 | |
| SP3BTT-10 | 2026-08-31 11:45:28 | 51.23725 | 17.21448 | 60° | 71km/h | 9632m | 7.0m/s | 0°C | 0% | 0hPa | 0V | 00:00:00 | 00:00:00 | 00:00:00 | |
| KRY50SP | 2026-08-31 11:45:24 | 51.23692 | 17.21364 | 54° | 71km/h | 9610m | 4.4m/s | 0°C | 0% | 0hPa | 0V | 00:00:00 | 00:00:00 | 00:00:00 | |
| SQ6EMJ | 2026-08-31 11:45:22 | 51.23665 | 17.21317 | 42° | 89km/h | 9599m | 5.8m/s | 0°C | 0% | 0hPa | 0V | 00:00:00 | 00:00:00 | 00:00:00 | |
| KRY50SP | 2026-08-31 11:45:20 | 51.23618 | 17.21260 | 48° | 60km/h | 9583m | 6.6m/s | 0°C | 0% | 0hPa | 0V | 00:00:00 | 00:00:00 | 00:00:00 | |
| SQ6EMJ | 2026-08-31 11:45:17 | 51.23597 | 17.21193 | 72° | 75km/h | 9563m | 4.5m/s | 0°C | 0% | 0hPa | 0V | 00:00:00 | 00:00:00 | 00:00:00 | |
| KRY50SP | 2026-08-31 11:45:13 | 51.23562 | 17.21111 | 39° | 88km/h | 9545m | 5.6m/s | 0°C | 0% | 0hPa | 0V | 00:00:00 | 00:00:00 | 00:00:00 | |
| SQ6EMJ | 2026-08-31 11:45:11 | 51.23529 | 17.21073 | 38° | 71km/h | 9529m | 9.0m/s | 0°C | 0% | 0hPa | 0V | 00:00:00 | 00:00:00 | 00:00:00 | |
| KRY50SP | 2026-08-31 11:45:06 | 51.23478 | 17.20965 | 55° | 95km/h | 9496m | 7.2m/s | 0°C | 0% | 0hPa | 0V | 00:00:00 | 00:00:00 | 00:00:00 | |
| SQ6EMJ | 2026-08-31 11:45:04 | 51.23444 | 17.20909 | 41° | 91km/h | 9480m | 8.3m/s | 0°C | 0% | 0hPa | 0V | 00:00:00 | 00:00:00 | 00:00:00 | |
| KRY50SP | 2026-08-31 11:45:01 | 51.23404 | 17.20856 | 42° | 49km/h | 9459m | 3.5m/s | 0°C | 0% | 0hPa | 0V | 00:00:00 | 00:00:00 | 00:00:00 | |
| SQ6EMJ | 2026-08-31 11:44:58 | 51.23376 | 17.20817 | 45° | 58km/h | 9447m | 3.5m/s | 0°C | 0% | 0hPa | 0V | 00:00:00 | 00:00:00 | 00:00:00 | |
| KRY50SP | 2026-08-31 11:44:53 | 51.23313 | 17.20682 | 60° | 73km/h | 9416m | 5.2m/s | 0°C | 0% | 0hPa | 0V | 00:00:00 | 00:00:00 | 00:00:00 | |
| SQ6EMJ | 2026-08-31 11:44:52 | 51.23305 | 17.20659 | 62° | 58km/h | 9410m | 6.2m/s | 0°C | 0% | 0hPa | 0V | 00:00:00 | 00:00:00 | 00:00:00 | |
| SQ6EMJ | 2026-08-31 11:44:47 | 51.23231 | 17.20552 | 36° | 93km/h | 9375m | 6.8m/s | 0°C | 0% | 0hPa | 0V | 00:00:00 | 00:00:00 | 00:00:00 | |
| KRY50SP | 2026-08-31 11:44:46 | 51.23231 | 17.20552 | 36° | 93km/h | 9375m | 6.8m/s | 0°C | 0% | 0hPa | 0V | 00:00:00 | 00:00:00 | 00:00:00 | |
| SQ6EMJ | 2026-08-31 11:44:40 | 51.23154 | 17.20430 | 48° | 84km/h | 9333m | 9.5m/s | 0°C | 0% | 0hPa | 0V | 00:00:00 | 00:00:00 | 00:00:00 | |
| KRY50SP | 2026-08-31 11:44:38 | 51.23117 | 17.20377 | 42° | 110km/h | 9320m | 6.8m/s | 0°C | 0% | 0hPa | 0V | 00:00:00 | 00:00:00 | 00:00:00 | |
| SQ6EMJ | 2026-08-31 11:44:32 | 51.23035 | 17.20245 | 32° | 60km/h | 9281m | 8.1m/s | 0°C | 0% | 0hPa | 0V | 00:00:00 | 00:00:00 | 00:00:00 | |
| KRY50SP | 2026-08-31 11:44:31 | 51.23020 | 17.20231 | 30° | 75km/h | 9274m | 6.0m/s | 0°C | 0% | 0hPa | 0V | 00:00:00 | 00:00:00 | 00:00:00 | |
| SQ6EMJ | 2026-08-31 11:44:26 | 51.22936 | 17.20109 | 53° | 86km/h | 9246m | 6.9m/s | 0°C | 0% | 0hPa | 0V | 00:00:00 | 00:00:00 | 00:00:00 | |
| KRY50SP | 2026-08-31 11:44:25 | 51.22924 | 17.20083 | 56° | 78km/h | 9240m | 4.4m/s | 0°C | 0% | 0hPa | 0V | 00:00:00 | 00:00:00 | 00:00:00 | |
| SQ6EMJ | 2026-08-31 11:44:20 | 51.22858 | 17.19974 | 40° | 86km/h | 9206m | 7.7m/s | 0°C | 0% | 0hPa | 0V | 00:00:00 | 00:00:00 | 00:00:00 | |
| KRY50SP | 2026-08-31 11:44:16 | 51.22795 | 17.19889 | 37° | 69km/h | 9182m | 7.1m/s | 0°C | 0% | 0hPa | 0V | 00:00:00 | 00:00:00 | 00:00:00 | |
| SP3BTT-10 | 2026-08-31 11:44:14 | 51.22766 | 17.19858 | 33° | 78km/h | 9171m | 7.0m/s | 0°C | 0% | 0hPa | 0V | 00:00:00 | 00:00:00 | 00:00:00 | |
| KRY50SP | 2026-08-31 11:44:10 | 51.22701 | 17.19773 | 46° | 77km/h | 9145m | 5.6m/s | 0°C | 0% | 0hPa | 0V | 00:00:00 | 00:00:00 | 00:00:00 | |
| SQ6EMJ | 2026-08-31 11:44:09 | 51.22689 | 17.19751 | 51° | 75km/h | 9140m | 3.6m/s | 0°C | 0% | 0hPa | 0V | 00:00:00 | 00:00:00 | 00:00:00 | |
| KRY50SP | 2026-08-31 11:44:05 | 51.22632 | 17.19648 | 44° | 86km/h | 9120m | 6.1m/s | 0°C | 0% | 0hPa | 0V | 00:00:00 | 00:00:00 | 00:00:00 | |
| SQ6EMJ | 2026-08-31 11:44:04 | 51.22617 | 17.19626 | 43° | 77km/h | 9114m | 4.9m/s | 0°C | 0% | 0hPa | 0V | 00:00:00 | 00:00:00 | 00:00:00 | |
| KRY50SP | 2026-08-31 11:44:00 | 51.22564 | 17.19560 | 34° | 75km/h | 9091m | 5.5m/s | 0°C | 0% | 0hPa | 0V | 00:00:00 | 00:00:00 | 00:00:00 | |
| SQ6EMJ | 2026-08-31 11:43:58 | 51.22529 | 17.19525 | 34° | 86km/h | 9079m | 6.4m/s | 0°C | 0% | 0hPa | 0V | 00:00:00 | 00:00:00 | 00:00:00 | |
| KRY50SP | 2026-08-31 11:43:54 | 51.22469 | 17.19442 | 46° | 78km/h | 9057m | 5.1m/s | 0°C | 0% | 0hPa | 0V | 00:00:00 | 00:00:00 | 00:00:00 | |
| SQ6EMJ | 2026-08-31 11:43:53 | 51.22454 | 17.19421 | 39° | 77km/h | 9050m | 7.1m/s | 0°C | 0% | 0hPa | 0V | 00:00:00 | 00:00:00 | 00:00:00 | |
| SQ6EMJ | 2026-08-31 11:43:47 | 51.22353 | 17.19310 | 46° | 89km/h | 9011m | 3.2m/s | 0°C | 0% | 0hPa | 0V | 00:00:00 | 00:00:00 | 00:00:00 | |
| KRY50SP | 2026-08-31 11:43:46 | 51.22337 | 17.19285 | 44° | 86km/h | 9007m | 6.0m/s | 0°C | 0% | 0hPa | 0V | 00:00:00 | 00:00:00 | 00:00:00 | |
| SQ6EMJ | 2026-08-31 11:43:42 | 51.22280 | 17.19220 | 32° | 71km/h | 8985m | 7.4m/s | 0°C | 0% | 0hPa | 0V | 00:00:00 | 00:00:00 | 00:00:00 | |
| KRY50SP | 2026-08-31 11:43:40 | 51.22248 | 17.19180 | 44° | 91km/h | 8973m | 4.2m/s | 0°C | 0% | 0hPa | 0V | 00:00:00 | 00:00:00 | 00:00:00 | |
| SQ6EMJ | 2026-08-31 11:43:36 | 51.22191 | 17.19083 | 46° | 66km/h | 8952m | 4.4m/s | 0°C | 0% | 0hPa | 0V | 00:00:00 | 00:00:00 | 00:00:00 | |
| KRY50SP | 2026-08-31 11:43:33 | 51.22148 | 17.19034 | 31° | 84km/h | 8935m | 4.1m/s | 0°C | 0% | 0hPa | 0V | 00:00:00 | 00:00:00 | 00:00:00 | |
| SQ6EMJ | 2026-08-31 11:43:31 | 51.22110 | 17.19001 | 31° | 84km/h | 8927m | 3.6m/s | 0°C | 0% | 0hPa | 0V | 00:00:00 | 00:00:00 | 00:00:00 | |
| KRY50SP | 2026-08-31 11:43:29 | 51.22069 | 17.18941 | 56° | 68km/h | 8908m | 6.4m/s | 0°C | 0% | 0hPa | 0V | 00:00:00 | 00:00:00 | 00:00:00 | |
| SQ6EMJ | 2026-08-31 11:43:22 | 51.21971 | 17.18806 | 43° | 84km/h | 8864m | 3.1m/s | 0°C | 0% | 0hPa | 0V | 00:00:00 | 00:00:00 | 00:00:00 | |
| KRY50SP | 2026-08-31 11:43:19 | 51.21939 | 17.18761 | 41° | 82km/h | 8855m | 5.2m/s | 0°C | 0% | 0hPa | 0V | 00:00:00 | 00:00:00 | 00:00:00 | |
| SQ6EMJ | 2026-08-31 11:43:15 | 51.21880 | 17.18692 | 40° | 73km/h | 8834m | 5.0m/s | 0°C | 0% | 0hPa | 0V | 00:00:00 | 00:00:00 | 00:00:00 | |
| KRY50SP | 2026-08-31 11:43:13 | 51.21849 | 17.18647 | 45° | 88km/h | 8822m | 3.8m/s | 0°C | 0% | 0hPa | 0V | 00:00:00 | 00:00:00 | 00:00:00 | |
| SQ6EMJ | 2026-08-31 11:43:09 | 51.21792 | 17.18557 | 38° | 78km/h | 8800m | 4.9m/s | 0°C | 0% | 0hPa | 0V | 00:00:00 | 00:00:00 | 00:00:00 | |
| KRY50SP | 2026-08-31 11:43:07 | 51.21758 | 17.18524 | 28° | 82km/h | 8790m | 2.7m/s | 0°C | 0% | 0hPa | 0V | 00:00:00 | 00:00:00 | 00:00:00 | |
| KRY50SP | 2026-08-31 11:42:55 | 51.21579 | 17.18296 | 41° | 75km/h | 8716m | 4.8m/s | 0°C | 0% | 0hPa | 0V | 00:00:00 | 00:00:00 | 00:00:00 | |
| SQ6EMJ | 2026-08-31 11:42:50 | 51.21512 | 17.18188 | 36° | 69km/h | 8689m | 4.6m/s | 0°C | 0% | 0hPa | 0V | 00:00:00 | 00:00:00 | 00:00:00 | |
| KRY50SP | 2026-08-31 11:42:49 | 51.21497 | 17.18173 | 29° | 69km/h | 8684m | 3.6m/s | 0°C | 0% | 0hPa | 0V | 00:00:00 | 00:00:00 | 00:00:00 | |
| SQ6EMJ | 2026-08-31 11:42:44 | 51.21411 | 17.18077 | 46° | 91km/h | 8657m | 6.1m/s | 0°C | 0% | 0hPa | 0V | 00:00:00 | 00:00:00 | 00:00:00 | |
| KRY50SP | 2026-08-31 11:42:43 | 51.21394 | 17.18051 | 46° | 93km/h | 8650m | 5.4m/s | 0°C | 0% | 0hPa | 0V | 00:00:00 | 00:00:00 | 00:00:00 | |
| SQ6EMJ | 2026-08-31 11:42:38 | 51.21321 | 17.17948 | 39° | 57km/h | 8621m | 4.5m/s | 0°C | 0% | 0hPa | 0V | 00:00:00 | 00:00:00 | 00:00:00 | |
| KRY50SP | 2026-08-31 11:42:36 | 51.21295 | 17.17916 | 39° | 69km/h | 8612m | 4.0m/s | 0°C | 0% | 0hPa | 0V | 00:00:00 | 00:00:00 | 00:00:00 | |
| SQ6EMJ | 2026-08-31 11:42:32 | 51.21235 | 17.17823 | 50° | 80km/h | 8592m | 5.1m/s | 0°C | 0% | 0hPa | 0V | 00:00:00 | 00:00:00 | 00:00:00 | |
| SP3BTT-10 | 2026-08-31 11:42:27 | 51.21142 | 17.17695 | 31° | 78km/h | 8546m | 5.6m/s | 0°C | 0% | 0hPa | 0V | 00:00:00 | 00:00:00 | 00:00:00 | |
| KRY50SP | 2026-08-31 11:42:21 | 51.21073 | 17.17614 | 45° | 71km/h | 8516m | 3.0m/s | 0°C | 0% | 0hPa | 0V | 00:00:00 | 00:00:00 | 00:00:00 | |
| SQ6EMJ | 2026-08-31 11:42:20 | 51.21058 | 17.17594 | 40° | 78km/h | 8512m | 4.5m/s | 0°C | 0% | 0hPa | 0V | 00:00:00 | 00:00:00 | 00:00:00 | |
| SQ6EMJ | 2026-08-31 11:42:15 | 51.20973 | 17.17510 | 31° | 71km/h | 8487m | 5.9m/s | 0°C | 0% | 0hPa | 0V | 00:00:00 | 00:00:00 | 00:00:00 | |
| KRY50SP | 2026-08-31 11:42:10 | 51.20914 | 17.17418 | 55° | 68km/h | 8461m | 4.7m/s | 0°C | 0% | 0hPa | 0V | 00:00:00 | 00:00:00 | 00:00:00 | |
| SQ6EMJ | 2026-08-31 11:42:09 | 51.20903 | 17.17396 | 50° | 73km/h | 8455m | 5.6m/s | 0°C | 0% | 0hPa | 0V | 00:00:00 | 00:00:00 | 00:00:00 | |
| SQ6EMJ | 2026-08-31 11:42:03 | 51.20811 | 17.17286 | 36° | 58km/h | 8419m | 3.2m/s | 0°C | 0% | 0hPa | 0V | 00:00:00 | 00:00:00 | 00:00:00 | |
| SQ6EMJ | 2026-08-31 11:41:57 | 51.20727 | 17.17201 | 33° | 75km/h | 8383m | 9.1m/s | 0°C | 0% | 0hPa | 0V | 00:00:00 | 00:00:00 | 00:00:00 | |
| SQ6EMJ | 2026-08-31 11:41:51 | 51.20627 | 17.17086 | 34° | 84km/h | 8337m | 2.6m/s | 0°C | 0% | 0hPa | 0V | 00:00:00 | 00:00:00 | 00:00:00 | |
| SQ6EMJ | 2026-08-31 11:41:46 | 51.20552 | 17.16975 | 47° | 71km/h | 8302m | 7.0m/s | 0°C | 0% | 0hPa | 0V | 00:00:00 | 00:00:00 | 00:00:00 | |
| SQ6EMJ | 2026-08-31 11:41:41 | 51.20469 | 17.16850 | 45° | 84km/h | 8259m | 5.5m/s | 0°C | 0% | 0hPa | 0V | 00:00:00 | 00:00:00 | 00:00:00 | |
| SQ6EMJ | 2026-08-31 11:41:35 | 51.20395 | 17.16746 | 43° | 66km/h | 8232m | 3.9m/s | 0°C | 0% | 0hPa | 0V | 00:00:00 | 00:00:00 | 00:00:00 | |
| SQ6EMJ | 2026-08-31 11:41:29 | 51.20308 | 17.16635 | 42° | 88km/h | 8202m | 5.3m/s | 0°C | 0% | 0hPa | 0V | 00:00:00 | 00:00:00 | 00:00:00 | |
| SQ6EMJ | 2026-08-31 11:41:24 | 51.20234 | 17.16536 | 45° | 68km/h | 8172m | 6.5m/s | 0°C | 0% | 0hPa | 0V | 00:00:00 | 00:00:00 | 00:00:00 | |
| KRY50SP | 2026-08-31 11:41:22 | 51.20210 | 17.16498 | 45° | 71km/h | 8161m | 3.9m/s | 0°C | 0% | 0hPa | 0V | 00:00:00 | 00:00:00 | 00:00:00 | |
| SQ6EMJ | 2026-08-31 11:41:19 | 51.20162 | 17.16429 | 42° | 89km/h | 8144m | 3.3m/s | 0°C | 0% | 0hPa | 0V | 00:00:00 | 00:00:00 | 00:00:00 | |
| SQ6EMJ | 2026-08-31 11:41:13 | 51.20080 | 17.16312 | 49° | 78km/h | 8113m | 4.5m/s | 0°C | 0% | 0hPa | 0V | 00:00:00 | 00:00:00 | 00:00:00 | |
| SQ6EMJ | 2026-08-31 11:41:01 | 51.19890 | 17.16081 | 58° | 82km/h | 8046m | 7.1m/s | 0°C | 0% | 0hPa | 0V | 00:00:00 | 00:00:00 | 00:00:00 | |
| SQ6EMJ | 2026-08-31 11:40:45 | 51.19662 | 17.15772 | 31° | 97km/h | 7940m | 6.5m/s | 0°C | 0% | 0hPa | 0V | 00:00:00 | 00:00:00 | 00:00:00 | |
| SQ6EMJ | 2026-08-31 11:40:31 | 51.19442 | 17.15507 | 48° | 69km/h | 7859m | 6.5m/s | 0°C | 0% | 0hPa | 0V | 00:00:00 | 00:00:00 | 00:00:00 | |
| SQ6EMJ | 2026-08-31 11:40:24 | 51.19346 | 17.15360 | 64° | 82km/h | 7816m | 5.0m/s | 0°C | 0% | 0hPa | 0V | 00:00:00 | 00:00:00 | 00:00:00 | |
| SQ6EMJ | 2026-08-31 11:40:17 | 51.19239 | 17.15175 | 46° | 104km/h | 7766m | 6.0m/s | 0°C | 0% | 0hPa | 0V | 00:00:00 | 00:00:00 | 00:00:00 | |
| SQ6EMJ | 2026-08-31 11:40:11 | 51.19139 | 17.14997 | 54° | 89km/h | 7723m | 8.4m/s | 0°C | 0% | 0hPa | 0V | 00:00:00 | 00:00:00 | 00:00:00 | |
| SQ6EMJ | 2026-08-31 11:40:01 | 51.19004 | 17.14705 | 70° | 84km/h | 7663m | 3.8m/s | 0°C | 0% | 0hPa | 0V | 00:00:00 | 00:00:00 | 00:00:00 | |
| SQ6EMJ | 2026-08-31 11:39:56 | 51.18930 | 17.14499 | 51° | 84km/h | 7625m | 6.7m/s | 0°C | 0% | 0hPa | 0V | 00:00:00 | 00:00:00 | 00:00:00 | |
| SQ6EMJ | 2026-08-31 11:39:41 | 51.18778 | 17.14068 | 74° | 89km/h | 7542m | 6.2m/s | 0°C | 0% | 0hPa | 0V | 00:00:00 | 00:00:00 | 00:00:00 | |
| SQ6EMJ | 2026-08-31 11:39:24 | 51.18630 | 17.13517 | 56° | 100km/h | 7437m | 6.7m/s | 0°C | 0% | 0hPa | 0V | 00:00:00 | 00:00:00 | 00:00:00 | |
| KRY50SP | 2026-08-31 11:39:18 | 51.18573 | 17.13344 | 74° | 82km/h | 7401m | 6.7m/s | 0°C | 0% | 0hPa | 0V | 00:00:00 | 00:00:00 | 00:00:00 | |
| KRY50SP | 2026-08-31 11:39:12 | 51.18521 | 17.13147 | 72° | 89km/h | 7366m | 4.4m/s | 0°C | 0% | 0hPa | 0V | 00:00:00 | 00:00:00 | 00:00:00 | |
| SQ6EMJ | 2026-08-31 11:39:07 | 51.18475 | 17.12987 | 60° | 102km/h | 7340m | 3.8m/s | 0°C | 0% | 0hPa | 0V | 00:00:00 | 00:00:00 | 00:00:00 | |
| KRY50SP | 2026-08-31 11:38:59 | 51.18399 | 17.12727 | 63° | 89km/h | 7292m | 3.8m/s | 0°C | 0% | 0hPa | 0V | 00:00:00 | 00:00:00 | 00:00:00 | |
| SQ6EMJ | 2026-08-31 11:38:57 | 51.18377 | 17.12660 | 66° | 99km/h | 7282m | 3.8m/s | 0°C | 0% | 0hPa | 0V | 00:00:00 | 00:00:00 | 00:00:00 | |
| SQ6EMJ | 2026-08-31 11:38:50 | 51.18314 | 17.12435 | 69° | 89km/h | 7248m | 6.2m/s | 0°C | 0% | 0hPa | 0V | 00:00:00 | 00:00:00 | 00:00:00 | |
| SQ6EMJ | 2026-08-31 11:38:34 | 51.18180 | 17.11897 | 63° | 84km/h | 7153m | 6.7m/s | 0°C | 0% | 0hPa | 0V | 00:00:00 | 00:00:00 | 00:00:00 | |
| SP3BTT-10 | 2026-08-31 11:38:31 | 51.18161 | 17.11834 | 67° | 88km/h | 7141m | 4.8m/s | 0°C | 0% | 0hPa | 0V | 00:00:00 | 00:00:00 | 00:00:00 | |
| SQ6EMJ | 2026-08-31 11:38:28 | 51.18138 | 17.11751 | 64° | 66km/h | 7123m | 4.5m/s | 0°C | 0% | 0hPa | 0V | 00:00:00 | 00:00:00 | 00:00:00 | |
| SQ6EMJ | 2026-08-31 11:38:22 | 51.18092 | 17.11577 | 67° | 97km/h | 7090m | 4.9m/s | 0°C | 0% | 0hPa | 0V | 00:00:00 | 00:00:00 | 00:00:00 | |
| SQ6EMJ | 2026-08-31 11:38:17 | 51.18048 | 17.11384 | 76° | 84km/h | 7056m | 7.4m/s | 0°C | 0% | 0hPa | 0V | 00:00:00 | 00:00:00 | 00:00:00 | |
| SQ6EMJ | 2026-08-31 11:38:10 | 51.18005 | 17.11180 | 72° | 80km/h | 7024m | 4.3m/s | 0°C | 0% | 0hPa | 0V | 00:00:00 | 00:00:00 | 00:00:00 | |
| SQ6EMJ | 2026-08-31 11:38:04 | 51.17962 | 17.11015 | 73° | 88km/h | 6994m | 5.4m/s | 0°C | 0% | 0hPa | 0V | 00:00:00 | 00:00:00 | 00:00:00 | |
| SQ6EMJ | 2026-08-31 11:37:59 | 51.17933 | 17.10858 | 76° | 75km/h | 6964m | 7.1m/s | 0°C | 0% | 0hPa | 0V | 00:00:00 | 00:00:00 | 00:00:00 | |
| SQ6EMJ | 2026-08-31 11:37:48 | 51.17842 | 17.10520 | 70° | 89km/h | 6909m | 2.9m/s | 0°C | 0% | 0hPa | 0V | 00:00:00 | 00:00:00 | 00:00:00 | |
| SQ6EMJ | 2026-08-31 11:37:43 | 51.17810 | 17.10354 | 74° | 89km/h | 6885m | 2.3m/s | 0°C | 0% | 0hPa | 0V | 00:00:00 | 00:00:00 | 00:00:00 | |
| SQ6EMJ | 2026-08-31 11:37:38 | 51.17774 | 17.10202 | 69° | 69km/h | 6860m | 4.7m/s | 0°C | 0% | 0hPa | 0V | 00:00:00 | 00:00:00 | 00:00:00 | |
| SQ6EMJ | 2026-08-31 11:37:32 | 51.17736 | 17.10008 | 78° | 71km/h | 6824m | 4.1m/s | 0°C | 0% | 0hPa | 0V | 00:00:00 | 00:00:00 | 00:00:00 | |
| SQ6EMJ | 2026-08-31 11:37:27 | 51.17700 | 17.09881 | 65° | 73km/h | 6803m | 4.2m/s | 0°C | 0% | 0hPa | 0V | 00:00:00 | 00:00:00 | 00:00:00 | |
| SQ6EMJ | 2026-08-31 11:37:18 | 51.17649 | 17.09607 | 68° | 88km/h | 6751m | 5.2m/s | 0°C | 0% | 0hPa | 0V | 00:00:00 | 00:00:00 | 00:00:00 | |
| SQ6EMJ | 2026-08-31 11:37:11 | 51.17601 | 17.09382 | 74° | 88km/h | 6712m | 3.8m/s | 0°C | 0% | 0hPa | 0V | 00:00:00 | 00:00:00 | 00:00:00 | |
| SQ6EMJ | 2026-08-31 11:37:06 | 51.17567 | 17.09227 | 61° | 86km/h | 6691m | 4.2m/s | 0°C | 0% | 0hPa | 0V | 00:00:00 | 00:00:00 | 00:00:00 | |
| SP3BTT-10 | 2026-08-31 11:36:44 | 51.17423 | 17.08544 | 78° | 78km/h | 6572m | 4.7m/s | 0°C | 0% | 0hPa | 0V | 00:00:00 | 00:00:00 | 00:00:00 | |
| SQ6EMJ | 2026-08-31 11:36:33 | 51.17373 | 17.08188 | 81° | 82km/h | 6521m | 3.6m/s | 0°C | 0% | 0hPa | 0V | 00:00:00 | 00:00:00 | 00:00:00 | |
| SQ6EMJ | 2026-08-31 11:36:28 | 51.17349 | 17.08010 | 73° | 80km/h | 6486m | 5.1m/s | 0°C | 0% | 0hPa | 0V | 00:00:00 | 00:00:00 | 00:00:00 | |
| SQ6EMJ | 2026-08-31 11:36:22 | 51.17312 | 17.07856 | 83° | 80km/h | 6461m | 6.3m/s | 0°C | 0% | 0hPa | 0V | 00:00:00 | 00:00:00 | 00:00:00 | |
| SQ6EMJ | 2026-08-31 11:35:21 | 51.17030 | 17.05955 | 66° | 77km/h | 6106m | 4.0m/s | 0°C | 0% | 0hPa | 0V | 00:00:00 | 00:00:00 | 00:00:00 | |
| SQ6EMJ | 2026-08-31 11:35:14 | 51.16992 | 17.05766 | 78° | 68km/h | 6070m | 2.9m/s | 0°C | 0% | 0hPa | 0V | 00:00:00 | 00:00:00 | 00:00:00 | |
| SQ6EMJ | 2026-08-31 11:35:06 | 51.16960 | 17.05523 | 80° | 60km/h | 6028m | 5.3m/s | 0°C | 0% | 0hPa | 0V | 00:00:00 | 00:00:00 | 00:00:00 | |
| SQ6EMJ | 2026-08-31 11:35:01 | 51.16928 | 17.05410 | 76° | 53km/h | 5997m | 5.6m/s | 0°C | 0% | 0hPa | 0V | 00:00:00 | 00:00:00 | 00:00:00 | |
| SQ6EMJ | 2026-08-31 11:34:55 | 51.16911 | 17.05234 | 68° | 78km/h | 5961m | 6.7m/s | 0°C | 0% | 0hPa | 0V | 00:00:00 | 00:00:00 | 00:00:00 | |
| SQ6EMJ | 2026-08-31 11:34:49 | 51.16882 | 17.05083 | 84° | 69km/h | 5926m | 4.6m/s | 0°C | 0% | 0hPa | 0V | 00:00:00 | 00:00:00 | 00:00:00 | |
| SQ6EMJ | 2026-08-31 11:34:43 | 51.16860 | 17.04925 | 80° | 60km/h | 5894m | 2.8m/s | 0°C | 0% | 0hPa | 0V | 00:00:00 | 00:00:00 | 00:00:00 | |
| SQ6EMJ | 2026-08-31 11:34:13 | 51.16738 | 17.04122 | 81° | 58km/h | 5727m | 7.9m/s | 0°C | 0% | 0hPa | 0V | 00:00:00 | 00:00:00 | 00:00:00 | |
| SQ6EMJ | 2026-08-31 11:34:01 | 51.16703 | 17.03810 | 75° | 66km/h | 5651m | 2.8m/s | 0°C | 0% | 0hPa | 0V | 00:00:00 | 00:00:00 | 00:00:00 | |
| SQ6EMJ | 2026-08-31 11:33:37 | 51.16633 | 17.03184 | 81° | 62km/h | 5523m | 7.3m/s | 0°C | 0% | 0hPa | 0V | 00:00:00 | 00:00:00 | 00:00:00 | |
| SQ6EMJ | 2026-08-31 11:33:31 | 51.16620 | 17.03016 | 86° | 64km/h | 5490m | 5.1m/s | 0°C | 0% | 0hPa | 0V | 00:00:00 | 00:00:00 | 00:00:00 | |
| SQ6EMJ | 2026-08-31 11:33:26 | 51.16615 | 17.02882 | 81° | 60km/h | 5469m | 3.7m/s | 0°C | 0% | 0hPa | 0V | 00:00:00 | 00:00:00 | 00:00:00 | |
| SQ6EMJ | 2026-08-31 11:33:21 | 51.16607 | 17.02757 | 82° | 62km/h | 5446m | 2.2m/s | 0°C | 0% | 0hPa | 0V | 00:00:00 | 00:00:00 | 00:00:00 | |
| SQ6EMJ | 2026-08-31 11:33:02 | 51.16587 | 17.02261 | 85° | 64km/h | 5365m | 6.6m/s | 0°C | 0% | 0hPa | 0V | 00:00:00 | 00:00:00 | 00:00:00 | |
| SQ6EMJ | 2026-08-31 11:32:42 | 51.16545 | 17.01743 | 83° | 57km/h | 5259m | 6.4m/s | 0°C | 0% | 0hPa | 0V | 00:00:00 | 00:00:00 | 00:00:00 | |
| SQ6EMJ | 2026-08-31 11:32:34 | 51.16526 | 17.01549 | 90° | 77km/h | 5222m | 4.3m/s | 0°C | 0% | 0hPa | 0V | 00:00:00 | 00:00:00 | 00:00:00 | |
| SQ6EMJ | 2026-08-31 11:32:28 | 51.16509 | 17.01364 | 74° | 68km/h | 5193m | 5.0m/s | 0°C | 0% | 0hPa | 0V | 00:00:00 | 00:00:00 | 00:00:00 | |
| SQ6EMJ | 2026-08-31 11:32:20 | 51.16479 | 17.01181 | 78° | 71km/h | 5151m | 6.4m/s | 0°C | 0% | 0hPa | 0V | 00:00:00 | 00:00:00 | 00:00:00 | |
| SQ6EMJ | 2026-08-31 11:31:26 | 51.16306 | 16.99949 | 80° | 42km/h | 4863m | 3.2m/s | 0°C | 0% | 0hPa | 0V | 00:00:00 | 00:00:00 | 00:00:00 | |
| SQ6EMJ | 2026-08-31 11:31:21 | 51.16299 | 16.99853 | 84° | 68km/h | 4839m | 7.5m/s | 0°C | 0% | 0hPa | 0V | 00:00:00 | 00:00:00 | 00:00:00 |